Darstellungsparameter: Aktuell verwendete Einstellungen:
Skalierung der Graphiken ... ?
xyx+y,   Skalierungsfaktor:      Skalierung: Modus: x, Faktor: 1
Darstellungszeitraum ... ?
Vom - - bis: - -   Zeitraum: 14.08.2003 - 13.02.2004
Min/Max/Avg-Anzeige ... ?
Zeige MMA aktuell
Zeige MMA Monat
Zeige MMA alles
Zeige --A aktuell
Zeige --A Monat
Zeige --A alles
Keine MMA-Anzeige
MMA:
Minimum Maximum Average (ber die Originaldaten)
MMA-Basis: 14.08.2003 - 13.02.2004
Quicknavigation für Darstellung... ?
Tage:      1T, 2T, 3T, 5T -1T -2T -3T -5T +1T +2T +3T +5T
Wochen: 1W, 2W, 3W -1W -2W -3W +1W +2W +3W
Monate: 1M, 3M, 6M -1M -3M -6M +1M +3M +6M
Jahre:    1J, 3J, 5J, 10J -1J -3J -5J -10J +1J +3J +5J +10J
Nutze für die Darstellung ... ?
Originaldaten oder Mittelwerte auf ...
Stundenbasis Tagesbasis Wochenbasis
Monatsbasis Jahresbasis      Datenbasis: Original-Daten
Darstellen als:
Statistik (Auto) Statistik J:M      Darstellung:
Zur Graphik,    zurück zur Übersicht aller Sensoren.
 
Tabellarische Datenbersicht: ?
 
Sensor: Nr:Datum:Temp:Feuchte:Taupunkt:
Aussen-T/F 1 14-08-2003 00:09:03 25.8 C 41 % 11.56 C
2 14-08-2003 00:19:03 25.4 C 42 % 11.56 C
3 14-08-2003 00:29:03 25.1 C 42 % 11.29 C
4 14-08-2003 00:39:03 24.8 C 45 % 12.06 C
5 14-08-2003 00:49:03 24.5 C 45 % 11.79 C
6 14-08-2003 00:59:03 24.4 C 45 % 11.7 C
7 14-08-2003 01:09:03 24.4 C 46 % 12.04 C
8 14-08-2003 01:19:03 24.2 C 46 % 11.85 C
9 14-08-2003 01:29:03 24.1 C 47 % 12.09 C
10 14-08-2003 01:39:03 24.1 C 47 % 12.09 C
11 14-08-2003 01:49:03 23.9 C 49 % 12.54 C
12 14-08-2003 01:59:03 23.9 C 49 % 12.54 C
13 14-08-2003 02:09:03 23.8 C 50 % 12.76 C
14 14-08-2003 02:19:03 23.7 C 50 % 12.67 C
15 14-08-2003 02:29:03 23.5 C 51 % 12.78 C
16 14-08-2003 02:39:03 23.4 C 52 % 12.99 C
17 14-08-2003 02:49:03 23.4 C 52 % 12.99 C
18 14-08-2003 02:59:03 23.3 C 52 % 12.9 C
19 14-08-2003 03:09:03 23.3 C 53 % 13.19 C
20 14-08-2003 03:19:03 22.7 C 54 % 12.92 C
21 14-08-2003 03:29:03 21.6 C 67 % 15.21 C
22 14-08-2003 03:39:03 21.6 C 68 % 15.44 C
23 14-08-2003 03:49:03 20.9 C 73 % 15.88 C
24 14-08-2003 03:59:03 20.6 C 74 % 15.8 C
25 14-08-2003 04:09:03 20.8 C 71 % 15.35 C
Sensor: Nr:Datum:Temp:Feuchte:Taupunkt:
Aussen-T/F 26 14-08-2003 04:19:03 21.2 C 66 % 14.6 C
27 14-08-2003 04:29:03 21.2 C 67 % 14.83 C
28 14-08-2003 04:39:03 21.3 C 66 % 14.69 C
29 14-08-2003 04:49:03 21.5 C 64 % 14.41 C
30 14-08-2003 04:59:03 21.3 C 66 % 14.69 C
31 14-08-2003 05:09:03 21.1 C 66 % 14.5 C
32 14-08-2003 05:19:03 21 C 67 % 14.64 C
33 14-08-2003 05:29:03 20.1 C 74 % 15.32 C
34 14-08-2003 05:39:03 20.1 C 74 % 15.32 C
35 14-08-2003 05:49:03 20.1 C 73 % 15.11 C
36 14-08-2003 05:59:03 20.4 C 73 % 15.4 C
37 14-08-2003 06:09:03 20.5 C 72 % 15.28 C
38 14-08-2003 06:19:03 20.6 C 70 % 14.94 C
39 14-08-2003 06:29:03 20.9 C 68 % 14.77 C
40 14-08-2003 06:39:03 20.5 C 69 % 14.62 C
41 14-08-2003 06:49:03 20.3 C 70 % 14.65 C
42 14-08-2003 06:59:03 20.3 C 72 % 15.09 C
43 14-08-2003 07:09:03 20.4 C 72 % 15.18 C
44 14-08-2003 07:19:03 20.8 C 70 % 15.13 C
45 14-08-2003 07:29:03 21 C 69 % 15.1 C
46 14-08-2003 07:39:03 21.2 C 69 % 15.29 C
47 14-08-2003 07:49:03 21.4 C 68 % 15.25 C
48 14-08-2003 07:59:03 21.4 C 67 % 15.02 C
49 14-08-2003 08:09:03 21.6 C 64 % 14.5 C
50 14-08-2003 08:19:03 21.8 C 65 % 14.93 C
Sensor: Nr:Datum:Temp:Feuchte:Taupunkt:
Aussen-T/F 51 14-08-2003 08:29:03 21.9 C 65 % 15.02 C
52 14-08-2003 08:39:03 21.9 C 64 % 14.78 C
53 14-08-2003 08:49:03 22.2 C 63 % 14.82 C
54 14-08-2003 08:59:03 22.4 C 62 % 14.76 C
55 14-08-2003 09:09:03 22.5 C 61 % 14.61 C
56 14-08-2003 09:19:03 22.7 C 61 % 14.79 C
57 14-08-2003 09:29:03 22.7 C 60 % 14.54 C
58 14-08-2003 09:39:01 23.2 C 58 % 14.48 C
59 14-08-2003 09:49:01 24.2 C 56 % 14.87 C
60 14-08-2003 09:59:01 24.4 C 54 % 14.49 C
61 14-08-2003 10:09:01 24.9 C 52 % 14.37 C
62 14-08-2003 10:19:01 24.6 C 51 % 13.79 C
63 14-08-2003 10:29:01 24.9 C 51 % 14.07 C
64 14-08-2003 10:39:00 25.3 C 49 % 13.82 C
65 14-08-2003 10:49:00 25.8 C 49 % 14.28 C
66 14-08-2003 10:59:00 26.6 C 50 % 15.32 C
67 14-08-2003 11:09:01 26.2 C 47 % 14 C
68 14-08-2003 11:19:01 26.3 C 48 % 14.42 C
69 14-08-2003 11:29:01 26.3 C 47 % 14.09 C
70 14-08-2003 11:39:00 26.6 C 47 % 14.36 C
71 14-08-2003 11:49:00 26.7 C 47 % 14.45 C
72 14-08-2003 11:59:00 27.1 C 45 % 14.15 C
73 14-08-2003 12:09:01 26.6 C 44 % 13.35 C
74 14-08-2003 12:19:01 26.6 C 42 % 12.64 C
75 14-08-2003 12:29:01 27.2 C 39 % 12.05 C
Sensor: Nr:Datum:Temp:Feuchte:Taupunkt:
Aussen-T/F 76 14-08-2003 12:39:01 27.5 C 39 % 12.31 C
77 14-08-2003 12:49:01 28 C 37 % 11.96 C
78 14-08-2003 12:59:01 28.8 C 36 % 12.25 C
79 14-08-2003 13:09:00 28.2 C 37 % 12.13 C
80 14-08-2003 13:19:00 28.2 C 38 % 12.54 C
81 14-08-2003 13:29:00 29 C 36 % 12.42 C
82 14-08-2003 13:39:02 28.6 C 36 % 12.07 C
83 14-08-2003 13:49:02 27.9 C 35 % 11.03 C
84 14-08-2003 13:59:02 27.8 C 36 % 11.37 C
85 14-08-2003 14:09:01 28.4 C 36 % 11.89 C
86 14-08-2003 14:19:01 28.4 C 35 % 11.47 C
87 14-08-2003 14:29:01 28.1 C 35 % 11.2 C
88 14-08-2003 14:39:01 27.9 C 35 % 11.03 C
89 14-08-2003 14:49:01 28.2 C 36 % 11.72 C
90 14-08-2003 14:59:01 28.8 C 36 % 12.25 C
91 14-08-2003 15:09:01 28.8 C 36 % 12.25 C
92 14-08-2003 15:19:01 27.4 C 38 % 11.83 C
93 14-08-2003 15:29:01 26.4 C 39 % 11.34 C
94 14-08-2003 15:39:02 26.6 C 39 % 11.51 C
95 14-08-2003 15:49:02 27 C 38 % 11.48 C
96 14-08-2003 15:59:02 26.8 C 37 % 10.9 C
97 14-08-2003 16:09:02 27.5 C 36 % 11.1 C
98 14-08-2003 16:19:02 26.8 C 38 % 11.3 C
99 14-08-2003 16:29:02 25.8 C 40 % 11.18 C
100 14-08-2003 16:39:01 25.9 C 40 % 11.27 C
Sensor: Nr:Datum:Temp:Feuchte:Taupunkt:
Aussen-T/F 101 14-08-2003 16:49:01 26.1 C 40 % 11.45 C
102 14-08-2003 16:59:01 26.6 C 38 % 11.12 C
103 14-08-2003 17:09:01 26.8 C 37 % 10.9 C
104 14-08-2003 17:19:01 26.6 C 35 % 9.89 C
105 14-08-2003 17:29:01 26.2 C 35 % 9.54 C
106 14-08-2003 17:39:02 25.7 C 36 % 9.52 C
107 14-08-2003 17:49:02 25.8 C 37 % 10.01 C
108 14-08-2003 17:59:02 25.5 C 35 % 8.92 C
109 14-08-2003 18:09:02 26.7 C 32 % 8.65 C
110 14-08-2003 18:19:02 26.8 C 30 % 7.78 C
111 14-08-2003 18:29:02 27 C 29 % 7.46 C
112 14-08-2003 18:39:02 26.8 C 28 % 6.78 C
113 14-08-2003 18:49:02 26.8 C 27 % 6.25 C
114 14-08-2003 18:59:02 26.7 C 30 % 7.7 C
115 14-08-2003 19:09:02 26.9 C 29 % 7.37 C
116 14-08-2003 19:19:02 26.2 C 28 % 6.26 C
117 14-08-2003 19:29:02 25.7 C 29 % 6.34 C
118 14-08-2003 19:39:01 25.2 C 31 % 6.88 C
119 14-08-2003 19:49:01 24.9 C 33 % 7.53 C
120 14-08-2003 19:59:01 24.7 C 34 % 7.8 C
121 14-08-2003 20:09:01 24.1 C 34 % 7.27 C
122 14-08-2003 20:19:01 24.1 C 34 % 7.27 C
123 14-08-2003 20:29:01 24 C 34 % 7.18 C
124 14-08-2003 20:39:02 23.9 C 35 % 7.52 C
125 14-08-2003 20:49:02 23.7 C 35 % 7.34 C
Sensor: Nr:Datum:Temp:Feuchte:Taupunkt:
Aussen-T/F 126 14-08-2003 20:59:02 23.5 C 35 % 7.17 C
127 14-08-2003 21:09:02 23.5 C 35 % 7.17 C
128 14-08-2003 21:19:02 23.6 C 35 % 7.25 C
129 14-08-2003 21:29:02 23.5 C 35 % 7.17 C
130 14-08-2003 21:39:01 23.3 C 35 % 6.99 C
131 14-08-2003 21:49:01 22.9 C 35 % 6.64 C
132 14-08-2003 21:59:01 22.6 C 35 % 6.38 C
133 14-08-2003 22:10:03 22.3 C 35 % 6.11 C
134 14-08-2003 22:20:03 21.9 C 36 % 6.17 C
135 14-08-2003 22:30:03 21.5 C 37 % 6.21 C
136 14-08-2003 22:40:03 21.1 C 35 % 5.06 C
137 14-08-2003 22:50:03 21 C 35 % 4.97 C
138 14-08-2003 23:00:03 21 C 35 % 4.97 C
139 14-08-2003 23:10:03 20.8 C 36 % 5.2 C
140 14-08-2003 23:20:03 20.7 C 36 % 5.11 C
141 14-08-2003 23:30:03 20.5 C 37 % 5.32 C
142 14-08-2003 23:40:03 20.4 C 38 % 5.62 C
143 14-08-2003 23:50:03 20.2 C 38 % 5.44 C
144 15-08-2003 00:00:03 20 C 39 % 5.64 C
145 15-08-2003 00:10:03 19.9 C 40 % 5.91 C
146 15-08-2003 00:20:03 19.5 C 40 % 5.56 C
147 15-08-2003 00:30:03 19.3 C 41 % 5.73 C
148 15-08-2003 00:40:03 19.2 C 42 % 5.99 C
149 15-08-2003 00:50:03 19 C 42 % 5.81 C
150 15-08-2003 01:00:03 18.8 C 44 % 6.3 C
Sensor: Nr:Datum:Temp:Feuchte:Taupunkt:
Aussen-T/F 151 15-08-2003 01:10:03 18.6 C 45 % 6.45 C
152 15-08-2003 01:20:03 18.3 C 45 % 6.17 C
153 15-08-2003 01:30:03 18.2 C 46 % 6.4 C
154 15-08-2003 01:40:03 17.9 C 48 % 6.75 C
155 15-08-2003 01:50:03 17.8 C 48 % 6.65 C
156 15-08-2003 02:00:03 17.7 C 49 % 6.86 C
157 15-08-2003 02:10:03 17.5 C 49 % 6.68 C
158 15-08-2003 02:20:03 17.3 C 50 % 6.79 C
159 15-08-2003 02:30:03 17.1 C 51 % 6.89 C
160 15-08-2003 02:40:03 16.9 C 52 % 6.99 C
161 15-08-2003 02:50:03 16.8 C 53 % 7.18 C
162 15-08-2003 03:00:03 16.6 C 54 % 7.26 C
163 15-08-2003 03:10:03 16.4 C 55 % 7.35 C
164 15-08-2003 03:20:03 16.2 C 56 % 7.42 C
165 15-08-2003 03:30:03 16.2 C 56 % 7.42 C
166 15-08-2003 03:40:03 15.9 C 58 % 7.66 C
167 15-08-2003 03:50:03 15.8 C 58 % 7.56 C
168 15-08-2003 04:00:03 15.6 C 59 % 7.62 C
169 15-08-2003 04:10:03 15.5 C 60 % 7.78 C
170 15-08-2003 04:20:03 15.2 C 61 % 7.74 C
171 15-08-2003 04:30:03 14.9 C 62 % 7.69 C
172 15-08-2003 04:40:03 14.7 C 63 % 7.74 C
173 15-08-2003 04:50:03 14.6 C 63 % 7.64 C
174 15-08-2003 05:00:03 14.5 C 64 % 7.78 C
175 15-08-2003 05:10:03 14.3 C 65 % 7.82 C
Sensor: Nr:Datum:Temp:Feuchte:Taupunkt:
Aussen-T/F 176 15-08-2003 05:20:03 14.3 C 65 % 7.82 C
177 15-08-2003 05:30:03 14.4 C 66 % 8.14 C
178 15-08-2003 05:40:03 14.2 C 66 % 7.95 C
179 15-08-2003 05:50:03 14 C 67 % 7.98 C
180 15-08-2003 06:00:03 13.8 C 68 % 8 C
181 15-08-2003 06:10:03 13.7 C 69 % 8.12 C
182 15-08-2003 06:20:03 13.6 C 69 % 8.03 C
183 15-08-2003 06:30:03 13.5 C 70 % 8.14 C
184 15-08-2003 06:40:03 13.5 C 72 % 8.56 C
185 15-08-2003 06:50:03 13.5 C 72 % 8.56 C
186 15-08-2003 07:00:03 13.6 C 72 % 8.65 C
187 15-08-2003 07:10:03 13.7 C 72 % 8.75 C
188 15-08-2003 07:20:03 13.8 C 72 % 8.85 C
189 15-08-2003 07:30:03 14 C 72 % 9.04 C
190 15-08-2003 07:40:03 14.1 C 71 % 8.93 C
191 15-08-2003 07:50:03 14.7 C 70 % 9.29 C
192 15-08-2003 08:00:03 15 C 66 % 8.71 C
193 15-08-2003 08:10:03 15 C 66 % 8.71 C
194 15-08-2003 08:20:03 15.2 C 67 % 9.12 C
195 15-08-2003 08:30:03 15.2 C 67 % 9.12 C
196 15-08-2003 08:40:01 15.3 C 68 % 9.43 C
197 15-08-2003 08:50:01 15.6 C 68 % 9.72 C
198 15-08-2003 09:00:01 15.6 C 68 % 9.72 C
199 15-08-2003 09:10:01 15.9 C 68 % 10.01 C
200 15-08-2003 09:20:01 16.1 C 67 % 9.98 C
Sensor: Nr:Datum:Temp:Feuchte:Taupunkt:
Aussen-T/F 201 15-08-2003 09:30:01 16.5 C 66 % 10.13 C
202 15-08-2003 09:40:01 17 C 63 % 9.91 C
203 15-08-2003 09:50:01 17.1 C 62 % 9.77 C
204 15-08-2003 10:00:01 18.1 C 60 % 10.22 C
205 15-08-2003 10:10:01 18.8 C 56 % 9.84 C
206 15-08-2003 10:20:01 19.4 C 55 % 10.13 C
207 15-08-2003 10:30:01 19.7 C 54 % 10.14 C
208 15-08-2003 10:40:02 20 C 51 % 9.56 C
209 15-08-2003 10:50:02 20.8 C 49 % 9.7 C
210 15-08-2003 11:00:02 20 C 50 % 9.27 C
211 15-08-2003 11:10:01 19.5 C 51 % 9.1 C
212 15-08-2003 11:20:01 20.4 C 48 % 9.03 C
213 15-08-2003 11:30:01 21.2 C 46 % 9.13 C
214 15-08-2003 11:40:01 20.3 C 46 % 8.31 C
215 15-08-2003 11:50:01 21.3 C 44 % 8.56 C
216 15-08-2003 12:00:01 21.9 C 41 % 8.06 C
217 15-08-2003 12:10:01 21.9 C 39 % 7.33 C
218 15-08-2003 12:20:01 22.1 C 40 % 7.88 C
219 15-08-2003 12:30:01 22.1 C 38 % 7.13 C
220 15-08-2003 12:40:01 22.2 C 38 % 7.22 C
221 15-08-2003 12:50:01 23.3 C 36 % 7.4 C
222 15-08-2003 13:00:01 24.5 C 33 % 7.18 C
223 15-08-2003 13:10:01 24.6 C 31 % 6.36 C
224 15-08-2003 13:20:01 24.8 C 31 % 6.54 C
225 15-08-2003 13:30:01 25.8 C 30 % 6.92 C
Sensor: Nr:Datum:Temp:Feuchte:Taupunkt:
Aussen-T/F 226 15-08-2003 13:40:00 25 C 31 % 6.71 C
227 15-08-2003 13:50:00 25.3 C 28 % 5.49 C
228 15-08-2003 14:00:00 25.2 C 29 % 5.91 C
229 15-08-2003 14:10:00 25.4 C 31 % 7.05 C
230 15-08-2003 14:20:00 26.3 C 28 % 6.35 C
231 15-08-2003 14:30:00 26.7 C 29 % 7.2 C
232 15-08-2003 14:40:01 26.7 C 28 % 6.69 C
233 15-08-2003 14:50:01 28 C 28 % 7.8 C
234 15-08-2003 15:00:01 28.7 C 26 % 7.31 C
235 15-08-2003 15:10:01 29.4 C 23 % 6.12 C
236 15-08-2003 15:20:01 29.2 C 25 % 7.16 C
237 15-08-2003 15:30:01 29.4 C 23 % 6.12 C
238 15-08-2003 15:40:01 28.6 C 24 % 6.06 C
239 15-08-2003 15:50:01 29.3 C 22 % 5.39 C
240 15-08-2003 16:00:01 30 C 21 % 5.3 C
241 15-08-2003 16:10:00 30.1 C 20 % 4.69 C
242 15-08-2003 16:20:00 30 C 20 % 4.61 C
243 15-08-2003 16:30:00 30.1 C 20 % 4.69 C
244 15-08-2003 16:40:02 29.5 C 20 % 4.2 C
245 15-08-2003 16:50:02 30.2 C 20 % 4.77 C
246 15-08-2003 17:00:02 30 C 20 % 4.61 C
247 15-08-2003 17:10:02 30.2 C 20 % 4.77 C
248 15-08-2003 17:20:02 29.8 C 20 % 4.44 C
249 15-08-2003 17:30:02 30.2 C 20 % 4.77 C
250 15-08-2003 17:40:02 30.3 C 20 % 4.85 C
Sensor: Nr:Datum:Temp:Feuchte:Taupunkt:
Aussen-T/F 251 15-08-2003 17:50:02 31 C 20 % 5.42 C
252 15-08-2003 18:00:02 31 C 20 % 5.42 C
253 15-08-2003 18:10:00 30.3 C 20 % 4.85 C
254 15-08-2003 18:20:00 29.8 C 20 % 4.44 C
255 15-08-2003 18:30:00 30.2 C 20 % 4.77 C
256 15-08-2003 18:40:01 30.6 C 20 % 5.1 C
257 15-08-2003 18:50:01 30.6 C 20 % 5.1 C
258 15-08-2003 19:00:01 30 C 20 % 4.61 C
259 15-08-2003 19:10:01 29.8 C 20 % 4.44 C
260 15-08-2003 19:20:01 28.6 C 20 % 3.46 C
261 15-08-2003 19:30:01 29.2 C 20 % 3.95 C
262 15-08-2003 19:40:01 28.9 C 20 % 3.7 C
263 15-08-2003 19:50:01 28.3 C 20 % 3.21 C
264 15-08-2003 20:00:01 27.6 C 21 % 3.33 C
265 15-08-2003 20:10:02 27.4 C 22 % 3.82 C
266 15-08-2003 20:20:02 25.9 C 25 % 4.38 C
267 15-08-2003 20:30:02 25 C 27 % 4.72 C
268 15-08-2003 20:40:01 24.6 C 28 % 4.9 C
269 15-08-2003 20:50:01 23.8 C 30 % 5.2 C
270 15-08-2003 21:00:01 23.1 C 31 % 5.06 C
271 15-08-2003 21:10:01 22.5 C 32 % 5 C
272 15-08-2003 21:20:01 22.2 C 34 % 5.61 C
273 15-08-2003 21:30:01 21.9 C 35 % 5.76 C
274 15-08-2003 21:40:01 21.5 C 36 % 5.81 C
275 15-08-2003 21:50:01 20.9 C 37 % 5.68 C
Sensor: Nr:Datum:Temp:Feuchte:Taupunkt:
Aussen-T/F 276 15-08-2003 22:00:01 20.3 C 39 % 5.9 C
277 15-08-2003 22:10:00 20.1 C 40 % 6.09 C
278 15-08-2003 22:20:00 20 C 40 % 6 C
279 15-08-2003 22:30:00 20 C 40 % 6 C
280 15-08-2003 22:41:03 19.6 C 41 % 6 C
281 15-08-2003 22:51:03 19.5 C 42 % 6.26 C
282 15-08-2003 23:01:03 19.5 C 42 % 6.26 C
283 15-08-2003 23:11:03 19.1 C 43 % 6.24 C
284 15-08-2003 23:21:03 18.9 C 44 % 6.39 C
285 15-08-2003 23:31:03 18.9 C 45 % 6.72 C
286 15-08-2003 23:41:03 18.7 C 45 % 6.54 C
287 15-08-2003 23:51:03 18.5 C 46 % 6.67 C
288 16-08-2003 00:01:03 18.2 C 48 % 7.02 C
289 16-08-2003 00:11:03 18 C 47 % 6.53 C
290 16-08-2003 00:21:03 17.8 C 48 % 6.65 C
291 16-08-2003 00:31:03 17.4 C 50 % 6.88 C
292 16-08-2003 00:41:03 17.4 C 49 % 6.59 C
293 16-08-2003 00:51:03 16.9 C 52 % 6.99 C
294 16-08-2003 01:01:03 16.9 C 53 % 7.27 C
295 16-08-2003 01:11:03 16.7 C 53 % 7.08 C
296 16-08-2003 01:21:03 16.7 C 54 % 7.36 C
297 16-08-2003 01:31:03 16.3 C 53 % 6.71 C
298 16-08-2003 01:41:03 16.3 C 55 % 7.25 C
299 16-08-2003 01:51:03 16 C 56 % 7.24 C
300 16-08-2003 02:01:03 15.8 C 58 % 7.56 C
Sensor: Nr:Datum:Temp:Feuchte:Taupunkt:
Aussen-T/F 301 16-08-2003 02:11:03 15.7 C 58 % 7.47 C
302 16-08-2003 02:21:03 15.5 C 58 % 7.28 C
303 16-08-2003 02:31:03 15.3 C 58 % 7.09 C
304 16-08-2003 02:41:03 15.2 C 59 % 7.25 C
305 16-08-2003 02:51:03 15 C 59 % 7.06 C
306 16-08-2003 03:01:03 15 C 60 % 7.31 C
307 16-08-2003 03:11:03 14.7 C 63 % 7.74 C
308 16-08-2003 03:21:03 14.7 C 63 % 7.74 C
309 16-08-2003 03:31:03 14.4 C 63 % 7.45 C
310 16-08-2003 03:41:03 14.4 C 63 % 7.45 C
311 16-08-2003 03:51:03 14.3 C 63 % 7.36 C
312 16-08-2003 04:01:03 14.2 C 63 % 7.27 C
313 16-08-2003 04:11:03 14.1 C 63 % 7.17 C
314 16-08-2003 04:21:03 13.9 C 65 % 7.44 C
315 16-08-2003 04:31:03 13.7 C 66 % 7.47 C
316 16-08-2003 04:41:03 13.5 C 67 % 7.5 C
317 16-08-2003 04:51:03 13.4 C 67 % 7.4 C
318 16-08-2003 05:01:03 13.4 C 67 % 7.4 C
319 16-08-2003 05:11:03 13.3 C 67 % 7.31 C
320 16-08-2003 05:21:03 13.2 C 68 % 7.43 C
321 16-08-2003 05:31:03 13.1 C 69 % 7.55 C
322 16-08-2003 05:41:03 12.9 C 71 % 7.78 C
323 16-08-2003 05:51:03 12.8 C 71 % 7.68 C
324 16-08-2003 06:01:03 12.7 C 72 % 7.79 C
325 16-08-2003 06:11:03 12.6 C 73 % 7.89 C
Sensor: Nr:Datum:Temp:Feuchte:Taupunkt:
Aussen-T/F 326 16-08-2003 06:21:03 12.5 C 73 % 7.8 C
327 16-08-2003 06:31:03 12.3 C 74 % 7.8 C
328 16-08-2003 06:41:03 12.2 C 74 % 7.71 C
329 16-08-2003 06:51:03 12.1 C 75 % 7.81 C
330 16-08-2003 07:01:03 12.2 C 74 % 7.71 C
331 16-08-2003 07:11:03 12.4 C 74 % 7.9 C
332 16-08-2003 07:21:03 12.5 C 74 % 8 C
333 16-08-2003 07:31:03 12.6 C 74 % 8.09 C
334 16-08-2003 07:41:03 12.7 C 73 % 7.99 C
335 16-08-2003 07:51:03 13 C 73 % 8.28 C
336 16-08-2003 08:01:03 13.1 C 73 % 8.38 C
337 16-08-2003 08:11:03 13.2 C 73 % 8.47 C
338 16-08-2003 08:21:03 13.5 C 72 % 8.56 C
339 16-08-2003 08:31:03 13.8 C 71 % 8.64 C
340 16-08-2003 08:41:03 14.5 C 68 % 8.67 C
341 16-08-2003 08:51:03 14.7 C 66 % 8.42 C
342 16-08-2003 09:01:03 15.2 C 65 % 8.67 C
343 16-08-2003 09:11:03 15.5 C 63 % 8.49 C
344 16-08-2003 09:21:03 15.9 C 61 % 8.4 C
345 16-08-2003 09:31:03 16.4 C 58 % 8.12 C
346 16-08-2003 09:41:03 16.8 C 58 % 8.5 C
347 16-08-2003 09:51:03 17.5 C 56 % 8.63 C
348 16-08-2003 10:01:03 18 C 54 % 8.56 C
349 16-08-2003 10:11:03 18.2 C 52 % 8.19 C
350 16-08-2003 10:21:03 18.8 C 52 % 8.75 C
Sensor: Nr:Datum:Temp:Feuchte:Taupunkt:
Aussen-T/F 351 16-08-2003 10:31:03 19.7 C 50 % 8.99 C
352 16-08-2003 10:41:02 20.4 C 47 % 8.72 C
353 16-08-2003 10:51:02 20.8 C 46 % 8.77 C
354 16-08-2003 11:01:02 21.2 C 45 % 8.8 C
355 16-08-2003 11:11:01 21.5 C 43 % 8.4 C
356 16-08-2003 11:21:01 21.8 C 44 % 9.01 C
357 16-08-2003 11:31:01 22.4 C 41 % 8.51 C
358 16-08-2003 11:41:01 22.9 C 39 % 8.22 C
359 16-08-2003 11:51:01 23.4 C 37 % 7.89 C
360 16-08-2003 12:01:01 23.8 C 35 % 7.43 C
361 16-08-2003 12:11:01 24.1 C 35 % 7.69 C
362 16-08-2003 12:21:01 24.2 C 34 % 7.36 C
363 16-08-2003 12:31:01 24.4 C 33 % 7.1 C
364 16-08-2003 12:41:01 24.5 C 32 % 6.74 C
365 16-08-2003 12:51:01 24.9 C 32 % 7.08 C
366 16-08-2003 13:01:01 25.6 C 31 % 7.23 C
367 16-08-2003 13:11:00 25.4 C 31 % 7.05 C
368 16-08-2003 13:21:00 25.8 C 31 % 7.4 C
369 16-08-2003 13:31:00 25.7 C 30 % 6.84 C
370 16-08-2003 13:41:02 26.6 C 28 % 6.61 C
371 16-08-2003 13:51:02 27 C 27 % 6.42 C
372 16-08-2003 14:01:02 27.6 C 26 % 6.38 C
373 16-08-2003 14:11:01 27.8 C 26 % 6.55 C
374 16-08-2003 14:21:01 27.7 C 25 % 5.9 C
375 16-08-2003 14:31:01 28.3 C 23 % 5.2 C
Sensor: Nr:Datum:Temp:Feuchte:Taupunkt:
Aussen-T/F 376 16-08-2003 14:41:02 29.1 C 22 % 5.23 C
377 16-08-2003 14:51:02 29.6 C 22 % 5.64 C
378 16-08-2003 15:01:02 28.9 C 21 % 4.4 C
379 16-08-2003 15:11:02 29.1 C 21 % 4.56 C
380 16-08-2003 15:21:02 29.2 C 20 % 3.95 C
381 16-08-2003 15:31:02 30.1 C 20 % 4.69 C
382 16-08-2003 15:41:02 29.8 C 20 % 4.44 C
383 16-08-2003 15:51:02 29.1 C 20 % 3.87 C
384 16-08-2003 16:01:02 29.3 C 20 % 4.03 C
385 16-08-2003 16:11:01 29.9 C 20 % 4.52 C
386 16-08-2003 16:21:01 30.7 C 20 % 5.18 C
387 16-08-2003 16:31:01 31 C 20 % 5.42 C
388 16-08-2003 16:41:02 30.2 C 20 % 4.77 C
389 16-08-2003 16:51:02 30.2 C 20 % 4.77 C
390 16-08-2003 17:01:02 30.2 C 20 % 4.77 C
391 16-08-2003 17:11:02 30.3 C 20 % 4.85 C
392 16-08-2003 17:21:02 30 C 20 % 4.61 C
393 16-08-2003 17:31:02 29.5 C 20 % 4.2 C
394 16-08-2003 17:41:01 29.5 C 20 % 4.2 C
395 16-08-2003 17:51:01 30.4 C 20 % 4.93 C
396 16-08-2003 18:01:01 30.1 C 20 % 4.69 C
397 16-08-2003 18:11:02 29.5 C 20 % 4.2 C
398 16-08-2003 18:21:02 29.2 C 20 % 3.95 C
399 16-08-2003 18:31:02 29.2 C 21 % 4.64 C
400 16-08-2003 18:41:01 29.1 C 20 % 3.87 C
Sensor: Nr:Datum:Temp:Feuchte:Taupunkt:
Aussen-T/F 401 16-08-2003 18:51:01 28.7 C 21 % 4.23 C
402 16-08-2003 19:01:01 28.7 C 21 % 4.23 C
403 16-08-2003 19:11:02 28.6 C 20 % 3.46 C
404 16-08-2003 19:21:02 27.9 C 21 % 3.57 C
405 16-08-2003 19:31:02 27.7 C 21 % 3.41 C
406 16-08-2003 19:41:01 27 C 21 % 2.83 C
407 16-08-2003 19:51:01 27.3 C 21 % 3.08 C
408 16-08-2003 20:01:01 26.9 C 22 % 3.4 C
409 16-08-2003 20:11:02 26.2 C 25 % 4.63 C
410 16-08-2003 20:21:02 25.7 C 28 % 5.84 C
411 16-08-2003 20:31:02 25 C 29 % 5.74 C
412 16-08-2003 20:41:01 24.3 C 30 % 5.63 C
413 16-08-2003 20:51:01 23.7 C 31 % 5.58 C
414 16-08-2003 21:01:01 23.1 C 32 % 5.52 C
415 16-08-2003 21:11:01 22.8 C 34 % 6.13 C
416 16-08-2003 21:21:01 22.7 C 34 % 6.04 C
417 16-08-2003 21:31:01 22.3 C 35 % 6.11 C
418 16-08-2003 21:41:57 22.1 C 35 % 5.94 C
419 16-08-2003 21:51:57 22.1 C 35 % 5.94 C
420 16-08-2003 22:01:57 21.9 C 36 % 6.17 C
421 16-08-2003 22:11:57 21.8 C 37 % 6.48 C
422 16-08-2003 22:21:02 21.8 C 37 % 6.48 C
423 16-08-2003 22:31:02 21.4 C 37 % 6.12 C
424 16-08-2003 22:42:01 21.1 C 38 % 6.24 C
425 16-08-2003 22:52:01 20.9 C 40 % 6.81 C
Sensor: Nr:Datum:Temp:Feuchte:Taupunkt:
Aussen-T/F 426 16-08-2003 23:02:01 20.7 C 40 % 6.63 C
427 16-08-2003 23:12:01 20.5 C 40 % 6.45 C
428 16-08-2003 23:22:01 20.3 C 41 % 6.63 C
429 16-08-2003 23:32:01 20.1 C 41 % 6.45 C
430 16-08-2003 23:42:01 20.1 C 40 % 6.09 C
431 16-08-2003 23:52:01 20 C 41 % 6.36 C
432 17-08-2003 00:02:01 19.7 C 42 % 6.44 C
433 17-08-2003 00:12:01 19.5 C 42 % 6.26 C
434 17-08-2003 00:22:01 19.3 C 43 % 6.42 C
435 17-08-2003 00:32:01 19.2 C 43 % 6.33 C
436 17-08-2003 00:42:01 19.1 C 43 % 6.24 C
437 17-08-2003 00:52:01 18.8 C 45 % 6.63 C
438 17-08-2003 01:02:01 18.7 C 45 % 6.54 C
439 17-08-2003 01:12:01 18.6 C 46 % 6.77 C
440 17-08-2003 01:22:01 18.5 C 46 % 6.67 C
441 17-08-2003 01:32:01 18.5 C 47 % 6.99 C
442 17-08-2003 01:42:01 18.3 C 48 % 7.11 C
443 17-08-2003 01:52:01 18.1 C 48 % 6.93 C
444 17-08-2003 02:02:01 18.1 C 47 % 6.62 C
445 17-08-2003 02:12:01 17.9 C 51 % 7.63 C
446 17-08-2003 02:22:01 17.6 C 49 % 6.77 C
447 17-08-2003 02:32:01 17.5 C 50 % 6.97 C
448 17-08-2003 02:42:01 17.4 C 49 % 6.59 C
449 17-08-2003 02:52:01 17.2 C 49 % 6.4 C
450 17-08-2003 03:02:01 17 C 50 % 6.51 C
Sensor: Nr:Datum:Temp:Feuchte:Taupunkt:
Aussen-T/F 451 17-08-2003 03:12:01 16.8 C 50 % 6.33 C
452 17-08-2003 03:22:01 16.6 C 50 % 6.15 C
453 17-08-2003 03:32:01 16.6 C 52 % 6.71 C
454 17-08-2003 03:42:01 16.4 C 52 % 6.53 C
455 17-08-2003 03:52:01 16.3 C 52 % 6.44 C
456 17-08-2003 04:02:01 16.2 C 53 % 6.62 C
457 17-08-2003 04:12:01 16.2 C 54 % 6.89 C
458 17-08-2003 04:22:01 16.1 C 54 % 6.8 C
459 17-08-2003 04:32:01 15.8 C 54 % 6.52 C
460 17-08-2003 04:42:01 15.7 C 55 % 6.69 C
461 17-08-2003 04:52:01 15.6 C 55 % 6.6 C
462 17-08-2003 05:02:01 15.5 C 55 % 6.51 C
463 17-08-2003 05:12:01 15.4 C 56 % 6.68 C
464 17-08-2003 05:22:01 15.3 C 56 % 6.58 C
465 17-08-2003 05:32:01 15 C 58 % 6.81 C
466 17-08-2003 05:42:01 15 C 57 % 6.56 C
467 17-08-2003 05:52:01 14.8 C 57 % 6.37 C
468 17-08-2003 06:02:01 14.8 C 60 % 7.12 C
469 17-08-2003 06:12:01 14.7 C 61 % 7.27 C
470 17-08-2003 06:22:01 14.7 C 61 % 7.27 C
471 17-08-2003 06:32:01 14.6 C 62 % 7.41 C
472 17-08-2003 06:42:01 14.7 C 63 % 7.74 C
473 17-08-2003 06:52:01 14.8 C 64 % 8.06 C
474 17-08-2003 07:02:01 14.8 C 64 % 8.06 C
475 17-08-2003 07:12:01 14.9 C 64 % 8.16 C
Sensor: Nr:Datum:Temp:Feuchte:Taupunkt:
Aussen-T/F 476 17-08-2003 07:22:01 15 C 63 % 8.02 C
477 17-08-2003 07:32:01 15.2 C 64 % 8.44 C
478 17-08-2003 07:42:01 15.3 C 62 % 8.07 C
479 17-08-2003 07:52:01 15.5 C 64 % 8.73 C
480 17-08-2003 08:02:01 15.7 C 63 % 8.68 C
481 17-08-2003 08:12:01 15.8 C 62 % 8.54 C
482 17-08-2003 08:22:01 16.2 C 61 % 8.68 C
483 17-08-2003 08:32:01 16.7 C 61 % 9.15 C
484 17-08-2003 08:42:01 17.2 C 59 % 9.13 C
485 17-08-2003 08:52:01 18.2 C 55 % 9.02 C
486 17-08-2003 09:02:01 18.6 C 55 % 9.39 C
487 17-08-2003 09:12:01 18.7 C 54 % 9.21 C
488 17-08-2003 09:22:01 19 C 51 % 8.64 C
489 17-08-2003 09:32:01 19.3 C 50 % 8.63 C
490 17-08-2003 09:42:01 19.7 C 49 % 8.7 C
491 17-08-2003 09:52:01 20.4 C 46 % 8.4 C
492 17-08-2003 10:02:01 21 C 43 % 7.95 C
493 17-08-2003 10:12:01 21.7 C 38 % 6.77 C
494 17-08-2003 10:22:01 22.2 C 37 % 6.83 C
495 17-08-2003 10:32:02 22.4 C 37 % 7.01 C
496 17-08-2003 10:42:02 22.5 C 37 % 7.1 C
497 17-08-2003 10:52:02 23 C 36 % 7.14 C
498 17-08-2003 11:02:02 23.4 C 34 % 6.66 C
499 17-08-2003 11:12:02 23.4 C 34 % 6.66 C
500 17-08-2003 11:22:02 24.2 C 33 % 6.92 C
Sensor: Nr:Datum:Temp:Feuchte:Taupunkt:
Aussen-T/F 501 17-08-2003 11:32:01 25.2 C 30 % 6.41 C
502 17-08-2003 11:42:01 25.7 C 31 % 7.31 C
503 17-08-2003 11:52:01 26.6 C 29 % 7.12 C
504 17-08-2003 12:02:03 26.4 C 28 % 6.43 C
505 17-08-2003 12:12:03 25.9 C 29 % 6.52 C
506 17-08-2003 12:22:03 25.8 C 30 % 6.92 C
507 17-08-2003 12:32:06 25.8 C 29 % 6.43 C
508 17-08-2003 12:42:06 25.6 C 32 % 7.69 C
509 17-08-2003 12:52:06 25.2 C 35 % 8.66 C
510 17-08-2003 13:02:02 25.3 C 34 % 8.32 C
511 17-08-2003 13:12:02 25.9 C 30 % 7.01 C
512 17-08-2003 13:22:02 27.2 C 28 % 7.12 C
513 17-08-2003 13:32:02 27.9 C 27 % 7.18 C
514 17-08-2003 13:42:02 28 C 26 % 6.72 C
515 17-08-2003 13:52:02 28.3 C 25 % 6.4 C
516 17-08-2003 14:02:03 28.6 C 25 % 6.66 C
517 17-08-2003 14:12:03 28.9 C 25 % 6.91 C
518 17-08-2003 14:22:03 29 C 25 % 6.99 C
519 17-08-2003 14:32:01 29.2 C 25 % 7.16 C
520 17-08-2003 14:42:01 29.3 C 25 % 7.25 C
521 17-08-2003 14:52:01 30.3 C 24 % 7.49 C
522 17-08-2003 15:02:00 30.3 C 24 % 7.49 C
523 17-08-2003 15:12:00 30.5 C 23 % 7.03 C
524 17-08-2003 15:22:00 30.7 C 22 % 6.55 C
525 17-08-2003 15:32:01 30.6 C 23 % 7.12 C
Sensor: Nr:Datum:Temp:Feuchte:Taupunkt:
Aussen-T/F 526 17-08-2003 15:42:01 30.3 C 24 % 7.49 C
527 17-08-2003 15:52:01 30 C 24 % 7.24 C
528 17-08-2003 16:02:00 29.4 C 28 % 9 C
529 17-08-2003 16:12:00 28 C 32 % 9.77 C
530 17-08-2003 16:22:00 27 C 35 % 10.24 C
531 17-08-2003 16:32:01 27.8 C 32 % 9.6 C
532 17-08-2003 16:42:01 28.6 C 30 % 9.33 C
533 17-08-2003 16:52:01 29.2 C 27 % 8.29 C
534 17-08-2003 17:02:07 29.6 C 28 % 9.17 C
535 17-08-2003 17:12:07 30 C 25 % 7.83 C
536 17-08-2003 17:22:07 30.1 C 24 % 7.32 C
537 17-08-2003 17:32:01 30.1 C 24 % 7.32 C
538 17-08-2003 17:42:01 30.1 C 24 % 7.32 C
539 17-08-2003 17:52:01 30.1 C 25 % 7.92 C
540 17-08-2003 18:02:00 30.3 C 25 % 8.09 C
541 17-08-2003 18:12:00 30.3 C 24 % 7.49 C
542 17-08-2003 18:22:00 30.4 C 24 % 7.57 C
543 17-08-2003 18:32:01 30.4 C 24 % 7.57 C
544 17-08-2003 18:42:01 30.5 C 24 % 7.66 C
545 17-08-2003 18:52:01 30.3 C 23 % 6.87 C
546 17-08-2003 19:02:00 30 C 24 % 7.24 C
547 17-08-2003 19:12:00 29.5 C 28 % 9.08 C
548 17-08-2003 19:22:00 28.8 C 30 % 9.51 C
549 17-08-2003 19:32:02 28.2 C 30 % 8.99 C
550 17-08-2003 19:42:02 28 C 30 % 8.82 C
Sensor: Nr:Datum:Temp:Feuchte:Taupunkt:
Aussen-T/F 551 17-08-2003 19:52:02 27.8 C 31 % 9.13 C
552 17-08-2003 20:02:26 27.5 C 32 % 9.34 C
553 17-08-2003 20:12:26 27.2 C 32 % 9.08 C
554 17-08-2003 20:22:26 21.6 C 32 % 4.21 C
555 17-08-2003 20:32:57 20.4 C 32 % 3.17 C
556 17-08-2003 20:42:57 20.1 C 34 % 3.77 C
557 17-08-2003 20:52:57 20.1 C 36 % 4.58 C
558 17-08-2003 21:02:02 19.9 C 38 % 5.18 C
559 17-08-2003 21:12:02 19.8 C 43 % 6.87 C
560 17-08-2003 21:22:02 19.5 C 48 % 8.21 C
561 17-08-2003 21:32:33 19.5 C 53 % 9.67 C
562 17-08-2003 21:42:15 19.8 C 58 % 11.3 C
563 17-08-2003 21:52:10 20 C 85 % 17.4 C
564 17-08-2003 22:03:01 19.9 C 85 % 17.3 C
565 17-08-2003 22:13:01 19.6 C 84 % 16.82 C
566 17-08-2003 22:23:01 19.4 C 85 % 16.81 C
567 17-08-2003 22:33:01 19.2 C 85 % 16.62 C
568 17-08-2003 22:43:01 19.1 C 85 % 16.52 C
569 17-08-2003 22:53:01 18.9 C 87 % 16.69 C
570 17-08-2003 23:03:01 19 C 87 % 16.79 C
571 17-08-2003 23:13:01 19.5 C 87 % 17.28 C
572 17-08-2003 23:23:01 19.5 C 86 % 17.1 C
573 17-08-2003 23:33:01 19.6 C 85 % 17.01 C
574 17-08-2003 23:43:01 19.4 C 85 % 16.81 C
575 17-08-2003 23:53:01 19.3 C 85 % 16.72 C
Sensor: Nr:Datum:Temp:Feuchte:Taupunkt:
Aussen-T/F 576 18-08-2003 00:03:01 18.9 C 86 % 16.51 C
577 18-08-2003 00:13:01 18.7 C 87 % 16.49 C
578 18-08-2003 00:23:01 18.6 C 86 % 16.21 C
579 18-08-2003 00:33:01 18.5 C 86 % 16.11 C
580 18-08-2003 00:43:01 18.4 C 86 % 16.02 C
581 18-08-2003 00:53:01 18.6 C 87 % 16.39 C
582 18-08-2003 01:03:01 18.6 C 86 % 16.21 C
583 18-08-2003 01:13:01 18.4 C 87 % 16.2 C
584 18-08-2003 01:23:01 18.3 C 87 % 16.1 C
585 18-08-2003 01:33:01 18.2 C 87 % 16 C
586 18-08-2003 01:43:01 18.1 C 87 % 15.9 C
587 18-08-2003 01:53:01 18.1 C 87 % 15.9 C
588 18-08-2003 02:03:01 18.1 C 87 % 15.9 C
589 18-08-2003 02:13:01 18 C 87 % 15.8 C
590 18-08-2003 02:23:01 18.1 C 87 % 15.9 C
591 18-08-2003 02:33:01 18.1 C 88 % 16.08 C
592 18-08-2003 02:43:01 18.1 C 88 % 16.08 C
593 18-08-2003 02:53:01 18.1 C 87 % 15.9 C
594 18-08-2003 03:03:01 18.1 C 88 % 16.08 C
595 18-08-2003 03:13:01 18.1 C 88 % 16.08 C
596 18-08-2003 03:23:01 18.1 C 88 % 16.08 C
597 18-08-2003 03:33:01 18.4 C 90 % 16.73 C
598 18-08-2003 03:43:01 18.5 C 89 % 16.65 C
599 18-08-2003 03:53:01 18.4 C 89 % 16.55 C
600 18-08-2003 04:03:01 18.4 C 89 % 16.55 C
Sensor: Nr:Datum:Temp:Feuchte:Taupunkt:
Aussen-T/F 601 18-08-2003 04:13:01 18.5 C 89 % 16.65 C
602 18-08-2003 04:23:01 18.5 C 89 % 16.65 C
603 18-08-2003 04:33:01 18.5 C 88 % 16.48 C
604 18-08-2003 04:43:01 18.5 C 88 % 16.48 C
605 18-08-2003 04:53:01 18.6 C 88 % 16.57 C
606 18-08-2003 05:03:01 18.6 C 90 % 16.93 C
607 18-08-2003 05:13:01 18.6 C 91 % 17.1 C
608 18-08-2003 05:23:01 18.5 C 91 % 17 C
609 18-08-2003 05:33:01 18.5 C 91 % 17 C
610 18-08-2003 05:43:01 18.6 C 92 % 17.27 C
611 18-08-2003 05:53:01 18.5 C 92 % 17.18 C
612 18-08-2003 06:03:01 18.5 C 93 % 17.35 C
613 18-08-2003 06:13:01 18.6 C 93 % 17.45 C
614 18-08-2003 06:23:01 18.7 C 93 % 17.54 C
615 18-08-2003 06:33:01 18.7 C 93 % 17.54 C
616 18-08-2003 06:43:01 18.6 C 94 % 17.62 C
617 18-08-2003 06:53:01 18.6 C 94 % 17.62 C
618 18-08-2003 07:03:25 18.7 C 94 % 17.71 C
619 18-08-2003 07:13:01 18.7 C 94 % 17.71 C
620 18-08-2003 07:23:01 18.7 C 94 % 17.71 C
621 18-08-2003 07:33:02 18.8 C 94 % 17.81 C
622 18-08-2003 07:43:02 19 C 94 % 18.01 C
623 18-08-2003 07:53:02 19.1 C 94 % 18.11 C
624 18-08-2003 08:03:02 19.4 C 94 % 18.41 C
625 18-08-2003 08:13:02 19.6 C 94 % 18.61 C
Sensor: Nr:Datum:Temp:Feuchte:Taupunkt:
Aussen-T/F 626 18-08-2003 08:23:02 19.8 C 93 % 18.63 C
627 18-08-2003 08:33:01 19.9 C 93 % 18.73 C
628 18-08-2003 08:43:01 20.5 C 91 % 18.98 C
629 18-08-2003 08:53:01 21 C 89 % 19.12 C
630 18-08-2003 09:03:01 21.3 C 86 % 18.86 C
631 18-08-2003 09:13:01 21.4 C 84 % 18.58 C
632 18-08-2003 09:23:01 21.5 C 84 % 18.68 C
633 18-08-2003 09:33:01 21.8 C 85 % 19.16 C
634 18-08-2003 09:43:01 21.9 C 84 % 19.07 C
635 18-08-2003 09:53:01 22.2 C 84 % 19.37 C
636 18-08-2003 10:03:01 22.3 C 83 % 19.27 C
637 18-08-2003 10:13:01 22.4 C 80 % 18.78 C
638 18-08-2003 10:23:01 22.7 C 79 % 18.87 C
639 18-08-2003 10:33:01 22.6 C 78 % 18.57 C
640 18-08-2003 10:43:01 22.6 C 76 % 18.15 C
641 18-08-2003 10:53:01 22.6 C 72 % 17.3 C
642 18-08-2003 11:03:00 22.4 C 73 % 17.32 C
643 18-08-2003 11:13:00 22.5 C 74 % 17.63 C
644 18-08-2003 11:23:00 22.3 C 75 % 17.65 C
645 18-08-2003 11:33:01 22 C 72 % 16.72 C
646 18-08-2003 11:43:01 22.1 C 73 % 17.03 C
647 18-08-2003 11:53:01 22.1 C 72 % 16.82 C
648 18-08-2003 12:03:02 20.2 C 83 % 17.22 C
649 18-08-2003 12:13:02 19.6 C 86 % 17.19 C
650 18-08-2003 12:23:02 19.6 C 87 % 17.38 C
Sensor: Nr:Datum:Temp:Feuchte:Taupunkt:
Aussen-T/F 651 18-08-2003 12:33:01 20.1 C 85 % 17.5 C
652 18-08-2003 12:43:01 20.7 C 84 % 17.9 C
653 18-08-2003 12:53:01 21 C 79 % 17.22 C
654 18-08-2003 13:03:01 20.6 C 78 % 16.63 C
655 18-08-2003 13:13:01 20.2 C 77 % 16.04 C
656 18-08-2003 13:23:01 20.4 C 75 % 15.82 C
657 18-08-2003 13:33:01 21.3 C 73 % 16.26 C
658 18-08-2003 13:43:01 21.8 C 70 % 16.09 C
659 18-08-2003 13:53:01 22.6 C 64 % 15.45 C
660 18-08-2003 14:03:02 23.2 C 59 % 14.75 C
661 18-08-2003 14:13:02 24.1 C 55 % 14.5 C
662 18-08-2003 14:23:02 24.1 C 53 % 13.93 C
663 18-08-2003 14:33:01 24.4 C 52 % 13.91 C
664 18-08-2003 14:43:01 24.5 C 53 % 14.3 C
665 18-08-2003 14:53:01 24.3 C 52 % 13.82 C
666 18-08-2003 15:03:02 24.6 C 49 % 13.18 C
667 18-08-2003 15:13:02 24.9 C 46 % 12.49 C
668 18-08-2003 15:23:02 24 C 47 % 12 C
669 18-08-2003 15:33:01 23.6 C 49 % 12.27 C
670 18-08-2003 15:43:01 24.3 C 48 % 12.59 C
671 18-08-2003 15:53:01 23.5 C 52 % 13.08 C
672 18-08-2003 16:03:01 22.7 C 54 % 12.92 C
673 18-08-2003 16:13:01 21.9 C 57 % 13 C
674 18-08-2003 16:23:01 21.3 C 59 % 12.97 C
675 18-08-2003 16:33:00 20.8 C 62 % 13.26 C
Sensor: Nr:Datum:Temp:Feuchte:Taupunkt:
Aussen-T/F 676 18-08-2003 16:43:00 20.8 C 63 % 13.5 C
677 18-08-2003 16:53:00 20.6 C 63 % 13.31 C
678 18-08-2003 17:03:01 19.9 C 70 % 14.27 C
679 18-08-2003 17:13:01 18.7 C 79 % 14.99 C
680 18-08-2003 17:23:01 18.4 C 81 % 15.08 C
681 18-08-2003 17:33:02 18 C 83 % 15.07 C
682 18-08-2003 17:43:02 17.9 C 86 % 15.53 C
683 18-08-2003 17:53:02 17.6 C 88 % 15.59 C
684 18-08-2003 18:03:01 17.5 C 88 % 15.49 C
685 18-08-2003 18:13:01 17.5 C 89 % 15.67 C
686 18-08-2003 18:23:01 17.6 C 89 % 15.77 C
687 18-08-2003 18:33:00 17.7 C 89 % 15.86 C
688 18-08-2003 18:43:00 17.7 C 90 % 16.04 C
689 18-08-2003 18:53:00 17.4 C 89 % 15.57 C
690 18-08-2003 19:03:01 17.6 C 90 % 15.94 C
691 18-08-2003 19:13:01 17.9 C 90 % 16.24 C
692 18-08-2003 19:23:01 17.9 C 90 % 16.24 C
693 18-08-2003 19:33:02 18 C 89 % 16.16 C
694 18-08-2003 19:43:02 17.9 C 90 % 16.24 C
695 18-08-2003 19:53:02 17.9 C 90 % 16.24 C
696 18-08-2003 20:03:01 17.9 C 90 % 16.24 C
697 18-08-2003 20:13:01 17.8 C 91 % 16.31 C
698 18-08-2003 20:23:01 17.6 C 91 % 16.11 C
699 18-08-2003 20:33:02 17.5 C 91 % 16.01 C
700 18-08-2003 20:43:02 17.6 C 91 % 16.11 C
Sensor: Nr:Datum:Temp:Feuchte:Taupunkt:
Aussen-T/F 701 18-08-2003 20:53:02 17.6 C 92 % 16.28 C
702 18-08-2003 21:03:01 17.6 C 92 % 16.28 C
703 18-08-2003 21:13:01 17.6 C 92 % 16.28 C
704 18-08-2003 21:23:01 17.6 C 93 % 16.45 C
705 18-08-2003 21:34:03 17.6 C 93 % 16.45 C
706 18-08-2003 21:44:03 17.7 C 93 % 16.55 C
707 18-08-2003 21:54:03 17.6 C 93 % 16.45 C
708 18-08-2003 22:04:03 17.6 C 93 % 16.45 C
709 18-08-2003 22:14:03 17.7 C 93 % 16.55 C
710 18-08-2003 22:24:03 17.6 C 93 % 16.45 C
711 18-08-2003 22:34:03 17.6 C 93 % 16.45 C
712 18-08-2003 22:44:03 17.7 C 93 % 16.55 C
713 18-08-2003 22:54:03 17.8 C 93 % 16.65 C
714 18-08-2003 23:04:03 17.9 C 92 % 16.58 C
715 18-08-2003 23:14:03 17.9 C 91 % 16.41 C
716 18-08-2003 23:24:03 18 C 89 % 16.16 C
717 18-08-2003 23:34:03 18 C 89 % 16.16 C
718 18-08-2003 23:44:03 18 C 89 % 16.16 C
719 18-08-2003 23:54:03 18.1 C 89 % 16.26 C
720 19-08-2003 00:04:03 18.2 C 89 % 16.36 C
721 19-08-2003 00:14:03 18.1 C 89 % 16.26 C
722 19-08-2003 00:24:03 18.1 C 89 % 16.26 C
723 19-08-2003 00:34:03 18.1 C 89 % 16.26 C
724 19-08-2003 00:44:03 18.1 C 89 % 16.26 C
725 19-08-2003 00:54:03 18.1 C 89 % 16.26 C
Sensor: Nr:Datum:Temp:Feuchte:Taupunkt:
Aussen-T/F 726 19-08-2003 01:04:03 18 C 89 % 16.16 C
727 19-08-2003 01:14:03 18 C 89 % 16.16 C
728 19-08-2003 01:24:03 17.9 C 91 % 16.41 C
729 19-08-2003 01:34:03 17.7 C 91 % 16.21 C
730 19-08-2003 01:44:03 17.6 C 91 % 16.11 C
731 19-08-2003 01:54:03 17.4 C 91 % 15.92 C
732 19-08-2003 02:04:03 17.3 C 92 % 15.99 C
733 19-08-2003 02:14:03 17.3 C 92 % 15.99 C
734 19-08-2003 02:24:03 17.3 C 92 % 15.99 C
735 19-08-2003 02:34:03 17.2 C 92 % 15.89 C
736 19-08-2003 02:44:03 17.2 C 92 % 15.89 C
737 19-08-2003 02:54:03 17.1 C 92 % 15.79 C
738 19-08-2003 03:04:03 17.2 C 92 % 15.89 C
739 19-08-2003 03:14:03 17.1 C 92 % 15.79 C
740 19-08-2003 03:24:03 17.1 C 92 % 15.79 C
741 19-08-2003 03:34:03 17.1 C 91 % 15.62 C
742 19-08-2003 03:44:03 17.1 C 92 % 15.79 C
743 19-08-2003 03:54:03 17.2 C 92 % 15.89 C
744 19-08-2003 04:04:03 17.4 C 91 % 15.92 C
745 19-08-2003 04:14:03 17.5 C 91 % 16.01 C
746 19-08-2003 04:24:03 17.6 C 91 % 16.11 C
747 19-08-2003 04:34:03 17.7 C 90 % 16.04 C
748 19-08-2003 04:44:03 17.7 C 89 % 15.86 C
749 19-08-2003 04:54:03 17.8 C 88 % 15.79 C
750 19-08-2003 05:04:03 17.8 C 85 % 15.25 C
Sensor: Nr:Datum:Temp:Feuchte:Taupunkt:
Aussen-T/F 751 19-08-2003 05:14:03 17.8 C 85 % 15.25 C
752 19-08-2003 05:24:03 17.9 C 85 % 15.34 C
753 19-08-2003 05:34:01 17.9 C 85 % 15.34 C
754 19-08-2003 05:44:01 17.8 C 85 % 15.25 C
755 19-08-2003 05:54:01 17.7 C 86 % 15.33 C
756 19-08-2003 06:04:02 17.7 C 87 % 15.51 C
757 19-08-2003 06:14:02 17.6 C 88 % 15.59 C
758 19-08-2003 06:24:02 17.9 C 87 % 15.71 C
759 19-08-2003 06:34:00 17.9 C 86 % 15.53 C
760 19-08-2003 06:44:00 18.2 C 84 % 15.45 C
761 19-08-2003 06:54:00 18.5 C 83 % 15.56 C
762 19-08-2003 07:04:01 18.5 C 82 % 15.37 C
763 19-08-2003 07:14:01 18.6 C 82 % 15.47 C
764 19-08-2003 07:24:01 18.7 C 82 % 15.57 C
765 19-08-2003 07:34:01 18.7 C 82 % 15.57 C
766 19-08-2003 07:44:01 18.9 C 82 % 15.76 C
767 19-08-2003 07:54:01 18.9 C 81 % 15.57 C
768 19-08-2003 08:04:01 19.3 C 80 % 15.76 C
769 19-08-2003 08:14:01 19.2 C 79 % 15.47 C
770 19-08-2003 08:24:01 19.3 C 79 % 15.57 C
771 19-08-2003 08:34:02 19.5 C 78 % 15.56 C
772 19-08-2003 08:44:02 19.7 C 78 % 15.76 C
773 19-08-2003 08:54:02 19.7 C 78 % 15.76 C
774 19-08-2003 09:04:01 19.8 C 79 % 16.05 C
775 19-08-2003 09:14:01 19.7 C 78 % 15.76 C
Sensor: Nr:Datum:Temp:Feuchte:Taupunkt:
Aussen-T/F 776 19-08-2003 09:24:01 20.3 C 76 % 15.93 C
777 19-08-2003 09:34:01 20.4 C 74 % 15.61 C
778 19-08-2003 09:44:01 20.6 C 74 % 15.8 C
779 19-08-2003 09:54:01 20.6 C 72 % 15.38 C
780 19-08-2003 10:04:02 20.7 C 73 % 15.69 C
781 19-08-2003 10:14:02 20.8 C 72 % 15.57 C
782 19-08-2003 10:24:02 21 C 71 % 15.54 C
783 19-08-2003 10:34:01 21.3 C 69 % 15.38 C
784 19-08-2003 10:44:01 21.9 C 68 % 15.73 C
785 19-08-2003 10:54:01 21.7 C 66 % 15.07 C
786 19-08-2003 11:04:01 22.1 C 65 % 15.21 C
787 19-08-2003 11:14:01 22.3 C 65 % 15.4 C
788 19-08-2003 11:24:01 22.2 C 64 % 15.07 C
789 19-08-2003 11:34:02 22.5 C 64 % 15.35 C
790 19-08-2003 11:44:02 22.5 C 63 % 15.11 C
791 19-08-2003 11:54:02 23.1 C 61 % 15.17 C
792 19-08-2003 12:04:01 23.6 C 60 % 15.38 C
793 19-08-2003 12:14:01 23.8 C 58 % 15.04 C
794 19-08-2003 12:24:01 23.9 C 57 % 14.87 C
795 19-08-2003 12:34:01 24.3 C 55 % 14.68 C
796 19-08-2003 12:44:01 23.9 C 56 % 14.59 C
797 19-08-2003 12:54:01 24.4 C 55 % 14.78 C
798 19-08-2003 13:04:01 24.8 C 52 % 14.28 C
799 19-08-2003 13:14:01 25.7 C 49 % 14.19 C
800 19-08-2003 13:24:01 25.7 C 49 % 14.19 C
Sensor: Nr:Datum:Temp:Feuchte:Taupunkt:
Aussen-T/F 801 19-08-2003 13:34:00 25.2 C 49 % 13.73 C
802 19-08-2003 13:44:00 24.7 C 52 % 14.19 C
803 19-08-2003 13:54:00 24.4 C 52 % 13.91 C
804 19-08-2003 14:04:01 24.8 C 52 % 14.28 C
805 19-08-2003 14:14:01 24.7 C 51 % 13.89 C
806 19-08-2003 14:24:01 24.1 C 52 % 13.63 C
807 19-08-2003 14:34:02 23.8 C 56 % 14.5 C
808 19-08-2003 14:44:02 23.9 C 56 % 14.59 C
809 19-08-2003 14:54:02 23.6 C 58 % 14.86 C
810 19-08-2003 15:04:01 23.7 C 56 % 14.4 C
811 19-08-2003 15:14:01 22 C 72 % 16.72 C
812 19-08-2003 15:24:01 21.6 C 74 % 16.77 C
813 19-08-2003 15:34:01 22 C 71 % 16.5 C
814 19-08-2003 15:44:01 22.6 C 67 % 16.16 C
815 19-08-2003 15:54:01 22.6 C 65 % 15.69 C
816 19-08-2003 16:04:01 23.1 C 62 % 15.42 C
817 19-08-2003 16:14:01 23.4 C 61 % 15.45 C
818 19-08-2003 16:24:01 24.1 C 58 % 15.32 C
819 19-08-2003 16:34:52 25.1 C 54 % 15.14 C
820 19-08-2003 16:44:52 25.3 C 51 % 14.44 C
821 19-08-2003 16:54:00 25.6 C 50 % 14.41 C
822 19-08-2003 17:04:01 24.5 C 53 % 14.3 C
823 19-08-2003 17:14:01 24.8 C 53 % 14.57 C
824 19-08-2003 17:24:01 24.7 C 54 % 14.77 C
825 19-08-2003 17:34:01 24.9 C 52 % 14.37 C
Sensor: Nr:Datum:Temp:Feuchte:Taupunkt:
Aussen-T/F 826 19-08-2003 17:44:01 24.6 C 51 % 13.79 C
827 19-08-2003 17:54:01 24.4 C 52 % 13.91 C
828 19-08-2003 18:04:02 24.5 C 51 % 13.7 C
829 19-08-2003 18:14:02 24.6 C 50 % 13.49 C
830 19-08-2003 18:24:02 24.6 C 46 % 12.22 C
831 19-08-2003 18:34:01 24.5 C 46 % 12.13 C
832 19-08-2003 18:44:01 24.3 C 50 % 13.22 C
833 19-08-2003 18:54:01 23.9 C 56 % 14.59 C
834 19-08-2003 19:04:01 23.6 C 56 % 14.31 C
835 19-08-2003 19:14:01 23.3 C 55 % 13.76 C
836 19-08-2003 19:24:01 23.3 C 51 % 12.6 C
837 19-08-2003 19:34:01 23.3 C 53 % 13.19 C
838 19-08-2003 19:44:01 23.2 C 54 % 13.38 C
839 19-08-2003 19:54:01 23.1 C 50 % 12.11 C
840 19-08-2003 20:04:01 23 C 50 % 12.02 C
841 19-08-2003 20:14:01 22.9 C 51 % 12.23 C
842 19-08-2003 20:24:01 22.8 C 54 % 13.01 C
843 19-08-2003 20:34:01 22.4 C 56 % 13.2 C
844 19-08-2003 20:44:01 22.3 C 57 % 13.37 C
845 19-08-2003 20:54:01 22.1 C 56 % 12.92 C
846 19-08-2003 21:05:03 22 C 58 % 13.36 C
847 19-08-2003 21:15:03 22 C 59 % 13.62 C
848 19-08-2003 21:25:03 21.9 C 53 % 11.89 C
849 19-08-2003 21:35:03 21.9 C 53 % 11.89 C
850 19-08-2003 21:45:03 21.9 C 53 % 11.89 C
Sensor: Nr:Datum:Temp:Feuchte:Taupunkt:
Aussen-T/F 851 19-08-2003 21:55:03 21.9 C 52 % 11.61 C
852 19-08-2003 22:05:03 21.9 C 55 % 12.46 C
853 19-08-2003 22:15:03 21.8 C 55 % 12.36 C
854 19-08-2003 22:25:03 21.6 C 54 % 11.9 C
855 19-08-2003 22:35:03 21.5 C 56 % 12.36 C
856 19-08-2003 22:45:03 21.2 C 57 % 12.35 C
857 19-08-2003 22:55:03 21.1 C 57 % 12.25 C
858 19-08-2003 23:05:03 20.9 C 58 % 12.33 C
859 19-08-2003 23:15:03 20.5 C 59 % 12.22 C
860 19-08-2003 23:25:03 20.3 C 58 % 11.77 C
861 19-08-2003 23:35:03 19.9 C 60 % 11.91 C
862 19-08-2003 23:45:03 19.9 C 59 % 11.66 C
863 19-08-2003 23:55:03 19.6 C 60 % 11.63 C
864 20-08-2003 00:05:03 19.4 C 61 % 11.69 C
865 20-08-2003 00:15:03 19.1 C 60 % 11.16 C
866 20-08-2003 00:25:03 19.1 C 60 % 11.16 C
867 20-08-2003 00:35:03 18.8 C 62 % 11.37 C
868 20-08-2003 00:45:03 18.7 C 63 % 11.52 C
869 20-08-2003 00:55:03 18.8 C 63 % 11.61 C
870 20-08-2003 01:05:03 18.9 C 65 % 12.18 C
871 20-08-2003 01:15:03 18.7 C 65 % 11.99 C
872 20-08-2003 01:25:03 18.4 C 64 % 11.47 C
873 20-08-2003 01:35:03 18.3 C 63 % 11.14 C
874 20-08-2003 01:45:03 18.1 C 64 % 11.19 C
875 20-08-2003 01:55:03 17.8 C 66 % 11.37 C
Sensor: Nr:Datum:Temp:Feuchte:Taupunkt:
Aussen-T/F 876 20-08-2003 02:05:03 17.4 C 67 % 11.21 C
877 20-08-2003 02:15:03 17.2 C 68 % 11.25 C
878 20-08-2003 02:25:03 17.1 C 69 % 11.37 C
879 20-08-2003 02:35:03 16.9 C 71 % 11.61 C
880 20-08-2003 02:45:03 16.6 C 71 % 11.32 C
881 20-08-2003 02:55:03 16.6 C 71 % 11.32 C
882 20-08-2003 03:05:03 16.6 C 71 % 11.32 C
883 20-08-2003 03:15:03 16.2 C 71 % 10.94 C
884 20-08-2003 03:25:03 16 C 72 % 10.96 C
885 20-08-2003 03:35:03 15.8 C 74 % 11.18 C
886 20-08-2003 03:45:03 15.6 C 75 % 11.19 C
887 20-08-2003 03:55:03 15.4 C 75 % 11 C
888 20-08-2003 04:05:03 15.2 C 77 % 11.2 C
889 20-08-2003 04:15:03 15 C 77 % 11 C
890 20-08-2003 04:25:03 14.9 C 80 % 11.48 C
891 20-08-2003 04:35:03 14.8 C 80 % 11.39 C
892 20-08-2003 04:45:03 14.8 C 80 % 11.39 C
893 20-08-2003 04:55:03 14.8 C 80 % 11.39 C
894 20-08-2003 05:05:03 14.8 C 81 % 11.57 C
895 20-08-2003 05:15:03 14.7 C 80 % 11.29 C
896 20-08-2003 05:25:03 15 C 80 % 11.58 C
897 20-08-2003 05:35:03 14.9 C 80 % 11.48 C
898 20-08-2003 05:45:03 14.6 C 81 % 11.38 C
899 20-08-2003 05:55:03 14.4 C 80 % 11 C
900 20-08-2003 06:05:03 14.2 C 81 % 10.99 C
Sensor: Nr:Datum:Temp:Feuchte:Taupunkt:
Aussen-T/F 901 20-08-2003 06:15:03 14.1 C 83 % 11.26 C
902 20-08-2003 06:25:03 14.1 C 83 % 11.26 C
903 20-08-2003 06:35:01 13.7 C 84 % 11.05 C
904 20-08-2003 06:45:01 13.7 C 84 % 11.05 C
905 20-08-2003 06:55:01 13.8 C 85 % 11.32 C
906 20-08-2003 07:05:00 13.8 C 85 % 11.32 C
907 20-08-2003 07:15:00 13.8 C 85 % 11.32 C
908 20-08-2003 07:25:00 14 C 85 % 11.52 C
909 20-08-2003 07:35:01 14 C 85 % 11.52 C
910 20-08-2003 07:45:01 14.3 C 85 % 11.81 C
911 20-08-2003 07:55:01 14.2 C 85 % 11.72 C
912 20-08-2003 08:05:41 14.3 C 85 % 11.81 C
913 20-08-2003 08:15:29 14.5 C 84 % 11.83 C
914 20-08-2003 08:25:40 14.6 C 84 % 11.93 C
915 20-08-2003 08:35:01 14.8 C 83 % 11.94 C
916 20-08-2003 08:45:01 15 C 82 % 11.95 C
917 20-08-2003 08:55:01 15.3 C 80 % 11.87 C
918 20-08-2003 09:05:02 15.6 C 79 % 11.97 C
919 20-08-2003 09:15:02 15.8 C 77 % 11.78 C
920 20-08-2003 09:25:02 16.1 C 75 % 11.67 C
921 20-08-2003 09:35:01 16.5 C 75 % 12.06 C
922 20-08-2003 09:45:01 17 C 73 % 12.13 C
923 20-08-2003 09:55:01 17.5 C 71 % 12.19 C
924 20-08-2003 10:05:01 18 C 69 % 12.23 C
925 20-08-2003 10:15:01 18.4 C 68 % 12.39 C
Sensor: Nr:Datum:Temp:Feuchte:Taupunkt:
Aussen-T/F 926 20-08-2003 10:25:01 18.9 C 67 % 12.64 C
927 20-08-2003 10:35:01 19.3 C 64 % 12.32 C
928 20-08-2003 10:45:01 19.7 C 63 % 12.46 C
929 20-08-2003 10:55:01 20.1 C 59 % 11.84 C
930 20-08-2003 11:05:02 20.5 C 58 % 11.96 C
931 20-08-2003 11:15:02 21.2 C 55 % 11.81 C
932 20-08-2003 11:25:02 21.5 C 54 % 11.81 C
933 20-08-2003 11:35:01 21.8 C 49 % 10.62 C
934 20-08-2003 11:45:01 22.3 C 49 % 11.08 C
935 20-08-2003 11:55:01 22.6 C 47 % 10.72 C
936 20-08-2003 12:05:01 22.8 C 46 % 10.58 C
937 20-08-2003 12:15:01 23 C 44 % 10.1 C
938 20-08-2003 12:25:01 23.3 C 42 % 9.68 C
939 20-08-2003 12:35:01 23.7 C 41 % 9.68 C
940 20-08-2003 12:45:01 23.9 C 39 % 9.11 C
941 20-08-2003 12:55:01 23.7 C 39 % 8.93 C
942 20-08-2003 13:05:02 24.8 C 37 % 9.13 C
943 20-08-2003 13:15:02 25.3 C 35 % 8.75 C
944 20-08-2003 13:25:02 25.5 C 32 % 7.6 C
945 20-08-2003 13:35:01 25.7 C 31 % 7.31 C
946 20-08-2003 13:45:01 26.4 C 32 % 8.39 C
947 20-08-2003 13:55:01 27.5 C 30 % 8.39 C
948 20-08-2003 14:04:01 27.2 C 29 % 7.63 C
949 20-08-2003 14:16:01 25.9 C 31 % 7.49 C
950 20-08-2003 14:28:01 26.7 C 30 % 7.7 C
Sensor: Nr:Datum:Temp:Feuchte:Taupunkt:
Aussen-T/F 951 20-08-2003 14:40:01 26.1 C 30 % 7.18 C
952 20-08-2003 14:52:01 28.2 C 28 % 7.97 C
953 20-08-2003 15:04:01 28.7 C 26 % 7.31 C
954 20-08-2003 15:16:01 28.8 C 27 % 7.95 C
955 20-08-2003 15:28:01 29 C 25 % 6.99 C
956 20-08-2003 15:40:00 29.1 C 24 % 6.48 C
957 20-08-2003 15:52:00 29.4 C 25 % 7.33 C
958 20-08-2003 16:04:01 28.4 C 24 % 5.9 C
959 20-08-2003 16:16:01 28.8 C 25 % 6.82 C
960 20-08-2003 16:28:01 29.1 C 22 % 5.23 C
961 20-08-2003 16:40:01 29.6 C 25 % 7.5 C
962 20-08-2003 16:52:01 28.9 C 23 % 5.7 C
963 20-08-2003 17:04:01 29.7 C 23 % 6.37 C
964 20-08-2003 17:16:01 29.3 C 22 % 5.39 C
965 20-08-2003 17:28:01 28.8 C 24 % 6.23 C
966 20-08-2003 17:40:00 29.6 C 22 % 5.64 C
967 20-08-2003 17:52:00 28.9 C 23 % 5.7 C
968 20-08-2003 18:04:02 28.9 C 25 % 6.91 C
969 20-08-2003 18:16:02 29.1 C 24 % 6.48 C
970 20-08-2003 18:28:02 28.4 C 25 % 6.49 C
971 20-08-2003 18:40:02 28.5 C 25 % 6.57 C
972 20-08-2003 18:52:02 27.6 C 26 % 6.38 C
973 20-08-2003 19:04:01 27.9 C 27 % 7.18 C
974 20-08-2003 19:16:01 27.6 C 27 % 6.93 C
975 20-08-2003 19:28:01 26.9 C 29 % 7.37 C
Sensor: Nr:Datum:Temp:Feuchte:Taupunkt:
Aussen-T/F 976 20-08-2003 19:40:02 26.9 C 30 % 7.87 C
977 20-08-2003 19:52:02 26.1 C 30 % 7.18 C
978 20-08-2003 20:04:01 25.6 C 31 % 7.23 C
979 20-08-2003 20:16:01 24.9 C 35 % 8.4 C
980 20-08-2003 20:28:01 24 C 38 % 8.82 C
981 20-08-2003 20:40:01 22.7 C 42 % 9.14 C
982 20-08-2003 20:52:01 21.6 C 44 % 8.83 C
983 20-08-2003 21:04:02 21.3 C 45 % 8.89 C
984 20-08-2003 21:16:02 21 C 46 % 8.95 C
985 20-08-2003 21:28:02 20.6 C 47 % 8.9 C
986 20-08-2003 21:40:01 20.3 C 48 % 8.94 C
987 20-08-2003 21:52:01 19.8 C 50 % 9.09 C
988 20-08-2003 22:04:01 19.4 C 50 % 8.72 C
989 20-08-2003 22:16:01 19.4 C 52 % 9.3 C
990 20-08-2003 22:28:01 19.3 C 50 % 8.63 C
991 20-08-2003 22:41:01 18.9 C 53 % 9.12 C
992 20-08-2003 22:53:01 18.7 C 54 % 9.21 C
993 20-08-2003 23:05:01 18.6 C 54 % 9.12 C
994 20-08-2003 23:17:01 18.4 C 55 % 9.2 C
995 20-08-2003 23:29:01 18.1 C 55 % 8.93 C
996 20-08-2003 23:41:01 17.9 C 59 % 9.78 C
997 20-08-2003 23:53:01 17.3 C 61 % 9.71 C
998 21-08-2003 00:05:01 17.2 C 60 % 9.37 C
999 21-08-2003 00:17:01 17.1 C 60 % 9.28 C
1000 21-08-2003 00:29:01 16.8 C 63 % 9.72 C
Sensor: Nr:Datum:Temp:Feuchte:Taupunkt:
Aussen-T/F 1001 21-08-2003 00:41:01 16.8 C 63 % 9.72 C
1002 21-08-2003 00:53:01 16.6 C 63 % 9.53 C
1003 21-08-2003 01:05:01 16.3 C 65 % 9.71 C
1004 21-08-2003 01:17:01 16.2 C 65 % 9.62 C
1005 21-08-2003 01:29:01 16.2 C 66 % 9.85 C
1006 21-08-2003 01:41:01 16.3 C 66 % 9.94 C
1007 21-08-2003 01:53:01 16.1 C 67 % 9.98 C
1008 21-08-2003 02:05:01 15.8 C 69 % 10.13 C
1009 21-08-2003 02:17:01 15.6 C 69 % 9.94 C
1010 21-08-2003 02:29:01 15.4 C 69 % 9.75 C
1011 21-08-2003 02:41:01 15.2 C 72 % 10.19 C
1012 21-08-2003 02:53:01 15.1 C 72 % 10.09 C
1013 21-08-2003 03:05:01 14.8 C 72 % 9.81 C
1014 21-08-2003 03:17:01 14.7 C 73 % 9.92 C
1015 21-08-2003 03:29:01 14.5 C 74 % 9.93 C
1016 21-08-2003 03:41:01 14.4 C 74 % 9.83 C
1017 21-08-2003 03:53:01 14.2 C 74 % 9.64 C
1018 21-08-2003 04:05:01 14.2 C 76 % 10.03 C
1019 21-08-2003 04:17:01 13.9 C 77 % 9.94 C
1020 21-08-2003 04:29:01 13.8 C 77 % 9.84 C
1021 21-08-2003 04:41:01 13.7 C 79 % 10.13 C
1022 21-08-2003 04:53:01 13.5 C 80 % 10.12 C
1023 21-08-2003 05:05:01 13.4 C 79 % 9.84 C
1024 21-08-2003 05:17:01 13.3 C 79 % 9.74 C
1025 21-08-2003 05:29:01 13.1 C 79 % 9.54 C
Sensor: Nr:Datum:Temp:Feuchte:Taupunkt:
Aussen-T/F 1026 21-08-2003 05:41:01 13 C 79 % 9.45 C
1027 21-08-2003 05:53:01 12.9 C 82 % 9.9 C
1028 21-08-2003 06:05:01 12.8 C 83 % 9.99 C
1029 21-08-2003 06:17:01 12.7 C 83 % 9.89 C
1030 21-08-2003 06:29:01 12.5 C 83 % 9.69 C
1031 21-08-2003 06:41:01 12.5 C 83 % 9.69 C
1032 21-08-2003 06:53:01 12.5 C 83 % 9.69 C
1033 21-08-2003 07:05:01 12.5 C 84 % 9.87 C
1034 21-08-2003 07:17:01 12.5 C 84 % 9.87 C
1035 21-08-2003 07:29:01 12.7 C 83 % 9.89 C
1036 21-08-2003 07:41:01 12.7 C 84 % 10.07 C
1037 21-08-2003 07:53:01 12.9 C 84 % 10.26 C
1038 21-08-2003 08:05:01 13 C 84 % 10.36 C
1039 21-08-2003 08:17:01 13 C 83 % 10.18 C
1040 21-08-2003 08:29:01 13.3 C 82 % 10.3 C
1041 21-08-2003 08:41:01 13.6 C 80 % 10.22 C
1042 21-08-2003 08:53:01 13.9 C 79 % 10.32 C
1043 21-08-2003 09:05:01 14.1 C 78 % 10.33 C
1044 21-08-2003 09:17:01 14.6 C 77 % 10.62 C
1045 21-08-2003 09:29:01 15.1 C 74 % 10.5 C
1046 21-08-2003 09:41:01 15.6 C 73 % 10.78 C
1047 21-08-2003 09:53:01 16.2 C 71 % 10.94 C
1048 21-08-2003 10:05:02 16.8 C 67 % 10.64 C
1049 21-08-2003 10:17:02 17.4 C 62 % 10.05 C
1050 21-08-2003 10:29:02 18.1 C 58 % 9.71 C
Sensor: Nr:Datum:Temp:Feuchte:Taupunkt:
Aussen-T/F 1051 21-08-2003 10:41:01 18.7 C 59 % 10.53 C
1052 21-08-2003 10:53:01 19.3 C 57 % 10.58 C
1053 21-08-2003 11:05:01 20 C 55 % 10.69 C
1054 21-08-2003 11:17:01 20.9 C 53 % 10.97 C
1055 21-08-2003 11:29:01 21.7 C 48 % 10.22 C
1056 21-08-2003 11:41:00 22.4 C 47 % 10.54 C
1057 21-08-2003 11:53:00 23 C 44 % 10.1 C
1058 21-08-2003 12:05:01 23.8 C 43 % 10.48 C
1059 21-08-2003 12:17:01 23.8 C 41 % 9.76 C
1060 21-08-2003 12:29:01 24.4 C 37 % 8.78 C
1061 21-08-2003 12:41:01 24.9 C 36 % 8.81 C
1062 21-08-2003 12:53:01 25.4 C 33 % 7.97 C
1063 21-08-2003 13:05:01 25.7 C 32 % 7.78 C
1064 21-08-2003 13:17:01 25.4 C 32 % 7.52 C
1065 21-08-2003 13:29:01 25.7 C 34 % 8.67 C
1066 21-08-2003 13:41:01 26 C 31 % 7.57 C
1067 21-08-2003 13:53:01 26 C 30 % 7.09 C
1068 21-08-2003 14:05:01 26.5 C 29 % 7.03 C
1069 21-08-2003 14:17:01 27.3 C 27 % 6.67 C
1070 21-08-2003 14:29:01 27.7 C 26 % 6.47 C
1071 21-08-2003 14:41:01 27.4 C 25 % 5.65 C
1072 21-08-2003 14:53:01 28.1 C 25 % 6.24 C
1073 21-08-2003 15:05:02 28.7 C 25 % 6.74 C
1074 21-08-2003 15:17:02 29 C 23 % 5.78 C
1075 21-08-2003 15:29:02 28.7 C 23 % 5.53 C
Sensor: Nr:Datum:Temp:Feuchte:Taupunkt:
Aussen-T/F 1076 21-08-2003 15:41:01 29.7 C 23 % 6.37 C
1077 21-08-2003 15:53:01 29.5 C 21 % 4.89 C
1078 21-08-2003 16:05:02 30.4 C 21 % 5.63 C
1079 21-08-2003 16:17:02 30.1 C 21 % 5.39 C
1080 21-08-2003 16:29:02 30.5 C 21 % 5.72 C
1081 21-08-2003 16:41:01 30.6 C 20 % 5.1 C
1082 21-08-2003 16:53:01 31 C 20 % 5.42 C
1083 21-08-2003 17:05:01 29.6 C 20 % 4.28 C
1084 21-08-2003 17:17:01 30 C 20 % 4.61 C
1085 21-08-2003 17:29:01 30 C 20 % 4.61 C
1086 21-08-2003 17:41:00 30.4 C 21 % 5.63 C
1087 21-08-2003 17:53:00 30.3 C 21 % 5.55 C
1088 21-08-2003 18:05:01 30.1 C 20 % 4.69 C
1089 21-08-2003 18:17:01 30.2 C 22 % 6.14 C
1090 21-08-2003 18:29:01 30.2 C 23 % 6.78 C
1091 21-08-2003 18:41:01 29 C 25 % 6.99 C
1092 21-08-2003 18:53:01 29.5 C 27 % 8.54 C
1093 21-08-2003 19:05:01 28.8 C 29 % 9 C
1094 21-08-2003 19:17:01 28.3 C 30 % 9.07 C
1095 21-08-2003 19:29:01 27.6 C 32 % 9.43 C
1096 21-08-2003 19:41:01 27.3 C 36 % 10.93 C
1097 21-08-2003 19:53:01 26.6 C 39 % 11.51 C
1098 21-08-2003 20:05:02 25.7 C 41 % 11.47 C
1099 21-08-2003 20:17:02 24.9 C 42 % 11.11 C
1100 21-08-2003 20:29:02 24.4 C 42 % 10.66 C
Sensor: Nr:Datum:Temp:Feuchte:Taupunkt:
Aussen-T/F 1101 21-08-2003 20:41:00 23.4 C 43 % 10.12 C
1102 21-08-2003 20:53:00 22.9 C 44 % 10.01 C
1103 21-08-2003 21:05:01 22.4 C 46 % 10.22 C
1104 21-08-2003 21:17:01 21.9 C 48 % 10.4 C
1105 21-08-2003 21:29:01 21.6 C 49 % 10.44 C
1106 21-08-2003 21:42:01 21.3 C 50 % 10.46 C
1107 21-08-2003 21:54:01 21.1 C 51 % 10.58 C
1108 21-08-2003 22:06:01 21 C 51 % 10.48 C
1109 21-08-2003 22:18:01 20.9 C 51 % 10.39 C
1110 21-08-2003 22:30:01 20.5 C 51 % 10.02 C
1111 21-08-2003 22:42:01 20.5 C 52 % 10.31 C
1112 21-08-2003 22:54:01 20.1 C 53 % 10.23 C
1113 21-08-2003 23:06:01 20 C 55 % 10.69 C
1114 21-08-2003 23:18:01 19.7 C 58 % 11.21 C
1115 21-08-2003 23:30:01 19.5 C 58 % 11.02 C
1116 21-08-2003 23:42:01 19.3 C 59 % 11.09 C
1117 21-08-2003 23:54:01 19.1 C 60 % 11.16 C
1118 22-08-2003 00:06:01 18.9 C 61 % 11.22 C
1119 22-08-2003 00:18:01 18.6 C 62 % 11.18 C
1120 22-08-2003 00:30:01 18.4 C 63 % 11.23 C
1121 22-08-2003 00:42:01 18.1 C 63 % 10.95 C
1122 22-08-2003 00:54:01 17.9 C 66 % 11.46 C
1123 22-08-2003 01:06:01 18 C 64 % 11.09 C
1124 22-08-2003 01:18:01 17.8 C 66 % 11.37 C
1125 22-08-2003 01:30:01 17.6 C 67 % 11.4 C
Sensor: Nr:Datum:Temp:Feuchte:Taupunkt:
Aussen-T/F 1126 22-08-2003 01:42:01 17.5 C 67 % 11.31 C
1127 22-08-2003 01:54:01 17.3 C 67 % 11.12 C
1128 22-08-2003 02:06:01 17.1 C 69 % 11.37 C
1129 22-08-2003 02:18:01 17 C 69 % 11.28 C
1130 22-08-2003 02:30:01 16.9 C 70 % 11.4 C
1131 22-08-2003 02:42:01 16.6 C 71 % 11.32 C
1132 22-08-2003 02:54:01 16.3 C 72 % 11.25 C
1133 22-08-2003 03:06:01 16.2 C 72 % 11.15 C
1134 22-08-2003 03:18:01 16.2 C 72 % 11.15 C
1135 22-08-2003 03:30:01 16 C 72 % 10.96 C
1136 22-08-2003 03:42:01 15.8 C 74 % 11.18 C
1137 22-08-2003 03:54:01 15.8 C 74 % 11.18 C
1138 22-08-2003 04:06:01 15.6 C 74 % 10.99 C
1139 22-08-2003 04:18:01 15.4 C 75 % 11 C
1140 22-08-2003 04:30:01 15.3 C 76 % 11.1 C
1141 22-08-2003 04:42:01 15.1 C 77 % 11.1 C
1142 22-08-2003 04:54:01 14.9 C 79 % 11.29 C
1143 22-08-2003 05:06:01 14.8 C 79 % 11.2 C
1144 22-08-2003 05:18:01 14.7 C 79 % 11.1 C
1145 22-08-2003 05:30:01 14.4 C 80 % 11 C
1146 22-08-2003 05:42:01 14.3 C 80 % 10.9 C
1147 22-08-2003 05:54:01 14.3 C 80 % 10.9 C
1148 22-08-2003 06:06:01 14.1 C 80 % 10.71 C
1149 22-08-2003 06:18:01 14 C 80 % 10.61 C
1150 22-08-2003 06:30:01 13.9 C 81 % 10.7 C
Sensor: Nr:Datum:Temp:Feuchte:Taupunkt:
Aussen-T/F 1151 22-08-2003 06:42:01 13.8 C 81 % 10.6 C
1152 22-08-2003 06:54:01 13.7 C 82 % 10.69 C
1153 22-08-2003 07:06:01 13.6 C 82 % 10.59 C
1154 22-08-2003 07:18:01 13.6 C 82 % 10.59 C
1155 22-08-2003 07:30:01 13.6 C 82 % 10.59 C
1156 22-08-2003 07:42:01 13.8 C 82 % 10.78 C
1157 22-08-2003 07:54:01 13.9 C 82 % 10.88 C
1158 22-08-2003 08:06:01 14.1 C 80 % 10.71 C
1159 22-08-2003 08:18:01 14.4 C 79 % 10.81 C
1160 22-08-2003 08:30:01 14.7 C 78 % 10.91 C
1161 22-08-2003 08:42:02 15 C 77 % 11 C
1162 22-08-2003 08:54:02 15.5 C 74 % 10.89 C
1163 22-08-2003 09:06:02 15.7 C 72 % 10.67 C
1164 22-08-2003 09:18:02 16 C 71 % 10.75 C
1165 22-08-2003 09:30:02 16.7 C 68 % 10.77 C
1166 22-08-2003 09:42:01 17.2 C 63 % 10.1 C
1167 22-08-2003 09:54:01 17.6 C 59 % 9.5 C
1168 22-08-2003 10:06:02 18 C 54 % 8.56 C
1169 22-08-2003 10:18:02 18.5 C 54 % 9.03 C
1170 22-08-2003 10:30:02 18.9 C 51 % 8.55 C
1171 22-08-2003 10:42:01 19.5 C 50 % 8.81 C
1172 22-08-2003 10:54:01 20.1 C 48 % 8.76 C
1173 22-08-2003 11:06:01 20.7 C 45 % 8.35 C
1174 22-08-2003 11:18:01 21 C 44 % 8.29 C
1175 22-08-2003 11:30:01 21.3 C 42 % 7.88 C
Sensor: Nr:Datum:Temp:Feuchte:Taupunkt:
Aussen-T/F 1176 22-08-2003 11:42:01 21.5 C 41 % 7.7 C
1177 22-08-2003 11:54:01 21.9 C 41 % 8.06 C
1178 22-08-2003 12:06:01 22.3 C 39 % 7.69 C
1179 22-08-2003 12:18:01 22.5 C 39 % 7.86 C
1180 22-08-2003 12:30:01 22.5 C 38 % 7.48 C
1181 22-08-2003 12:42:01 22.6 C 39 % 7.95 C
1182 22-08-2003 12:54:01 23 C 38 % 7.93 C
1183 22-08-2003 13:06:00 23.3 C 38 % 8.19 C
1184 22-08-2003 13:18:00 24.6 C 36 % 8.55 C
1185 22-08-2003 13:30:00 24.7 C 36 % 8.64 C
1186 22-08-2003 13:42:01 24.6 C 37 % 8.95 C
1187 22-08-2003 13:54:01 25.1 C 35 % 8.57 C
1188 22-08-2003 14:06:02 24.8 C 36 % 8.72 C
1189 22-08-2003 14:18:02 25.3 C 35 % 8.75 C
1190 22-08-2003 14:30:02 25.1 C 36 % 8.99 C
1191 22-08-2003 14:42:01 25.5 C 35 % 8.92 C
1192 22-08-2003 14:54:01 25.4 C 36 % 9.25 C
1193 22-08-2003 15:06:02 25.4 C 35 % 8.84 C
1194 22-08-2003 15:18:02 25.8 C 35 % 9.19 C
1195 22-08-2003 15:30:02 26 C 34 % 8.93 C
1196 22-08-2003 15:42:00 26.2 C 33 % 8.67 C
1197 22-08-2003 15:54:00 26.4 C 33 % 8.84 C
1198 22-08-2003 16:06:01 26.8 C 32 % 8.73 C
1199 22-08-2003 16:18:01 26.6 C 32 % 8.56 C
1200 22-08-2003 16:30:01 27 C 32 % 8.91 C
Sensor: Nr:Datum:Temp:Feuchte:Taupunkt:
Aussen-T/F 1201 22-08-2003 16:42:01 27.1 C 31 % 8.52 C
1202 22-08-2003 16:54:01 26.9 C 32 % 8.82 C
1203 22-08-2003 17:06:01 27.4 C 31 % 8.78 C
1204 22-08-2003 17:18:01 27.1 C 32 % 8.99 C
1205 22-08-2003 17:30:01 26.9 C 32 % 8.82 C
1206 22-08-2003 17:42:01 27.1 C 32 % 8.99 C
1207 22-08-2003 17:54:01 27.3 C 31 % 8.7 C
1208 22-08-2003 18:06:01 27.2 C 32 % 9.08 C
1209 22-08-2003 18:18:01 27.4 C 32 % 9.25 C
1210 22-08-2003 18:30:01 27.1 C 31 % 8.52 C
1211 22-08-2003 18:42:01 26.6 C 33 % 9.01 C
1212 22-08-2003 18:54:01 26.6 C 33 % 9.01 C
1213 22-08-2003 19:06:02 26.5 C 34 % 9.37 C
1214 22-08-2003 19:18:02 26.3 C 34 % 9.19 C
1215 22-08-2003 19:30:02 26.3 C 35 % 9.63 C
1216 22-08-2003 19:42:00 25.1 C 36 % 8.99 C
1217 22-08-2003 19:54:00 24.6 C 38 % 9.35 C
1218 22-08-2003 20:06:01 23.9 C 40 % 9.49 C
1219 22-08-2003 20:18:01 23.6 C 42 % 9.94 C
1220 22-08-2003 20:30:01 23 C 43 % 9.76 C
1221 22-08-2003 20:42:01 22.6 C 45 % 10.07 C
1222 22-08-2003 20:54:01 22.1 C 47 % 10.27 C
1223 22-08-2003 21:06:00 21.9 C 48 % 10.4 C
1224 22-08-2003 21:18:00 21.6 C 49 % 10.44 C
1225 22-08-2003 21:30:00 21.3 C 50 % 10.46 C
Sensor: Nr:Datum:Temp:Feuchte:Taupunkt:
Aussen-T/F 1226 22-08-2003 21:42:01 21.1 C 52 % 10.87 C
1227 22-08-2003 21:54:01 20.8 C 53 % 10.88 C
1228 22-08-2003 22:06:01 20.4 C 53 % 10.51 C
1229 22-08-2003 22:18:01 20 C 55 % 10.69 C
1230 22-08-2003 22:30:01 19.7 C 56 % 10.68 C
1231 22-08-2003 22:43:04 19.5 C 58 % 11.02 C
1232 22-08-2003 22:55:04 19 C 60 % 11.07 C
1233 22-08-2003 23:07:04 19.1 C 59 % 10.91 C
1234 22-08-2003 23:19:04 19 C 59 % 10.81 C
1235 22-08-2003 23:31:04 18.8 C 62 % 11.37 C
1236 22-08-2003 23:43:04 19.2 C 59 % 11 C
1237 22-08-2003 23:55:04 19.3 C 59 % 11.09 C
1238 23-08-2003 00:07:04 19.1 C 59 % 10.91 C
1239 23-08-2003 00:19:04 18.9 C 61 % 11.22 C
1240 23-08-2003 00:31:04 18.9 C 61 % 11.22 C
1241 23-08-2003 00:43:04 19 C 60 % 11.07 C
1242 23-08-2003 00:55:04 19 C 60 % 11.07 C
1243 23-08-2003 01:07:04 18.9 C 61 % 11.22 C
1244 23-08-2003 01:19:04 18.8 C 62 % 11.37 C
1245 23-08-2003 01:31:04 18.5 C 63 % 11.33 C
1246 23-08-2003 01:43:04 18.3 C 64 % 11.38 C
1247 23-08-2003 01:55:04 18.2 C 65 % 11.52 C
1248 23-08-2003 02:07:04 18.1 C 65 % 11.42 C
1249 23-08-2003 02:19:04 18.2 C 65 % 11.52 C
1250 23-08-2003 02:31:04 18.1 C 65 % 11.42 C
Sensor: Nr:Datum:Temp:Feuchte:Taupunkt:
Aussen-T/F 1251 23-08-2003 02:43:04 18.1 C 65 % 11.42 C
1252 23-08-2003 02:55:04 17.8 C 67 % 11.6 C
1253 23-08-2003 03:07:04 17.4 C 68 % 11.44 C
1254 23-08-2003 03:19:04 17 C 69 % 11.28 C
1255 23-08-2003 03:31:04 17 C 70 % 11.49 C
1256 23-08-2003 03:43:04 16.8 C 72 % 11.73 C
1257 23-08-2003 03:55:04 16.8 C 72 % 11.73 C
1258 23-08-2003 04:07:04 16.9 C 71 % 11.61 C
1259 23-08-2003 04:19:04 16.6 C 73 % 11.74 C
1260 23-08-2003 04:31:04 16.6 C 73 % 11.74 C
1261 23-08-2003 04:43:04 16.4 C 73 % 11.55 C
1262 23-08-2003 04:55:04 16.4 C 74 % 11.76 C
1263 23-08-2003 05:07:04 16.3 C 74 % 11.66 C
1264 23-08-2003 05:19:04 16.2 C 74 % 11.56 C
1265 23-08-2003 05:31:04 16.1 C 74 % 11.47 C
1266 23-08-2003 05:43:04 16 C 75 % 11.57 C
1267 23-08-2003 05:55:04 15.9 C 77 % 11.88 C
1268 23-08-2003 06:07:04 15.8 C 77 % 11.78 C
1269 23-08-2003 06:19:04 15.6 C 78 % 11.78 C
1270 23-08-2003 06:31:04 15.5 C 78 % 11.68 C
1271 23-08-2003 06:43:04 15.4 C 78 % 11.59 C
1272 23-08-2003 06:55:04 15.4 C 79 % 11.78 C
1273 23-08-2003 07:07:04 15.4 C 79 % 11.78 C
1274 23-08-2003 07:19:04 15.4 C 79 % 11.78 C
1275 23-08-2003 07:31:04 15.4 C 79 % 11.78 C
Sensor: Nr:Datum:Temp:Feuchte:Taupunkt:
Aussen-T/F 1276 23-08-2003 07:43:04 15.6 C 78 % 11.78 C
1277 23-08-2003 07:55:04 16 C 76 % 11.77 C
1278 23-08-2003 08:07:04 16.2 C 75 % 11.77 C
1279 23-08-2003 08:19:04 16.6 C 74 % 11.95 C
1280 23-08-2003 08:31:04 16.9 C 73 % 12.03 C
1281 23-08-2003 08:43:01 16.9 C 74 % 12.24 C
1282 23-08-2003 08:55:01 17.2 C 72 % 12.11 C
1283 23-08-2003 09:07:01 17.7 C 71 % 12.38 C
1284 23-08-2003 09:19:01 18.1 C 70 % 12.55 C
1285 23-08-2003 09:31:01 19 C 67 % 12.74 C
1286 23-08-2003 09:43:01 19.4 C 65 % 12.66 C
1287 23-08-2003 09:55:01 19.8 C 64 % 12.8 C
1288 23-08-2003 10:07:02 20.2 C 61 % 12.44 C
1289 23-08-2003 10:19:02 20.8 C 60 % 12.76 C
1290 23-08-2003 10:31:02 21.8 C 56 % 12.64 C
1291 23-08-2003 10:43:02 22.1 C 54 % 12.36 C
1292 23-08-2003 10:55:02 22.5 C 54 % 12.73 C
1293 23-08-2003 11:07:02 22.1 C 55 % 12.64 C
1294 23-08-2003 11:19:02 22.1 C 56 % 12.92 C
1295 23-08-2003 11:31:02 22.1 C 58 % 13.45 C
1296 23-08-2003 11:43:01 23.5 C 51 % 12.78 C
1297 23-08-2003 11:55:01 24 C 47 % 12 C
1298 23-08-2003 12:07:02 24.2 C 48 % 12.5 C
1299 23-08-2003 12:19:02 24.4 C 48 % 12.68 C
1300 23-08-2003 12:31:02 25.4 C 46 % 12.94 C
Sensor: Nr:Datum:Temp:Feuchte:Taupunkt:
Aussen-T/F 1301 23-08-2003 12:43:00 25.6 C 44 % 12.45 C
1302 23-08-2003 12:55:00 25.7 C 44 % 12.54 C
1303 23-08-2003 13:07:00 26.1 C 42 % 12.19 C
1304 23-08-2003 13:19:00 25.9 C 45 % 13.06 C
1305 23-08-2003 13:31:00 25.5 C 47 % 13.36 C
1306 23-08-2003 13:43:01 25.2 C 50 % 14.04 C
1307 23-08-2003 13:55:01 25 C 49 % 13.55 C
1308 23-08-2003 14:07:02 25.2 C 46 % 12.76 C
1309 23-08-2003 14:19:02 25.8 C 45 % 12.97 C
1310 23-08-2003 14:31:02 26.5 C 43 % 12.91 C
1311 23-08-2003 14:43:01 27.7 C 41 % 13.25 C
1312 23-08-2003 14:55:01 28.3 C 39 % 13.02 C
1313 23-08-2003 15:07:01 28.1 C 40 % 13.23 C
1314 23-08-2003 15:19:01 28.6 C 38 % 12.89 C
1315 23-08-2003 15:31:01 27.8 C 40 % 12.97 C
1316 23-08-2003 15:43:01 27.5 C 41 % 13.08 C
1317 23-08-2003 15:55:01 26.6 C 42 % 12.64 C
1318 23-08-2003 16:07:02 26.5 C 42 % 12.55 C
1319 23-08-2003 16:19:02 27.5 C 39 % 12.31 C
1320 23-08-2003 16:31:02 27.5 C 41 % 13.08 C
1321 23-08-2003 16:43:01 27.5 C 41 % 13.08 C
1322 23-08-2003 16:55:01 27.4 C 42 % 13.35 C
1323 23-08-2003 17:07:03 26.9 C 42 % 12.91 C
1324 23-08-2003 17:19:03 27.2 C 40 % 12.43 C
1325 23-08-2003 17:31:03 27.7 C 39 % 12.49 C
Sensor: Nr:Datum:Temp:Feuchte:Taupunkt:
Aussen-T/F 1326 23-08-2003 17:43:01 27.9 C 39 % 12.67 C
1327 23-08-2003 17:55:01 28 C 37 % 11.96 C
1328 23-08-2003 18:07:01 27.6 C 39 % 12.4 C
1329 23-08-2003 18:19:01 26.6 C 42 % 12.64 C
1330 23-08-2003 18:31:01 26.3 C 43 % 12.73 C
1331 23-08-2003 18:43:08 25.9 C 45 % 13.06 C
1332 23-08-2003 18:55:08 25.5 C 46 % 13.03 C
1333 23-08-2003 19:07:01 26.5 C 43 % 12.91 C
1334 23-08-2003 19:19:01 27.2 C 42 % 13.18 C
1335 23-08-2003 19:31:01 26.4 C 42 % 12.46 C
1336 23-08-2003 19:43:01 26.2 C 43 % 12.64 C
1337 23-08-2003 19:55:01 26.1 C 44 % 12.9 C
1338 23-08-2003 20:07:01 25.5 C 48 % 13.69 C
1339 23-08-2003 20:19:01 24.5 C 51 % 13.7 C
1340 23-08-2003 20:31:01 24.5 C 52 % 14 C
1341 23-08-2003 20:43:02 23.8 C 54 % 13.94 C
1342 23-08-2003 20:55:02 23.9 C 54 % 14.03 C
1343 23-08-2003 21:07:01 23.5 C 55 % 13.94 C
1344 23-08-2003 21:19:01 23.3 C 56 % 14.03 C
1345 23-08-2003 21:31:01 23.1 C 57 % 14.12 C
1346 23-08-2003 21:44:01 22.7 C 58 % 14.01 C
1347 23-08-2003 21:56:01 22.2 C 60 % 14.07 C
1348 23-08-2003 22:08:01 22 C 62 % 14.39 C
1349 23-08-2003 22:20:01 21.7 C 63 % 14.35 C
1350 23-08-2003 22:32:01 21.5 C 63 % 14.16 C
Sensor: Nr:Datum:Temp:Feuchte:Taupunkt:
Aussen-T/F 1351 23-08-2003 22:44:01 21.6 C 62 % 14.01 C
1352 23-08-2003 22:56:01 21.6 C 63 % 14.26 C
1353 23-08-2003 23:08:01 21.2 C 64 % 14.12 C
1354 23-08-2003 23:20:01 20.9 C 66 % 14.31 C
1355 23-08-2003 23:32:01 20.8 C 66 % 14.22 C
1356 23-08-2003 23:44:01 20.7 C 67 % 14.36 C
1357 23-08-2003 23:56:01 20.4 C 68 % 14.3 C
1358 24-08-2003 00:08:01 20.3 C 68 % 14.2 C
1359 24-08-2003 00:20:01 20.1 C 68 % 14.01 C
1360 24-08-2003 00:32:01 20.1 C 69 % 14.24 C
1361 24-08-2003 00:44:01 19.9 C 70 % 14.27 C
1362 24-08-2003 00:56:01 20 C 69 % 14.14 C
1363 24-08-2003 01:08:01 19.7 C 71 % 14.3 C
1364 24-08-2003 01:20:01 19.5 C 71 % 14.1 C
1365 24-08-2003 01:32:01 19.3 C 70 % 13.69 C
1366 24-08-2003 01:44:01 19.3 C 70 % 13.69 C
1367 24-08-2003 01:56:01 19.1 C 69 % 13.28 C
1368 24-08-2003 02:08:01 19 C 69 % 13.19 C
1369 24-08-2003 02:20:01 18.7 C 69 % 12.9 C
1370 24-08-2003 02:32:01 18.6 C 69 % 12.8 C
1371 24-08-2003 02:44:01 18.5 C 70 % 12.93 C
1372 24-08-2003 02:56:01 18.2 C 70 % 12.64 C
1373 24-08-2003 03:08:01 18.1 C 70 % 12.55 C
1374 24-08-2003 03:20:01 17.8 C 72 % 12.69 C
1375 24-08-2003 03:32:01 17.6 C 73 % 12.71 C
Sensor: Nr:Datum:Temp:Feuchte:Taupunkt:
Aussen-T/F 1376 24-08-2003 03:44:01 17.4 C 73 % 12.51 C
1377 24-08-2003 03:56:01 17.3 C 73 % 12.42 C
1378 24-08-2003 04:08:01 17.1 C 74 % 12.43 C
1379 24-08-2003 04:20:01 16.8 C 75 % 12.35 C
1380 24-08-2003 04:32:01 16.6 C 76 % 12.36 C
1381 24-08-2003 04:44:01 16.5 C 75 % 12.06 C
1382 24-08-2003 04:56:01 16.3 C 76 % 12.07 C
1383 24-08-2003 05:08:01 16.2 C 76 % 11.97 C
1384 24-08-2003 05:20:01 16.1 C 76 % 11.87 C
1385 24-08-2003 05:32:01 16 C 77 % 11.97 C
1386 24-08-2003 05:44:01 15.7 C 77 % 11.68 C
1387 24-08-2003 05:56:01 15.7 C 79 % 12.07 C
1388 24-08-2003 06:08:01 15.4 C 78 % 11.59 C
1389 24-08-2003 06:20:01 15.2 C 79 % 11.59 C
1390 24-08-2003 06:32:01 15 C 79 % 11.39 C
1391 24-08-2003 06:44:01 15 C 79 % 11.39 C
1392 24-08-2003 06:56:01 14.8 C 80 % 11.39 C
1393 24-08-2003 07:08:01 14.8 C 81 % 11.57 C
1394 24-08-2003 07:20:01 14.8 C 81 % 11.57 C
1395 24-08-2003 07:32:01 14.8 C 81 % 11.57 C
1396 24-08-2003 07:44:01 14.8 C 80 % 11.39 C
1397 24-08-2003 07:56:01 14.9 C 80 % 11.48 C
1398 24-08-2003 08:08:01 15.1 C 80 % 11.68 C
1399 24-08-2003 08:20:01 15.2 C 79 % 11.59 C
1400 24-08-2003 08:32:01 15.4 C 78 % 11.59 C
Sensor: Nr:Datum:Temp:Feuchte:Taupunkt:
Aussen-T/F 1401 24-08-2003 08:44:01 15.7 C 77 % 11.68 C
1402 24-08-2003 08:56:01 16.1 C 76 % 11.87 C
1403 24-08-2003 09:08:01 16.5 C 74 % 11.85 C
1404 24-08-2003 09:20:01 16.8 C 73 % 11.94 C
1405 24-08-2003 09:32:01 17.2 C 71 % 11.9 C
1406 24-08-2003 09:44:01 17.4 C 69 % 11.66 C
1407 24-08-2003 09:56:01 17.6 C 69 % 11.85 C
1408 24-08-2003 10:08:02 18.1 C 66 % 11.65 C
1409 24-08-2003 10:20:02 18.8 C 64 % 11.85 C
1410 24-08-2003 10:32:01 19.3 C 61 % 11.6 C
1411 24-08-2003 10:44:01 19.3 C 60 % 11.35 C
1412 24-08-2003 10:56:01 19.8 C 57 % 11.04 C
1413 24-08-2003 11:08:01 19.8 C 57 % 11.04 C
1414 24-08-2003 11:20:01 20.4 C 53 % 10.51 C
1415 24-08-2003 11:32:02 20.6 C 52 % 10.41 C
1416 24-08-2003 11:44:02 21.1 C 50 % 10.28 C
1417 24-08-2003 11:56:02 21.9 C 48 % 10.4 C
1418 24-08-2003 12:08:02 22.5 C 46 % 10.31 C
1419 24-08-2003 12:20:02 22.3 C 43 % 9.13 C
1420 24-08-2003 12:32:48 22.6 C 43 % 9.4 C
1421 24-08-2003 12:44:48 22.9 C 41 % 8.96 C
1422 24-08-2003 12:56:01 22.6 C 39 % 7.95 C
1423 24-08-2003 13:08:01 23.4 C 39 % 8.67 C
1424 24-08-2003 13:20:01 24 C 35 % 7.61 C
1425 24-08-2003 13:32:01 24 C 34 % 7.18 C
Sensor: Nr:Datum:Temp:Feuchte:Taupunkt:
Aussen-T/F 1426 24-08-2003 13:44:01 24.5 C 32 % 6.74 C
1427 24-08-2003 13:56:01 24.4 C 32 % 6.65 C
1428 24-08-2003 14:08:01 25 C 31 % 6.71 C
1429 24-08-2003 14:20:01 25.5 C 30 % 6.66 C
1430 24-08-2003 14:32:01 25.8 C 30 % 6.92 C
1431 24-08-2003 14:44:01 26.8 C 27 % 6.25 C
1432 24-08-2003 14:56:01 27 C 27 % 6.42 C
1433 24-08-2003 15:08:00 26.7 C 26 % 5.62 C
1434 24-08-2003 15:20:00 26.8 C 27 % 6.25 C
1435 24-08-2003 15:32:01 27.1 C 25 % 5.39 C
1436 24-08-2003 15:44:01 27.8 C 25 % 5.98 C
1437 24-08-2003 15:56:01 28.7 C 23 % 5.53 C
1438 24-08-2003 16:08:01 27.8 C 23 % 4.78 C
1439 24-08-2003 16:20:01 28.8 C 22 % 4.98 C
1440 24-08-2003 16:32:01 28.1 C 22 % 4.4 C
1441 24-08-2003 16:44:01 28 C 22 % 4.32 C
1442 24-08-2003 16:56:01 28.7 C 22 % 4.9 C
1443 24-08-2003 17:08:01 29.2 C 21 % 4.64 C
1444 24-08-2003 17:20:01 28.3 C 22 % 4.57 C
1445 24-08-2003 17:32:01 27.7 C 23 % 4.7 C
1446 24-08-2003 17:44:01 28 C 23 % 4.95 C
1447 24-08-2003 17:56:01 28.6 C 23 % 5.45 C
1448 24-08-2003 18:08:02 28.6 C 24 % 6.06 C
1449 24-08-2003 18:20:02 27.6 C 25 % 5.81 C
1450 24-08-2003 18:32:01 27.3 C 25 % 5.56 C
Sensor: Nr:Datum:Temp:Feuchte:Taupunkt:
Aussen-T/F 1451 24-08-2003 18:44:01 26.7 C 28 % 6.69 C
1452 24-08-2003 18:56:01 27.2 C 29 % 7.63 C
1453 24-08-2003 19:08:02 26 C 30 % 7.09 C
1454 24-08-2003 19:20:02 25.5 C 33 % 8.06 C
1455 24-08-2003 19:32:01 25.4 C 34 % 8.41 C
1456 24-08-2003 19:44:01 25 C 35 % 8.48 C
1457 24-08-2003 19:56:01 24.8 C 36 % 8.72 C
1458 24-08-2003 20:08:02 23.4 C 39 % 8.67 C
1459 24-08-2003 20:20:02 22.3 C 42 % 8.78 C
1460 24-08-2003 20:32:01 21.6 C 45 % 9.17 C
1461 24-08-2003 20:44:01 21.5 C 46 % 9.4 C
1462 24-08-2003 20:56:01 21.3 C 46 % 9.22 C
1463 24-08-2003 21:08:02 21 C 46 % 8.95 C
1464 24-08-2003 21:20:02 20.6 C 48 % 9.21 C
1465 24-08-2003 21:33:01 20.4 C 49 % 9.34 C
1466 24-08-2003 21:45:01 20.3 C 49 % 9.24 C
1467 24-08-2003 21:57:01 19.9 C 50 % 9.18 C
1468 24-08-2003 22:09:01 19.5 C 52 % 9.39 C
1469 24-08-2003 22:21:01 19.1 C 53 % 9.3 C
1470 24-08-2003 22:33:01 18.7 C 54 % 9.21 C
1471 24-08-2003 22:45:01 18.1 C 55 % 8.93 C
1472 24-08-2003 22:57:01 17.7 C 57 % 9.08 C
1473 24-08-2003 23:09:01 17.4 C 57 % 8.8 C
1474 24-08-2003 23:21:01 17.2 C 58 % 8.87 C
1475 24-08-2003 23:33:01 16.9 C 60 % 9.09 C
Sensor: Nr:Datum:Temp:Feuchte:Taupunkt:
Aussen-T/F 1476 24-08-2003 23:45:01 16.5 C 62 % 9.2 C
1477 24-08-2003 23:57:01 16.4 C 63 % 9.35 C
1478 25-08-2003 00:09:01 16.2 C 62 % 8.92 C
1479 25-08-2003 00:21:01 15.9 C 64 % 9.11 C
1480 25-08-2003 00:33:01 15.7 C 65 % 9.15 C
1481 25-08-2003 00:45:01 15.4 C 66 % 9.09 C
1482 25-08-2003 00:57:01 15.4 C 66 % 9.09 C
1483 25-08-2003 01:09:01 15.3 C 66 % 8.99 C
1484 25-08-2003 01:21:01 15.1 C 67 % 9.02 C
1485 25-08-2003 01:33:01 15.1 C 67 % 9.02 C
1486 25-08-2003 01:45:01 15 C 67 % 8.93 C
1487 25-08-2003 01:57:01 14.8 C 68 % 8.96 C
1488 25-08-2003 02:09:01 14.5 C 69 % 8.89 C
1489 25-08-2003 02:21:01 14.3 C 70 % 8.91 C
1490 25-08-2003 02:33:01 14.2 C 71 % 9.02 C
1491 25-08-2003 02:45:01 14.2 C 70 % 8.81 C
1492 25-08-2003 02:57:01 14.2 C 72 % 9.23 C
1493 25-08-2003 03:09:01 13.9 C 73 % 9.15 C
1494 25-08-2003 03:21:01 13.7 C 74 % 9.15 C
1495 25-08-2003 03:33:01 13.3 C 74 % 8.77 C
1496 25-08-2003 03:45:01 13.3 C 75 % 8.97 C
1497 25-08-2003 03:57:01 13.2 C 76 % 9.07 C
1498 25-08-2003 04:09:01 13 C 76 % 8.87 C
1499 25-08-2003 04:21:01 13 C 77 % 9.07 C
1500 25-08-2003 04:33:01 12.9 C 78 % 9.16 C
Sensor: Nr:Datum:Temp:Feuchte:Taupunkt:
Aussen-T/F 1501 25-08-2003 04:45:01 12.7 C 79 % 9.16 C
1502 25-08-2003 04:57:01 12.5 C 79 % 8.96 C
1503 25-08-2003 05:09:01 12.4 C 80 % 9.05 C
1504 25-08-2003 05:21:01 12.2 C 80 % 8.86 C
1505 25-08-2003 05:33:01 12.1 C 81 % 8.94 C
1506 25-08-2003 05:45:01 12 C 82 % 9.03 C
1507 25-08-2003 05:57:01 11.8 C 82 % 8.83 C
1508 25-08-2003 06:09:01 11.8 C 82 % 8.83 C
1509 25-08-2003 06:21:01 11.6 C 83 % 8.81 C
1510 25-08-2003 06:33:01 11.4 C 83 % 8.62 C
1511 25-08-2003 06:45:01 11.4 C 84 % 8.8 C
1512 25-08-2003 06:57:01 11.4 C 84 % 8.8 C
1513 25-08-2003 07:09:01 11.4 C 85 % 8.97 C
1514 25-08-2003 07:21:01 11.4 C 84 % 8.8 C
1515 25-08-2003 07:33:01 11.5 C 84 % 8.89 C
1516 25-08-2003 07:45:01 11.6 C 84 % 8.99 C
1517 25-08-2003 07:57:01 11.7 C 84 % 9.09 C
1518 25-08-2003 08:09:00 11.9 C 84 % 9.29 C
1519 25-08-2003 08:21:00 12.2 C 84 % 9.58 C
1520 25-08-2003 08:33:01 12.5 C 83 % 9.69 C
1521 25-08-2003 08:45:01 12.9 C 81 % 9.72 C
1522 25-08-2003 08:57:01 13.3 C 77 % 9.36 C
1523 25-08-2003 09:09:01 13.7 C 75 % 9.35 C
1524 25-08-2003 09:21:01 14 C 74 % 9.44 C
1525 25-08-2003 09:33:01 14.7 C 71 % 9.5 C
Sensor: Nr:Datum:Temp:Feuchte:Taupunkt:
Aussen-T/F 1526 25-08-2003 09:45:01 15.2 C 71 % 9.98 C
1527 25-08-2003 09:57:01 15.7 C 68 % 9.82 C
1528 25-08-2003 10:09:01 16.4 C 66 % 10.04 C
1529 25-08-2003 10:21:01 17.1 C 63 % 10.01 C
1530 25-08-2003 10:33:02 17.7 C 63 % 10.57 C
1531 25-08-2003 10:45:02 18.1 C 59 % 9.97 C
1532 25-08-2003 10:57:02 19.1 C 53 % 9.3 C
1533 25-08-2003 11:09:02 20 C 48 % 8.67 C
1534 25-08-2003 11:21:02 20.5 C 46 % 8.49 C
1535 25-08-2003 11:33:01 21.1 C 43 % 8.04 C
1536 25-08-2003 11:45:01 21.8 C 42 % 8.33 C
1537 25-08-2003 11:57:01 22 C 40 % 7.79 C
1538 25-08-2003 12:09:01 22.5 C 39 % 7.86 C
1539 25-08-2003 12:21:01 22.6 C 38 % 7.57 C
1540 25-08-2003 12:33:02 23 C 37 % 7.54 C
1541 25-08-2003 12:45:02 23.3 C 36 % 7.4 C
1542 25-08-2003 12:57:02 23.9 C 36 % 7.93 C
1543 25-08-2003 13:09:02 24.3 C 35 % 7.87 C
1544 25-08-2003 13:21:02 24.4 C 34 % 7.53 C
1545 25-08-2003 13:33:01 25.1 C 32 % 7.26 C
1546 25-08-2003 13:45:01 25.1 C 31 % 6.79 C
1547 25-08-2003 13:57:01 26 C 31 % 7.57 C
1548 25-08-2003 14:09:01 26.4 C 30 % 7.44 C
1549 25-08-2003 14:21:01 26.2 C 29 % 6.77 C
1550 25-08-2003 14:33:01 27.4 C 29 % 7.8 C
Sensor: Nr:Datum:Temp:Feuchte:Taupunkt:
Aussen-T/F 1551 25-08-2003 14:45:01 27.5 C 27 % 6.84 C
1552 25-08-2003 14:57:01 28.6 C 26 % 7.23 C
1553 25-08-2003 15:09:01 29.1 C 24 % 6.48 C
1554 25-08-2003 15:21:01 28.8 C 25 % 6.82 C
1555 25-08-2003 15:33:01 29.5 C 23 % 6.2 C
1556 25-08-2003 15:45:01 29 C 24 % 6.4 C
1557 25-08-2003 15:57:01 29.7 C 23 % 6.37 C
1558 25-08-2003 16:09:01 30 C 22 % 5.97 C
1559 25-08-2003 16:21:01 30.3 C 22 % 6.22 C
1560 25-08-2003 16:33:01 29.1 C 22 % 5.23 C
1561 25-08-2003 16:45:01 29.6 C 22 % 5.64 C
1562 25-08-2003 16:57:01 30.6 C 20 % 5.1 C
1563 25-08-2003 17:09:01 31 C 20 % 5.42 C
1564 25-08-2003 17:21:01 31.4 C 20 % 5.75 C
1565 25-08-2003 17:33:02 31.2 C 20 % 5.59 C
1566 25-08-2003 17:45:02 31.2 C 20 % 5.59 C
1567 25-08-2003 17:57:02 31.3 C 20 % 5.67 C
1568 25-08-2003 18:09:01 31.4 C 20 % 5.75 C
1569 25-08-2003 18:21:01 31.4 C 20 % 5.75 C
1570 25-08-2003 18:33:01 30.6 C 20 % 5.1 C
1571 25-08-2003 18:45:01 30.6 C 20 % 5.1 C
1572 25-08-2003 18:57:01 30.8 C 20 % 5.26 C
1573 25-08-2003 19:09:02 30.4 C 21 % 5.63 C
1574 25-08-2003 19:21:02 30 C 21 % 5.3 C
1575 25-08-2003 19:33:02 29.4 C 23 % 6.12 C
Sensor: Nr:Datum:Temp:Feuchte:Taupunkt:
Aussen-T/F 1576 25-08-2003 19:45:02 28.9 C 25 % 6.91 C
1577 25-08-2003 19:57:02 27.7 C 25 % 5.9 C
1578 25-08-2003 20:09:01 26.4 C 29 % 6.94 C
1579 25-08-2003 20:21:01 25.1 C 30 % 6.32 C
1580 25-08-2003 20:33:01 24 C 32 % 6.3 C
1581 25-08-2003 20:45:01 23.3 C 33 % 6.14 C
1582 25-08-2003 20:57:01 23 C 36 % 7.14 C
1583 25-08-2003 21:09:01 22.3 C 36 % 6.52 C
1584 25-08-2003 21:21:01 21.4 C 38 % 6.51 C
1585 25-08-2003 21:33:00 21.1 C 39 % 6.62 C
1586 25-08-2003 21:45:00 20.9 C 40 % 6.81 C
1587 25-08-2003 21:57:00 20.6 C 42 % 7.25 C
1588 25-08-2003 22:10:01 20.1 C 43 % 7.14 C
1589 25-08-2003 22:22:01 20 C 44 % 7.39 C
1590 25-08-2003 22:34:01 19.6 C 46 % 7.67 C
1591 25-08-2003 22:46:01 19.4 C 47 % 7.81 C
1592 25-08-2003 22:58:01 19 C 48 % 7.75 C
1593 25-08-2003 23:10:01 18.8 C 50 % 8.17 C
1594 25-08-2003 23:22:01 18.7 C 50 % 8.08 C
1595 25-08-2003 23:34:01 18.4 C 52 % 8.38 C
1596 25-08-2003 23:46:01 18.2 C 53 % 8.47 C
1597 25-08-2003 23:58:01 18.2 C 54 % 8.75 C
1598 26-08-2003 00:10:01 17.9 C 55 % 8.74 C
1599 26-08-2003 00:22:01 17.8 C 56 % 8.91 C
1600 26-08-2003 00:34:01 17.3 C 57 % 8.71 C
Sensor: Nr:Datum:Temp:Feuchte:Taupunkt:
Aussen-T/F 1601 26-08-2003 00:46:01 17.3 C 58 % 8.97 C
1602 26-08-2003 00:58:01 16.8 C 60 % 9 C
1603 26-08-2003 01:10:01 16.4 C 62 % 9.11 C
1604 26-08-2003 01:22:01 16.4 C 63 % 9.35 C
1605 26-08-2003 01:34:01 16.3 C 62 % 9.01 C
1606 26-08-2003 01:46:01 16.1 C 64 % 9.29 C
1607 26-08-2003 01:58:01 15.8 C 66 % 9.47 C
1608 26-08-2003 02:10:01 15.7 C 67 % 9.6 C
1609 26-08-2003 02:22:01 15.5 C 66 % 9.18 C
1610 26-08-2003 02:34:01 15.2 C 68 % 9.34 C
1611 26-08-2003 02:46:01 15 C 68 % 9.15 C
1612 26-08-2003 02:58:01 14.8 C 71 % 9.6 C
1613 26-08-2003 03:10:01 14.7 C 71 % 9.5 C
1614 26-08-2003 03:22:01 14.5 C 71 % 9.31 C
1615 26-08-2003 03:34:01 14.4 C 72 % 9.42 C
1616 26-08-2003 03:46:01 14.1 C 73 % 9.34 C
1617 26-08-2003 03:58:01 14.2 C 74 % 9.64 C
1618 26-08-2003 04:10:01 13.9 C 75 % 9.55 C
1619 26-08-2003 04:22:01 13.7 C 76 % 9.55 C
1620 26-08-2003 04:34:01 13.5 C 76 % 9.36 C
1621 26-08-2003 04:46:01 13.3 C 77 % 9.36 C
1622 26-08-2003 04:58:01 13.2 C 77 % 9.26 C
1623 26-08-2003 05:10:01 13.1 C 77 % 9.16 C
1624 26-08-2003 05:22:01 13 C 77 % 9.07 C
1625 26-08-2003 05:34:01 12.9 C 79 % 9.35 C
Sensor: Nr:Datum:Temp:Feuchte:Taupunkt:
Aussen-T/F 1626 26-08-2003 05:46:01 12.5 C 79 % 8.96 C
1627 26-08-2003 05:58:01 12.4 C 79 % 8.86 C
1628 26-08-2003 06:10:01 12.4 C 80 % 9.05 C
1629 26-08-2003 06:22:01 12.3 C 81 % 9.14 C
1630 26-08-2003 06:34:01 12.2 C 80 % 8.86 C
1631 26-08-2003 06:46:01 12.1 C 81 % 8.94 C
1632 26-08-2003 06:58:01 12 C 82 % 9.03 C
1633 26-08-2003 07:10:01 12.1 C 82 % 9.12 C
1634 26-08-2003 07:22:01 12.1 C 81 % 8.94 C
1635 26-08-2003 07:34:01 12.1 C 82 % 9.12 C
1636 26-08-2003 07:46:01 12.1 C 82 % 9.12 C
1637 26-08-2003 07:58:01 12.1 C 82 % 9.12 C
1638 26-08-2003 08:10:01 12.3 C 82 % 9.32 C
1639 26-08-2003 08:22:01 12.6 C 82 % 9.61 C
1640 26-08-2003 08:34:01 12.8 C 81 % 9.62 C
1641 26-08-2003 08:46:01 13.1 C 80 % 9.73 C
1642 26-08-2003 08:58:01 13.4 C 79 % 9.84 C
1643 26-08-2003 09:10:01 13.7 C 79 % 10.13 C
1644 26-08-2003 09:22:01 14.3 C 78 % 10.52 C
1645 26-08-2003 09:34:02 14.8 C 75 % 10.42 C
1646 26-08-2003 09:46:02 15.5 C 71 % 10.27 C
1647 26-08-2003 09:58:02 16.2 C 68 % 10.29 C
1648 26-08-2003 10:10:02 17 C 66 % 10.61 C
1649 26-08-2003 10:22:02 17.5 C 64 % 10.62 C
1650 26-08-2003 10:34:01 18.2 C 61 % 10.56 C
Sensor: Nr:Datum:Temp:Feuchte:Taupunkt:
Aussen-T/F 1651 26-08-2003 10:46:01 18.9 C 58 % 10.46 C
1652 26-08-2003 10:58:01 19.6 C 55 % 10.32 C
1653 26-08-2003 11:10:02 20.4 C 52 % 10.22 C
1654 26-08-2003 11:22:02 20.8 C 47 % 9.08 C
1655 26-08-2003 11:34:01 21.4 C 45 % 8.99 C
1656 26-08-2003 11:46:01 22.3 C 41 % 8.42 C
1657 26-08-2003 11:58:01 22.9 C 42 % 9.32 C
1658 26-08-2003 12:10:01 23.6 C 41 % 9.59 C
1659 26-08-2003 12:22:01 24.1 C 38 % 8.9 C
1660 26-08-2003 12:34:01 24.3 C 37 % 8.69 C
1661 26-08-2003 12:46:01 25.1 C 33 % 7.71 C
1662 26-08-2003 12:58:01 25.6 C 30 % 6.75 C
1663 26-08-2003 13:10:01 25.8 C 29 % 6.43 C
1664 26-08-2003 13:22:01 26.5 C 26 % 5.45 C
1665 26-08-2003 13:34:01 27.1 C 22 % 3.57 C
1666 26-08-2003 13:46:01 26.9 C 23 % 4.03 C
1667 26-08-2003 13:58:01 26.8 C 23 % 3.95 C
1668 26-08-2003 14:10:02 27.7 C 23 % 4.7 C
1669 26-08-2003 14:22:02 28.5 C 21 % 4.07 C
1670 26-08-2003 14:34:01 29 C 21 % 4.48 C
1671 26-08-2003 14:46:01 29.4 C 20 % 4.11 C
1672 26-08-2003 14:58:01 30 C 20 % 4.61 C
1673 26-08-2003 15:10:02 30.4 C 20 % 4.93 C
1674 26-08-2003 15:22:02 30 C 20 % 4.61 C
1675 26-08-2003 15:34:00 28.8 C 20 % 3.62 C
Sensor: Nr:Datum:Temp:Feuchte:Taupunkt:
Aussen-T/F 1676 26-08-2003 15:46:00 30.1 C 20 % 4.69 C
1677 26-08-2003 15:58:00 30.7 C 20 % 5.18 C
1678 26-08-2003 16:10:01 30.8 C 20 % 5.26 C
1679 26-08-2003 16:22:01 30.6 C 20 % 5.1 C
1680 26-08-2003 16:34:01 30.4 C 20 % 4.93 C
1681 26-08-2003 16:46:01 30.9 C 20 % 5.34 C
1682 26-08-2003 16:58:01 30 C 21 % 5.3 C
1683 26-08-2003 17:10:01 30.6 C 20 % 5.1 C
1684 26-08-2003 17:22:01 30.4 C 20 % 4.93 C
1685 26-08-2003 17:34:01 31 C 20 % 5.42 C
1686 26-08-2003 17:46:01 31.2 C 20 % 5.59 C
1687 26-08-2003 17:58:01 30.9 C 21 % 6.05 C
1688 26-08-2003 18:10:02 30.7 C 21 % 5.88 C
1689 26-08-2003 18:22:02 30 C 25 % 7.83 C
1690 26-08-2003 18:34:02 29 C 26 % 7.57 C
1691 26-08-2003 18:46:02 29.5 C 25 % 7.41 C
1692 26-08-2003 18:58:02 29 C 24 % 6.4 C
1693 26-08-2003 19:10:02 28.7 C 25 % 6.74 C
1694 26-08-2003 19:22:02 27.5 C 27 % 6.84 C
1695 26-08-2003 19:34:01 26.9 C 30 % 7.87 C
1696 26-08-2003 19:46:01 26.8 C 30 % 7.78 C
1697 26-08-2003 19:58:01 25.8 C 31 % 7.4 C
1698 26-08-2003 20:10:01 25.2 C 32 % 7.34 C
1699 26-08-2003 20:22:01 24.7 C 34 % 7.8 C
1700 26-08-2003 20:34:00 24.2 C 36 % 8.2 C
Sensor: Nr:Datum:Temp:Feuchte:Taupunkt:
Aussen-T/F 1701 26-08-2003 20:46:00 23.9 C 36 % 7.93 C
1702 26-08-2003 20:58:00 23.4 C 38 % 8.28 C
1703 26-08-2003 21:10:01 22.9 C 41 % 8.96 C
1704 26-08-2003 21:22:01 22.4 C 42 % 8.87 C
1705 26-08-2003 21:34:00 21.9 C 45 % 9.44 C
1706 26-08-2003 21:46:00 21.5 C 46 % 9.4 C
1707 26-08-2003 21:58:00 21 C 47 % 9.27 C
1708 26-08-2003 22:11:02 20.6 C 49 % 9.52 C
1709 26-08-2003 22:23:02 20.5 C 49 % 9.43 C
1710 26-08-2003 22:35:02 20.3 C 50 % 9.54 C
1711 26-08-2003 22:47:02 20.1 C 51 % 9.66 C
1712 26-08-2003 22:59:02 20.1 C 51 % 9.66 C
1713 26-08-2003 23:11:02 19.9 C 53 % 10.04 C
1714 26-08-2003 23:23:02 19.6 C 53 % 9.77 C
1715 26-08-2003 23:35:02 19.5 C 54 % 9.95 C
1716 26-08-2003 23:47:02 19.1 C 55 % 9.86 C
1717 26-08-2003 23:59:02 18.9 C 56 % 9.94 C
1718 27-08-2003 00:11:02 18.7 C 57 % 10.02 C
1719 27-08-2003 00:23:02 18.5 C 58 % 10.09 C
1720 27-08-2003 00:35:02 18.2 C 59 % 10.06 C
1721 27-08-2003 00:47:02 18 C 60 % 10.13 C
1722 27-08-2003 00:59:02 17.8 C 62 % 10.43 C
1723 27-08-2003 01:11:02 18.1 C 61 % 10.47 C
1724 27-08-2003 01:23:02 18.3 C 60 % 10.41 C
1725 27-08-2003 01:35:02 18.3 C 60 % 10.41 C
Sensor: Nr:Datum:Temp:Feuchte:Taupunkt:
Aussen-T/F 1726 27-08-2003 01:47:02 18.1 C 60 % 10.22 C
1727 27-08-2003 01:59:02 17.9 C 61 % 10.28 C
1728 27-08-2003 02:11:02 17.7 C 62 % 10.33 C
1729 27-08-2003 02:23:02 17.5 C 62 % 10.15 C
1730 27-08-2003 02:35:02 17.2 C 63 % 10.1 C
1731 27-08-2003 02:47:02 17.1 C 64 % 10.24 C
1732 27-08-2003 02:59:02 16.8 C 66 % 10.42 C
1733 27-08-2003 03:11:02 16.6 C 67 % 10.45 C
1734 27-08-2003 03:23:02 16.4 C 67 % 10.26 C
1735 27-08-2003 03:35:02 16.2 C 69 % 10.51 C
1736 27-08-2003 03:47:02 16.1 C 69 % 10.42 C
1737 27-08-2003 03:59:02 15.7 C 72 % 10.67 C
1738 27-08-2003 04:11:02 15.5 C 73 % 10.69 C
1739 27-08-2003 04:23:02 15.3 C 73 % 10.49 C
1740 27-08-2003 04:35:02 15.1 C 74 % 10.5 C
1741 27-08-2003 04:47:02 14.8 C 77 % 10.81 C
1742 27-08-2003 04:59:02 14.8 C 77 % 10.81 C
1743 27-08-2003 05:11:02 14.5 C 78 % 10.71 C
1744 27-08-2003 05:23:02 14.3 C 79 % 10.71 C
1745 27-08-2003 05:35:02 14.5 C 78 % 10.71 C
1746 27-08-2003 05:47:02 14.9 C 77 % 10.91 C
1747 27-08-2003 05:59:02 15.1 C 74 % 10.5 C
1748 27-08-2003 06:11:02 15 C 74 % 10.41 C
1749 27-08-2003 06:23:02 15 C 74 % 10.41 C
1750 27-08-2003 06:35:02 14.7 C 76 % 10.52 C
Sensor: Nr:Datum:Temp:Feuchte:Taupunkt:
Aussen-T/F 1751 27-08-2003 06:47:02 15.1 C 74 % 10.5 C
1752 27-08-2003 06:59:02 15.4 C 73 % 10.59 C
1753 27-08-2003 07:11:02 15.2 C 73 % 10.4 C
1754 27-08-2003 07:23:02 15.2 C 73 % 10.4 C
1755 27-08-2003 07:35:02 15.4 C 73 % 10.59 C
1756 27-08-2003 07:47:02 15.4 C 73 % 10.59 C
1757 27-08-2003 07:59:02 15.6 C 72 % 10.57 C
1758 27-08-2003 08:11:02 15.8 C 71 % 10.56 C
1759 27-08-2003 08:23:02 16 C 70 % 10.54 C
1760 27-08-2003 08:35:02 16.2 C 69 % 10.51 C
1761 27-08-2003 08:47:02 16.3 C 69 % 10.61 C
1762 27-08-2003 08:59:02 16.5 C 68 % 10.58 C
1763 27-08-2003 09:11:02 16.8 C 67 % 10.64 C
1764 27-08-2003 09:23:02 16.9 C 67 % 10.74 C
1765 27-08-2003 09:35:01 17.1 C 65 % 10.47 C
1766 27-08-2003 09:47:01 17.2 C 66 % 10.8 C
1767 27-08-2003 09:59:01 17.5 C 65 % 10.85 C
1768 27-08-2003 10:11:01 17.8 C 64 % 10.9 C
1769 27-08-2003 10:23:01 17.6 C 64 % 10.72 C
1770 27-08-2003 10:35:01 17.9 C 64 % 11 C
1771 27-08-2003 10:47:01 17.5 C 65 % 10.85 C
1772 27-08-2003 10:59:01 16 C 74 % 11.37 C
1773 27-08-2003 11:11:00 16.3 C 75 % 11.86 C
1774 27-08-2003 11:23:00 17.3 C 68 % 11.34 C
1775 27-08-2003 11:35:00 17.9 C 63 % 10.76 C
Sensor: Nr:Datum:Temp:Feuchte:Taupunkt:
Aussen-T/F 1776 27-08-2003 11:47:00 18.6 C 60 % 10.69 C
1777 27-08-2003 11:59:00 18.6 C 56 % 9.66 C
1778 27-08-2003 11:59:01 18.6 C 56 % 9.66 C
1779 27-08-2003 12:11:01 18.7 C 56 % 9.75 C
1780 27-08-2003 12:23:01 19.2 C 54 % 9.67 C
1781 27-08-2003 12:35:02 20 C 51 % 9.56 C
1782 27-08-2003 12:47:02 20.4 C 48 % 9.03 C
1783 27-08-2003 12:59:02 20.5 C 48 % 9.12 C
1784 27-08-2003 13:11:01 20 C 47 % 8.35 C
1785 27-08-2003 13:23:01 20.5 C 46 % 8.49 C
1786 27-08-2003 13:35:02 21.1 C 44 % 8.38 C
1787 27-08-2003 13:47:02 21.8 C 45 % 9.35 C
1788 27-08-2003 13:59:02 22 C 40 % 7.79 C
1789 27-08-2003 14:11:01 21.7 C 40 % 7.52 C
1790 27-08-2003 14:23:01 21.4 C 40 % 7.25 C
1791 27-08-2003 14:35:01 21.5 C 40 % 7.34 C
1792 27-08-2003 14:47:01 21.9 C 41 % 8.06 C
1793 27-08-2003 14:59:01 21.1 C 40 % 6.99 C
1794 27-08-2003 15:11:01 21.7 C 41 % 7.88 C
1795 27-08-2003 15:23:01 22.8 C 38 % 7.75 C
1796 27-08-2003 15:35:02 22.8 C 38 % 7.75 C
1797 27-08-2003 15:47:02 22.2 C 40 % 7.97 C
1798 27-08-2003 15:59:02 21.9 C 41 % 8.06 C
1799 27-08-2003 16:11:00 21.8 C 41 % 7.97 C
1800 27-08-2003 16:23:00 21.6 C 42 % 8.15 C
Sensor: Nr:Datum:Temp:Feuchte:Taupunkt:
Aussen-T/F 1801 27-08-2003 16:35:01 21.7 C 41 % 7.88 C
1802 27-08-2003 16:47:01 21.8 C 41 % 7.97 C
1803 27-08-2003 16:59:01 22 C 40 % 7.79 C
1804 27-08-2003 17:11:01 21.6 C 40 % 7.43 C
1805 27-08-2003 17:23:01 21.9 C 41 % 8.06 C
1806 27-08-2003 17:35:04 21.1 C 42 % 7.7 C
1807 27-08-2003 17:47:04 21.4 C 41 % 7.62 C
1808 27-08-2003 17:59:04 21.6 C 42 % 8.15 C
1809 27-08-2003 18:11:04 21.6 C 42 % 8.15 C
1810 27-08-2003 18:23:04 21.4 C 43 % 8.31 C
1811 27-08-2003 18:35:02 21.4 C 43 % 8.31 C
1812 27-08-2003 18:47:02 20.9 C 45 % 8.53 C
1813 27-08-2003 18:59:02 20.6 C 46 % 8.58 C
1814 27-08-2003 19:11:03 20.1 C 47 % 8.45 C
1815 27-08-2003 19:23:03 20.1 C 48 % 8.76 C
1816 27-08-2003 19:35:01 19.8 C 49 % 8.79 C
1817 27-08-2003 19:47:01 19.4 C 50 % 8.72 C
1818 27-08-2003 19:59:01 18.9 C 52 % 8.84 C
1819 27-08-2003 20:11:00 18.6 C 53 % 8.84 C
1820 27-08-2003 20:23:00 18.5 C 54 % 9.03 C
1821 27-08-2003 20:35:01 18.5 C 55 % 9.3 C
1822 27-08-2003 20:47:01 18.5 C 55 % 9.3 C
1823 27-08-2003 20:59:01 18.5 C 55 % 9.3 C
1824 27-08-2003 21:12:00 18.4 C 56 % 9.47 C
1825 27-08-2003 21:24:00 18.3 C 56 % 9.38 C
Sensor: Nr:Datum:Temp:Feuchte:Taupunkt:
Aussen-T/F 1826 27-08-2003 21:36:00 18 C 57 % 9.36 C
1827 27-08-2003 21:48:00 17.7 C 60 % 9.84 C
1828 27-08-2003 22:00:00 17.2 C 60 % 9.37 C
1829 27-08-2003 22:12:00 16.9 C 62 % 9.58 C
1830 27-08-2003 22:24:00 16.4 C 63 % 9.35 C
1831 27-08-2003 22:36:00 16.2 C 64 % 9.39 C
1832 27-08-2003 22:48:00 16 C 65 % 9.43 C
1833 27-08-2003 23:00:00 15.7 C 67 % 9.6 C
1834 27-08-2003 23:12:00 15.6 C 67 % 9.5 C
1835 27-08-2003 23:24:00 15.5 C 68 % 9.63 C
1836 27-08-2003 23:36:00 15.3 C 68 % 9.43 C
1837 27-08-2003 23:48:00 15.2 C 68 % 9.34 C
1838 28-08-2003 00:00:00 15 C 69 % 9.36 C
1839 28-08-2003 00:12:00 14.9 C 70 % 9.48 C
1840 28-08-2003 00:24:00 14.6 C 70 % 9.2 C
1841 28-08-2003 00:36:00 14.4 C 72 % 9.42 C
1842 28-08-2003 00:48:00 14.3 C 73 % 9.53 C
1843 28-08-2003 01:00:00 14.1 C 72 % 9.13 C
1844 28-08-2003 01:12:00 13.8 C 73 % 9.05 C
1845 28-08-2003 01:24:00 13.7 C 74 % 9.15 C
1846 28-08-2003 01:36:00 13.5 C 75 % 9.16 C
1847 28-08-2003 01:48:00 13.4 C 76 % 9.26 C
1848 28-08-2003 02:00:00 13.3 C 78 % 9.55 C
1849 28-08-2003 02:12:00 13.2 C 78 % 9.45 C
1850 28-08-2003 02:24:00 13.1 C 79 % 9.54 C
Sensor: Nr:Datum:Temp:Feuchte:Taupunkt:
Aussen-T/F 1851 28-08-2003 02:36:00 12.9 C 80 % 9.54 C
1852 28-08-2003 02:48:00 12.8 C 80 % 9.44 C
1853 28-08-2003 03:00:00 12.7 C 81 % 9.53 C
1854 28-08-2003 03:12:00 12.5 C 81 % 9.33 C
1855 28-08-2003 03:24:00 12.4 C 82 % 9.42 C
1856 28-08-2003 03:36:00 12.3 C 82 % 9.32 C
1857 28-08-2003 03:48:00 12.2 C 82 % 9.22 C
1858 28-08-2003 04:00:00 12 C 82 % 9.03 C
1859 28-08-2003 04:12:00 11.9 C 83 % 9.11 C
1860 28-08-2003 04:24:00 11.7 C 84 % 9.09 C
1861 28-08-2003 04:36:00 11.8 C 84 % 9.19 C
1862 28-08-2003 04:48:00 11.7 C 85 % 9.27 C
1863 28-08-2003 05:00:00 11.6 C 86 % 9.34 C
1864 28-08-2003 05:12:00 11.5 C 86 % 9.24 C
1865 28-08-2003 05:24:00 11.4 C 86 % 9.14 C
1866 28-08-2003 05:36:00 11.3 C 85 % 8.87 C
1867 28-08-2003 05:48:00 11.2 C 86 % 8.95 C
1868 28-08-2003 06:00:00 11.1 C 87 % 9.02 C
1869 28-08-2003 06:12:00 11 C 87 % 8.92 C
1870 28-08-2003 06:24:00 10.9 C 87 % 8.82 C
1871 28-08-2003 06:36:00 11.3 C 87 % 9.22 C
1872 28-08-2003 06:48:00 11.5 C 86 % 9.24 C
1873 28-08-2003 07:00:00 11.5 C 85 % 9.07 C
1874 28-08-2003 07:12:00 11.5 C 85 % 9.07 C
1875 28-08-2003 07:24:00 11.5 C 85 % 9.07 C
Sensor: Nr:Datum:Temp:Feuchte:Taupunkt:
Aussen-T/F 1876 28-08-2003 07:36:00 12 C 84 % 9.38 C
1877 28-08-2003 07:48:00 12.1 C 83 % 9.3 C
1878 28-08-2003 08:00:00 12.5 C 81 % 9.33 C
1879 28-08-2003 08:12:01 12.6 C 80 % 9.25 C
1880 28-08-2003 08:24:01 12.6 C 80 % 9.25 C
1881 28-08-2003 08:36:00 12.6 C 81 % 9.43 C
1882 28-08-2003 08:48:00 12.7 C 81 % 9.53 C
1883 28-08-2003 09:00:00 13 C 79 % 9.45 C
1884 28-08-2003 09:12:01 13.2 C 79 % 9.64 C
1885 28-08-2003 09:24:01 13.6 C 79 % 10.03 C
1886 28-08-2003 09:36:00 14.1 C 77 % 10.13 C
1887 28-08-2003 09:48:00 14.6 C 76 % 10.42 C
1888 28-08-2003 10:00:00 15.2 C 74 % 10.6 C
1889 28-08-2003 10:12:00 15.8 C 72 % 10.77 C
1890 28-08-2003 10:24:00 16.4 C 69 % 10.7 C
1891 28-08-2003 10:36:01 17.2 C 65 % 10.57 C
1892 28-08-2003 10:48:01 18 C 61 % 10.37 C
1893 28-08-2003 11:00:01 18.5 C 56 % 9.57 C
1894 28-08-2003 11:12:01 19 C 54 % 9.49 C
1895 28-08-2003 11:24:01 19.5 C 52 % 9.39 C
1896 28-08-2003 11:36:01 19.9 C 52 % 9.76 C
1897 28-08-2003 11:48:01 21.1 C 47 % 9.36 C
1898 28-08-2003 12:00:01 21.9 C 47 % 10.09 C
1899 28-08-2003 12:12:02 22.3 C 45 % 9.8 C
1900 28-08-2003 12:24:02 22.9 C 43 % 9.67 C
Sensor: Nr:Datum:Temp:Feuchte:Taupunkt:
Aussen-T/F 1901 28-08-2003 12:36:01 23.6 C 40 % 9.22 C
1902 28-08-2003 12:48:01 23.4 C 39 % 8.67 C
1903 28-08-2003 13:00:01 23.7 C 40 % 9.31 C
1904 28-08-2003 13:12:02 24.1 C 36 % 8.11 C
1905 28-08-2003 13:24:02 25.2 C 33 % 7.79 C
1906 28-08-2003 13:36:01 26 C 33 % 8.49 C
1907 28-08-2003 13:48:01 26.7 C 32 % 8.65 C
1908 28-08-2003 14:00:01 27.3 C 31 % 8.7 C
1909 28-08-2003 14:12:00 27.2 C 30 % 8.13 C
1910 28-08-2003 14:24:00 26.6 C 31 % 8.09 C
1911 28-08-2003 14:36:01 27.1 C 30 % 8.04 C
1912 28-08-2003 14:48:01 27.1 C 30 % 8.04 C
1913 28-08-2003 15:00:01 27.2 C 30 % 8.13 C
1914 28-08-2003 15:12:01 27.3 C 30 % 8.21 C
1915 28-08-2003 15:24:01 27.6 C 30 % 8.47 C
1916 28-08-2003 15:36:00 27.8 C 29 % 8.15 C
1917 28-08-2003 15:48:00 27.6 C 30 % 8.47 C
1918 28-08-2003 16:00:00 28.1 C 29 % 8.4 C
1919 28-08-2003 16:12:00 28.4 C 29 % 8.66 C
1920 28-08-2003 16:24:00 28.3 C 29 % 8.57 C
1921 28-08-2003 16:36:29 28.7 C 30 % 9.42 C
1922 28-08-2003 16:48:29 28.7 C 29 % 8.92 C
1923 28-08-2003 17:00:01 28.7 C 29 % 8.92 C
1924 28-08-2003 17:12:02 29.5 C 28 % 9.08 C
1925 28-08-2003 17:24:02 29.3 C 28 % 8.91 C
Sensor: Nr:Datum:Temp:Feuchte:Taupunkt:
Aussen-T/F 1926 28-08-2003 17:36:01 29.2 C 29 % 9.34 C
1927 28-08-2003 17:48:01 29 C 30 % 9.68 C
1928 28-08-2003 18:00:01 29.2 C 30 % 9.85 C
1929 28-08-2003 18:12:01 28.6 C 31 % 9.82 C
1930 28-08-2003 18:24:01 27.7 C 35 % 10.85 C
1931 28-08-2003 18:36:01 27.2 C 35 % 10.42 C
1932 28-08-2003 18:48:01 26.7 C 37 % 10.81 C
1933 28-08-2003 19:00:01 26.2 C 38 % 10.77 C
1934 28-08-2003 19:12:01 25.6 C 41 % 11.38 C
1935 28-08-2003 19:24:01 25.2 C 42 % 11.38 C
1936 28-08-2003 19:36:01 24.5 C 41 % 10.39 C
1937 28-08-2003 19:48:01 22.9 C 52 % 12.53 C
1938 28-08-2003 20:00:01 20.7 C 60 % 12.66 C
1939 28-08-2003 20:12:01 20.7 C 60 % 12.66 C
1940 28-08-2003 20:24:01 20.5 C 62 % 12.97 C
1941 28-08-2003 20:36:01 20.4 C 62 % 12.88 C
1942 28-08-2003 20:48:01 20.4 C 63 % 13.12 C
1943 28-08-2003 21:00:01 19.9 C 73 % 14.92 C
1944 28-08-2003 21:12:02 18.2 C 83 % 15.27 C
1945 28-08-2003 21:24:02 17.7 C 89 % 15.86 C
1946 28-08-2003 21:37:01 17.4 C 90 % 15.74 C
1947 28-08-2003 21:49:01 17.5 C 91 % 16.01 C
1948 28-08-2003 22:01:01 17.5 C 91 % 16.01 C
1949 28-08-2003 22:13:01 17.6 C 91 % 16.11 C
1950 28-08-2003 22:25:01 17.5 C 90 % 15.84 C
Sensor: Nr:Datum:Temp:Feuchte:Taupunkt:
Aussen-T/F 1951 28-08-2003 22:37:01 17.5 C 90 % 15.84 C
1952 28-08-2003 22:49:01 17.6 C 89 % 15.77 C
1953 28-08-2003 23:01:01 17.5 C 89 % 15.67 C
1954 28-08-2003 23:13:01 17.5 C 89 % 15.67 C
1955 28-08-2003 23:25:01 17.5 C 88 % 15.49 C
1956 28-08-2003 23:37:01 17.6 C 88 % 15.59 C
1957 28-08-2003 23:49:01 17.4 C 87 % 15.21 C
1958 29-08-2003 00:01:01 17.5 C 88 % 15.49 C
1959 29-08-2003 00:13:01 17.3 C 87 % 15.12 C
1960 29-08-2003 00:25:01 17.5 C 88 % 15.49 C
1961 29-08-2003 00:37:01 17.3 C 89 % 15.47 C
1962 29-08-2003 00:49:01 17.2 C 90 % 15.55 C
1963 29-08-2003 01:01:01 17 C 90 % 15.35 C
1964 29-08-2003 01:13:01 17.1 C 92 % 15.79 C
1965 29-08-2003 01:25:01 17.1 C 92 % 15.79 C
1966 29-08-2003 01:37:01 17 C 92 % 15.69 C
1967 29-08-2003 01:49:01 17 C 93 % 15.86 C
1968 29-08-2003 02:01:01 17 C 93 % 15.86 C
1969 29-08-2003 02:13:01 17 C 93 % 15.86 C
1970 29-08-2003 02:25:01 17 C 93 % 15.86 C
1971 29-08-2003 02:37:01 17 C 93 % 15.86 C
1972 29-08-2003 02:49:01 16.8 C 94 % 15.83 C
1973 29-08-2003 03:01:01 16.8 C 94 % 15.83 C
1974 29-08-2003 03:13:01 16.8 C 94 % 15.83 C
1975 29-08-2003 03:25:01 16.8 C 94 % 15.83 C
Sensor: Nr:Datum:Temp:Feuchte:Taupunkt:
Aussen-T/F 1976 29-08-2003 03:37:01 16.7 C 94 % 15.73 C
1977 29-08-2003 03:49:01 16.7 C 94 % 15.73 C
1978 29-08-2003 04:01:01 16.8 C 94 % 15.83 C
1979 29-08-2003 04:13:01 16.6 C 94 % 15.63 C
1980 29-08-2003 04:25:01 16.7 C 94 % 15.73 C
1981 29-08-2003 04:37:01 16.7 C 94 % 15.73 C
1982 29-08-2003 04:49:01 16.6 C 94 % 15.63 C
1983 29-08-2003 05:01:01 16.6 C 94 % 15.63 C
1984 29-08-2003 05:13:01 16.4 C 94 % 15.43 C
1985 29-08-2003 05:25:01 16.2 C 94 % 15.23 C
1986 29-08-2003 05:37:01 16.2 C 94 % 15.23 C
1987 29-08-2003 05:49:01 16.3 C 94 % 15.33 C
1988 29-08-2003 06:01:01 16.5 C 94 % 15.53 C
1989 29-08-2003 06:13:01 16.7 C 94 % 15.73 C
1990 29-08-2003 06:25:01 16.7 C 95 % 15.9 C
1991 29-08-2003 06:37:01 16.7 C 95 % 15.9 C
1992 29-08-2003 06:49:01 16.8 C 95 % 15.99 C
1993 29-08-2003 07:01:01 16.9 C 95 % 16.09 C
1994 29-08-2003 07:13:01 16.9 C 94 % 15.93 C
1995 29-08-2003 07:25:01 17.1 C 94 % 16.13 C
1996 29-08-2003 07:37:01 17.2 C 94 % 16.23 C
1997 29-08-2003 07:49:01 17.5 C 93 % 16.36 C
1998 29-08-2003 08:01:01 17.9 C 92 % 16.58 C
1999 29-08-2003 08:13:01 18.3 C 87 % 16.1 C
2000 29-08-2003 08:25:01 18.7 C 84 % 15.94 C
Sensor: Nr:Datum:Temp:Feuchte:Taupunkt:
Aussen-T/F 2001 29-08-2003 08:37:01 19 C 84 % 16.24 C
2002 29-08-2003 08:49:01 19.3 C 85 % 16.72 C
2003 29-08-2003 09:01:01 19.4 C 83 % 16.44 C
2004 29-08-2003 09:13:01 19.7 C 83 % 16.73 C
2005 29-08-2003 09:25:01 19.7 C 83 % 16.73 C
2006 29-08-2003 09:37:01 19.8 C 79 % 16.05 C
2007 29-08-2003 09:49:01 20.1 C 77 % 15.94 C
2008 29-08-2003 10:01:01 20.4 C 74 % 15.61 C
2009 29-08-2003 10:13:01 20.1 C 75 % 15.53 C
2010 29-08-2003 10:25:01 19.9 C 76 % 15.54 C
2011 29-08-2003 10:37:01 19.7 C 77 % 15.56 C
2012 29-08-2003 10:49:01 18.9 C 83 % 15.95 C
2013 29-08-2003 11:01:01 18.7 C 87 % 16.49 C
2014 29-08-2003 11:13:00 19 C 87 % 16.79 C
2015 29-08-2003 11:25:00 19.2 C 86 % 16.8 C
2016 29-08-2003 11:37:01 19.5 C 84 % 16.72 C
2017 29-08-2003 11:49:01 19.4 C 82 % 16.25 C
2018 29-08-2003 12:01:01 19 C 83 % 16.05 C
2019 29-08-2003 12:13:02 18.9 C 85 % 16.32 C
2020 29-08-2003 12:25:02 19 C 83 % 16.05 C
2021 29-08-2003 12:37:01 18.6 C 82 % 15.47 C
2022 29-08-2003 12:49:01 17.8 C 85 % 15.25 C
2023 29-08-2003 13:01:01 17.2 C 88 % 15.2 C
2024 29-08-2003 13:13:02 17.5 C 88 % 15.49 C
2025 29-08-2003 13:25:02 19.5 C 86 % 17.1 C
Sensor: Nr:Datum:Temp:Feuchte:Taupunkt:
Aussen-T/F 2026 29-08-2003 13:37:01 20.4 C 77 % 16.23 C
2027 29-08-2003 13:49:01 20.5 C 74 % 15.71 C
2028 29-08-2003 14:01:01 20.9 C 72 % 15.66 C
2029 29-08-2003 14:13:02 19.4 C 75 % 14.86 C
2030 29-08-2003 14:25:02 18.5 C 76 % 14.19 C
2031 29-08-2003 14:37:01 18.6 C 77 % 14.49 C
2032 29-08-2003 14:49:01 19.4 C 71 % 14.01 C
2033 29-08-2003 15:01:01 20.2 C 67 % 13.88 C
2034 29-08-2003 15:13:01 20.6 C 65 % 13.79 C
2035 29-08-2003 15:25:01 21.1 C 63 % 13.79 C
2036 29-08-2003 15:37:01 21.6 C 58 % 12.99 C
2037 29-08-2003 15:49:01 21.5 C 57 % 12.63 C
2038 29-08-2003 16:01:01 21.3 C 55 % 11.9 C
2039 29-08-2003 16:13:01 21.1 C 56 % 11.99 C
2040 29-08-2003 16:25:01 21.8 C 54 % 12.08 C
2041 29-08-2003 16:37:00 22.2 C 51 % 11.59 C
2042 29-08-2003 16:49:00 22.1 C 52 % 11.79 C
2043 29-08-2003 17:01:00 21.2 C 57 % 12.35 C
2044 29-08-2003 17:13:01 19 C 66 % 12.51 C
2045 29-08-2003 17:25:01 17.7 C 70 % 12.16 C
2046 29-08-2003 17:37:22 15.8 C 84 % 13.1 C
2047 29-08-2003 17:49:02 15.5 C 89 % 13.7 C
2048 29-08-2003 18:01:02 15 C 89 % 13.2 C
2049 29-08-2003 18:13:01 14.9 C 90 % 13.28 C
2050 29-08-2003 18:25:01 14.7 C 89 % 12.91 C
Sensor: Nr:Datum:Temp:Feuchte:Taupunkt:
Aussen-T/F 2051 29-08-2003 18:37:01 14.5 C 90 % 12.88 C
2052 29-08-2003 18:49:01 14.4 C 89 % 12.61 C
2053 29-08-2003 19:01:01 14.7 C 88 % 12.73 C
2054 29-08-2003 19:13:54 14.7 C 86 % 12.38 C
2055 29-08-2003 19:25:02 14.7 C 86 % 12.38 C
2056 29-08-2003 19:37:01 14.6 C 86 % 12.29 C
2057 29-08-2003 19:49:01 14.6 C 85 % 12.11 C
2058 29-08-2003 20:01:01 14.6 C 86 % 12.29 C
2059 29-08-2003 20:13:01 14.5 C 85 % 12.01 C
2060 29-08-2003 20:25:01 14.5 C 85 % 12.01 C
2061 29-08-2003 20:37:01 14.4 C 86 % 12.09 C
2062 29-08-2003 20:49:01 14.5 C 85 % 12.01 C
2063 29-08-2003 21:01:01 14.5 C 84 % 11.83 C
2064 29-08-2003 21:13:01 14.5 C 84 % 11.83 C
2065 29-08-2003 21:25:01 14.5 C 84 % 11.83 C
2066 29-08-2003 21:37:02 14.4 C 86 % 12.09 C
2067 29-08-2003 21:49:02 14 C 88 % 12.05 C
2068 29-08-2003 22:01:02 13.9 C 89 % 12.12 C
2069 29-08-2003 22:14:05 13.9 C 89 % 12.12 C
2070 29-08-2003 22:26:05 14 C 88 % 12.05 C
2071 29-08-2003 22:38:05 14 C 88 % 12.05 C
2072 29-08-2003 22:50:05 14.3 C 88 % 12.34 C
2073 29-08-2003 23:02:05 13.9 C 89 % 12.12 C
2074 29-08-2003 23:14:05 14.1 C 88 % 12.14 C
2075 29-08-2003 23:26:05 14.2 C 85 % 11.72 C
Sensor: Nr:Datum:Temp:Feuchte:Taupunkt:
Aussen-T/F 2076 29-08-2003 23:38:05 14.2 C 84 % 11.54 C
2077 29-08-2003 23:50:05 14.2 C 84 % 11.54 C
2078 30-08-2003 00:02:05 14.2 C 84 % 11.54 C
2079 30-08-2003 00:14:05 14.2 C 84 % 11.54 C
2080 30-08-2003 00:26:05 14.2 C 83 % 11.36 C
2081 30-08-2003 00:38:05 14.2 C 82 % 11.17 C
2082 30-08-2003 00:50:05 14.2 C 82 % 11.17 C
2083 30-08-2003 01:02:05 14.3 C 84 % 11.64 C
2084 30-08-2003 01:14:05 14.3 C 83 % 11.45 C
2085 30-08-2003 01:26:05 14.3 C 83 % 11.45 C
2086 30-08-2003 01:38:05 13.8 C 84 % 11.15 C
2087 30-08-2003 01:50:05 13.5 C 85 % 11.03 C
2088 30-08-2003 02:02:05 13.5 C 86 % 11.21 C
2089 30-08-2003 02:14:05 13.4 C 86 % 11.11 C
2090 30-08-2003 02:26:05 13.5 C 86 % 11.21 C
2091 30-08-2003 02:38:05 13.7 C 86 % 11.4 C
2092 30-08-2003 02:50:05 13.7 C 86 % 11.4 C
2093 30-08-2003 03:02:05 13.6 C 86 % 11.3 C
2094 30-08-2003 03:14:05 13.6 C 86 % 11.3 C
2095 30-08-2003 03:26:05 13.6 C 85 % 11.13 C
2096 30-08-2003 03:38:05 13.6 C 84 % 10.95 C
2097 30-08-2003 03:50:05 13.7 C 83 % 10.87 C
2098 30-08-2003 04:02:05 13.6 C 84 % 10.95 C
2099 30-08-2003 04:14:05 13.6 C 84 % 10.95 C
2100 30-08-2003 04:26:05 13.6 C 84 % 10.95 C
Sensor: Nr:Datum:Temp:Feuchte:Taupunkt:
Aussen-T/F 2101 30-08-2003 04:38:05 13.7 C 84 % 11.05 C
2102 30-08-2003 04:50:05 13.7 C 84 % 11.05 C
2103 30-08-2003 05:02:05 13.7 C 83 % 10.87 C
2104 30-08-2003 05:14:05 13.7 C 84 % 11.05 C
2105 30-08-2003 05:26:05 13.6 C 85 % 11.13 C
2106 30-08-2003 05:38:05 13.6 C 86 % 11.3 C
2107 30-08-2003 05:50:05 13.6 C 86 % 11.3 C
2108 30-08-2003 06:02:05 13.5 C 87 % 11.38 C
2109 30-08-2003 06:14:05 13.4 C 87 % 11.28 C
2110 30-08-2003 06:26:05 13.4 C 88 % 11.45 C
2111 30-08-2003 06:38:05 13.2 C 88 % 11.26 C
2112 30-08-2003 06:50:05 13.2 C 89 % 11.43 C
2113 30-08-2003 07:02:05 13.2 C 90 % 11.6 C
2114 30-08-2003 07:14:05 13.2 C 90 % 11.6 C
2115 30-08-2003 07:26:05 13.2 C 91 % 11.76 C
2116 30-08-2003 07:38:05 13.3 C 91 % 11.86 C
2117 30-08-2003 07:50:05 13.2 C 91 % 11.76 C
2118 30-08-2003 08:02:05 13.3 C 92 % 12.03 C
2119 30-08-2003 08:14:05 13.3 C 92 % 12.03 C
2120 30-08-2003 08:26:05 13.4 C 92 % 12.13 C
2121 30-08-2003 08:38:05 13.4 C 92 % 12.13 C
2122 30-08-2003 08:50:05 13.6 C 93 % 12.49 C
2123 30-08-2003 09:02:05 13.6 C 93 % 12.49 C
2124 30-08-2003 09:14:05 13.7 C 93 % 12.59 C
2125 30-08-2003 09:26:05 13.6 C 93 % 12.49 C
Sensor: Nr:Datum:Temp:Feuchte:Taupunkt:
Aussen-T/F 2126 30-08-2003 09:38:01 13.6 C 93 % 12.49 C
2127 30-08-2003 09:50:01 13.6 C 93 % 12.49 C
2128 30-08-2003 10:02:02 13.6 C 93 % 12.49 C
2129 30-08-2003 10:14:02 13.7 C 93 % 12.59 C
2130 30-08-2003 10:26:02 13.9 C 93 % 12.79 C
2131 30-08-2003 10:38:00 14.3 C 93 % 13.18 C
2132 30-08-2003 10:50:00 14.2 C 92 % 12.92 C
2133 30-08-2003 11:02:00 14.4 C 89 % 12.61 C
2134 30-08-2003 11:14:00 14.6 C 87 % 12.46 C
2135 30-08-2003 11:26:00 15 C 83 % 12.14 C
2136 30-08-2003 11:38:01 15.3 C 80 % 11.87 C
2137 30-08-2003 11:50:01 15.1 C 79 % 11.49 C
2138 30-08-2003 12:02:01 15 C 78 % 11.2 C
2139 30-08-2003 12:14:01 14.5 C 82 % 11.47 C
2140 30-08-2003 12:26:01 13.8 C 80 % 10.41 C
2141 30-08-2003 12:38:00 13.7 C 82 % 10.69 C
2142 30-08-2003 12:50:00 14.1 C 84 % 11.44 C
2143 30-08-2003 13:02:01 14.4 C 80 % 11 C
2144 30-08-2003 13:14:01 15.2 C 81 % 11.96 C
2145 30-08-2003 13:26:01 16.9 C 73 % 12.03 C
2146 30-08-2003 13:38:01 17.9 C 70 % 12.35 C
2147 30-08-2003 13:50:01 19 C 64 % 12.04 C
2148 30-08-2003 14:02:01 18.9 C 64 % 11.95 C
2149 30-08-2003 14:14:01 19.6 C 62 % 12.13 C
2150 30-08-2003 14:26:01 19.5 C 58 % 11.02 C
Sensor: Nr:Datum:Temp:Feuchte:Taupunkt:
Aussen-T/F 2151 30-08-2003 14:38:01 19.9 C 57 % 11.14 C
2152 30-08-2003 14:50:01 19 C 55 % 9.76 C
2153 30-08-2003 15:02:08 18.6 C 61 % 10.94 C
2154 30-08-2003 15:14:08 18.1 C 65 % 11.42 C
2155 30-08-2003 15:26:08 18.5 C 64 % 11.57 C
2156 30-08-2003 15:38:01 18.7 C 64 % 11.76 C
2157 30-08-2003 15:50:01 20.4 C 57 % 11.6 C
2158 30-08-2003 16:02:00 21.5 C 53 % 11.52 C
2159 30-08-2003 16:14:00 22.5 C 43 % 9.31 C
2160 30-08-2003 16:26:00 21.9 C 45 % 9.44 C
2161 30-08-2003 16:38:02 21.2 C 48 % 9.76 C
2162 30-08-2003 16:50:02 20.4 C 53 % 10.51 C
2163 30-08-2003 17:02:58 19.5 C 56 % 10.5 C
2164 30-08-2003 17:14:58 18.9 C 58 % 10.46 C
2165 30-08-2003 17:26:02 17 C 72 % 11.92 C
2166 30-08-2003 17:38:44 15.7 C 84 % 13.01 C
2167 30-08-2003 17:50:44 15.2 C 87 % 13.05 C
2168 30-08-2003 18:02:37 15.1 C 89 % 13.3 C
2169 30-08-2003 18:14:01 15.4 C 89 % 13.6 C
2170 30-08-2003 18:26:01 15.6 C 89 % 13.79 C
2171 30-08-2003 18:38:01 15.6 C 86 % 13.27 C
2172 30-08-2003 18:50:01 15.3 C 86 % 12.97 C
2173 30-08-2003 19:02:01 15.3 C 86 % 12.97 C
2174 30-08-2003 19:14:01 15.3 C 83 % 12.43 C
2175 30-08-2003 19:26:01 14.9 C 84 % 12.22 C
Sensor: Nr:Datum:Temp:Feuchte:Taupunkt:
Aussen-T/F 2176 30-08-2003 19:38:01 14.5 C 86 % 12.19 C
2177 30-08-2003 19:50:01 14.5 C 88 % 12.54 C
2178 30-08-2003 20:02:00 14.5 C 88 % 12.54 C
2179 30-08-2003 20:14:00 14.5 C 88 % 12.54 C
2180 30-08-2003 20:26:00 14.5 C 87 % 12.36 C
2181 30-08-2003 20:38:00 14.3 C 86 % 11.99 C
2182 30-08-2003 20:50:00 14.1 C 87 % 11.97 C
2183 30-08-2003 21:02:01 13.9 C 88 % 11.95 C
2184 30-08-2003 21:14:01 13.9 C 89 % 12.12 C
2185 30-08-2003 21:26:01 14 C 88 % 12.05 C
2186 30-08-2003 21:39:03 13.8 C 89 % 12.02 C
2187 30-08-2003 21:51:03 13.7 C 88 % 11.75 C
2188 30-08-2003 22:03:03 13.6 C 88 % 11.65 C
2189 30-08-2003 22:15:03 13.4 C 88 % 11.45 C
2190 30-08-2003 22:27:03 13.5 C 89 % 11.72 C
2191 30-08-2003 22:39:03 13.5 C 88 % 11.55 C
2192 30-08-2003 22:51:03 13.5 C 87 % 11.38 C
2193 30-08-2003 23:03:03 13.4 C 87 % 11.28 C
2194 30-08-2003 23:15:03 13.1 C 87 % 10.99 C
2195 30-08-2003 23:27:03 13.2 C 85 % 10.74 C
2196 30-08-2003 23:39:03 13.2 C 85 % 10.74 C
2197 30-08-2003 23:51:03 13 C 86 % 10.72 C
2198 31-08-2003 00:03:03 13 C 84 % 10.36 C
2199 31-08-2003 00:15:03 12.7 C 87 % 10.59 C
2200 31-08-2003 00:27:03 12.6 C 87 % 10.5 C
Sensor: Nr:Datum:Temp:Feuchte:Taupunkt:
Aussen-T/F 2201 31-08-2003 00:39:03 12.5 C 87 % 10.4 C
2202 31-08-2003 00:51:03 12.4 C 88 % 10.47 C
2203 31-08-2003 01:03:03 12.2 C 88 % 10.27 C
2204 31-08-2003 01:15:03 12.1 C 89 % 10.34 C
2205 31-08-2003 01:27:03 11.9 C 89 % 10.15 C
2206 31-08-2003 01:39:03 11.7 C 90 % 10.12 C
2207 31-08-2003 01:51:03 11.5 C 90 % 9.92 C
2208 31-08-2003 02:03:03 11.4 C 90 % 9.82 C
2209 31-08-2003 02:15:03 11.2 C 90 % 9.62 C
2210 31-08-2003 02:27:03 11.1 C 91 % 9.69 C
2211 31-08-2003 02:39:03 11 C 91 % 9.59 C
2212 31-08-2003 02:51:03 10.9 C 92 % 9.65 C
2213 31-08-2003 03:03:03 10.8 C 91 % 9.39 C
2214 31-08-2003 03:15:03 10.8 C 92 % 9.55 C
2215 31-08-2003 03:27:03 10.9 C 92 % 9.65 C
2216 31-08-2003 03:39:03 10.9 C 92 % 9.65 C
2217 31-08-2003 03:51:03 11 C 92 % 9.75 C
2218 31-08-2003 04:03:03 10.9 C 92 % 9.65 C
2219 31-08-2003 04:15:03 10.8 C 92 % 9.55 C
2220 31-08-2003 04:27:03 11 C 90 % 9.42 C
2221 31-08-2003 04:39:03 10.8 C 90 % 9.23 C
2222 31-08-2003 04:51:03 10.6 C 90 % 9.03 C
2223 31-08-2003 05:03:03 10.6 C 91 % 9.19 C
2224 31-08-2003 05:15:03 10.8 C 91 % 9.39 C
2225 31-08-2003 05:27:03 10.7 C 90 % 9.13 C
Sensor: Nr:Datum:Temp:Feuchte:Taupunkt:
Aussen-T/F 2226 31-08-2003 05:39:03 10.8 C 90 % 9.23 C
2227 31-08-2003 05:51:03 11 C 89 % 9.26 C
2228 31-08-2003 06:03:03 11 C 89 % 9.26 C
2229 31-08-2003 06:15:03 10.8 C 89 % 9.06 C
2230 31-08-2003 06:27:03 10.4 C 89 % 8.67 C
2231 31-08-2003 06:39:03 10.4 C 89 % 8.67 C
2232 31-08-2003 06:51:03 10.5 C 90 % 8.93 C
2233 31-08-2003 07:03:03 10.6 C 89 % 8.86 C
2234 31-08-2003 07:15:03 10.7 C 88 % 8.8 C
2235 31-08-2003 07:27:03 10.8 C 88 % 8.89 C
2236 31-08-2003 07:39:03 11.1 C 86 % 8.85 C
2237 31-08-2003 07:51:03 11.3 C 84 % 8.7 C
2238 31-08-2003 08:03:03 11.3 C 84 % 8.7 C
2239 31-08-2003 08:15:03 11.4 C 84 % 8.8 C
2240 31-08-2003 08:27:03 11.7 C 83 % 8.91 C
2241 31-08-2003 08:39:03 12 C 80 % 8.66 C
2242 31-08-2003 08:51:03 12 C 81 % 8.84 C
2243 31-08-2003 09:03:03 12 C 81 % 8.84 C
2244 31-08-2003 09:15:03 12.1 C 81 % 8.94 C
2245 31-08-2003 09:27:03 12.2 C 79 % 8.67 C
2246 31-08-2003 09:39:03 12.6 C 78 % 8.87 C
2247 31-08-2003 09:51:03 13.1 C 76 % 8.97 C
2248 31-08-2003 10:03:03 13.8 C 73 % 9.05 C
2249 31-08-2003 10:15:03 14.2 C 72 % 9.23 C
2250 31-08-2003 10:27:03 14.6 C 69 % 8.98 C
Sensor: Nr:Datum:Temp:Feuchte:Taupunkt:
Aussen-T/F 2251 31-08-2003 10:39:03 14.9 C 67 % 8.83 C
2252 31-08-2003 10:51:03 15.4 C 64 % 8.63 C
2253 31-08-2003 11:03:03 15.2 C 64 % 8.44 C
2254 31-08-2003 11:15:03 15.1 C 64 % 8.35 C
2255 31-08-2003 11:27:03 15.7 C 60 % 7.97 C
2256 31-08-2003 11:39:00 15.4 C 62 % 8.16 C
2257 31-08-2003 11:51:00 15.1 C 63 % 8.12 C
2258 31-08-2003 12:03:01 15.5 C 63 % 8.49 C
2259 31-08-2003 12:15:01 15.9 C 61 % 8.4 C
2260 31-08-2003 12:27:01 15.7 C 61 % 8.21 C
2261 31-08-2003 12:39:01 16.2 C 58 % 7.94 C
2262 31-08-2003 12:51:01 16.4 C 57 % 7.87 C
2263 31-08-2003 13:03:01 16.4 C 57 % 7.87 C
2264 31-08-2003 13:15:01 17 C 55 % 7.9 C
2265 31-08-2003 13:27:01 18 C 50 % 7.43 C
2266 31-08-2003 13:39:02 14.5 C 65 % 8.01 C
2267 31-08-2003 13:51:02 13.6 C 83 % 10.77 C
2268 31-08-2003 14:03:02 13.7 C 87 % 11.58 C
2269 31-08-2003 14:15:02 15.4 C 78 % 11.59 C
2270 31-08-2003 14:27:02 16.9 C 69 % 11.18 C
2271 31-08-2003 14:39:01 18.3 C 68 % 12.3 C
2272 31-08-2003 14:51:01 19.7 C 61 % 11.97 C
2273 31-08-2003 15:03:02 18.8 C 59 % 10.63 C
2274 31-08-2003 15:15:02 15.7 C 65 % 9.15 C
2275 31-08-2003 15:27:02 15.1 C 73 % 10.3 C
Sensor: Nr:Datum:Temp:Feuchte:Taupunkt:
Aussen-T/F 2276 31-08-2003 15:39:00 15.9 C 66 % 9.56 C
2277 31-08-2003 15:51:00 17.2 C 61 % 9.62 C
2278 31-08-2003 16:03:01 18.7 C 57 % 10.02 C
2279 31-08-2003 16:15:01 18.7 C 59 % 10.53 C
2280 31-08-2003 16:27:01 17.9 C 60 % 10.03 C
2281 31-08-2003 16:39:02 18 C 48 % 6.84 C
2282 31-08-2003 16:51:02 19.1 C 43 % 6.24 C
2283 31-08-2003 17:03:02 19.9 C 38 % 5.18 C
2284 31-08-2003 17:15:02 20.3 C 37 % 5.15 C
2285 31-08-2003 17:27:02 21.6 C 35 % 5.5 C
2286 31-08-2003 17:39:02 20 C 38 % 5.26 C
2287 31-08-2003 17:51:02 19.3 C 42 % 6.08 C
2288 31-08-2003 18:03:01 18.3 C 46 % 6.49 C
2289 31-08-2003 18:15:01 18.2 C 48 % 7.02 C
2290 31-08-2003 18:27:01 17.8 C 50 % 7.25 C
2291 31-08-2003 18:39:02 18.2 C 49 % 7.32 C
2292 31-08-2003 18:51:02 18.3 C 45 % 6.17 C
2293 31-08-2003 19:03:01 17.5 C 47 % 6.07 C
2294 31-08-2003 19:15:01 17.3 C 49 % 6.5 C
2295 31-08-2003 19:27:01 17.6 C 49 % 6.77 C
2296 31-08-2003 19:39:02 17 C 51 % 6.8 C
2297 31-08-2003 19:51:02 16.6 C 51 % 6.43 C
2298 31-08-2003 20:03:02 16.4 C 55 % 7.35 C
2299 31-08-2003 20:15:02 16 C 54 % 6.71 C
2300 31-08-2003 20:27:02 15.4 C 55 % 6.42 C
Sensor: Nr:Datum:Temp:Feuchte:Taupunkt:
Aussen-T/F 2301 31-08-2003 20:39:01 14.9 C 61 % 7.45 C
2302 31-08-2003 20:51:01 14.6 C 62 % 7.41 C
2303 31-08-2003 21:04:00 14.6 C 63 % 7.64 C
2304 31-08-2003 21:16:00 14.4 C 65 % 7.91 C
2305 31-08-2003 21:28:00 14.3 C 65 % 7.82 C
2306 31-08-2003 21:40:00 14.2 C 67 % 8.17 C
2307 31-08-2003 21:52:00 14.1 C 66 % 7.85 C
2308 31-08-2003 22:04:00 14.1 C 68 % 8.29 C
2309 31-08-2003 22:16:00 14.2 C 66 % 7.95 C
2310 31-08-2003 22:28:00 14.2 C 62 % 7.03 C
2311 31-08-2003 22:40:00 14.1 C 65 % 7.63 C
2312 31-08-2003 22:52:00 13.8 C 65 % 7.34 C
2313 31-08-2003 23:04:00 13.7 C 65 % 7.25 C
2314 31-08-2003 23:16:00 13.5 C 68 % 7.72 C
2315 31-08-2003 23:28:00 13.1 C 70 % 7.76 C
2316 31-08-2003 23:40:00 12.6 C 71 % 7.49 C
2317 31-08-2003 23:52:00 12.2 C 72 % 7.31 C
2318 01-09-2003 00:04:00 12 C 73 % 7.32 C
2319 01-09-2003 00:16:00 11.8 C 77 % 7.9 C
2320 01-09-2003 00:28:00 11.8 C 79 % 8.28 C
2321 01-09-2003 00:40:00 11.5 C 80 % 8.17 C
2322 01-09-2003 00:52:00 11.3 C 82 % 8.34 C
2323 01-09-2003 01:04:00 11.1 C 83 % 8.33 C
2324 01-09-2003 01:16:00 10.9 C 84 % 8.31 C
2325 01-09-2003 01:28:00 10.8 C 84 % 8.21 C
Sensor: Nr:Datum:Temp:Feuchte:Taupunkt:
Aussen-T/F 2326 01-09-2003 01:40:00 10.7 C 84 % 8.11 C
2327 01-09-2003 01:52:00 10.5 C 84 % 7.91 C
2328 01-09-2003 02:04:00 10.5 C 84 % 7.91 C
2329 01-09-2003 02:16:00 10.4 C 85 % 7.99 C
2330 01-09-2003 02:28:00 10.4 C 86 % 8.16 C
2331 01-09-2003 02:40:00 10.4 C 85 % 7.99 C
2332 01-09-2003 02:52:00 10.5 C 85 % 8.09 C
2333 01-09-2003 03:04:00 10.3 C 86 % 8.06 C
2334 01-09-2003 03:16:00 10.2 C 87 % 8.14 C
2335 01-09-2003 03:28:00 10.2 C 87 % 8.14 C
2336 01-09-2003 03:40:00 10.2 C 87 % 8.14 C
2337 01-09-2003 03:52:00 10.3 C 87 % 8.23 C
2338 01-09-2003 04:04:00 10.3 C 86 % 8.06 C
2339 01-09-2003 04:16:00 10.4 C 86 % 8.16 C
2340 01-09-2003 04:28:00 10.4 C 86 % 8.16 C
2341 01-09-2003 04:40:00 10.4 C 86 % 8.16 C
2342 01-09-2003 04:52:00 10.4 C 86 % 8.16 C
2343 01-09-2003 05:04:00 10.4 C 86 % 8.16 C
2344 01-09-2003 05:16:00 10.3 C 86 % 8.06 C
2345 01-09-2003 05:28:00 10.2 C 86 % 7.97 C
2346 01-09-2003 05:40:00 10.2 C 86 % 7.97 C
2347 01-09-2003 05:52:00 10.2 C 86 % 7.97 C
2348 01-09-2003 06:04:00 10.2 C 86 % 7.97 C
2349 01-09-2003 06:16:00 10.1 C 87 % 8.04 C
2350 01-09-2003 06:28:00 10 C 86 % 7.77 C
Sensor: Nr:Datum:Temp:Feuchte:Taupunkt:
Aussen-T/F 2351 01-09-2003 06:40:00 9.7 C 89 % 7.98 C
2352 01-09-2003 06:52:00 9.5 C 89 % 7.78 C
2353 01-09-2003 07:04:00 9.3 C 89 % 7.58 C
2354 01-09-2003 07:16:00 9.3 C 89 % 7.58 C
2355 01-09-2003 07:28:00 9.3 C 90 % 7.75 C
2356 01-09-2003 07:40:00 9.5 C 90 % 7.94 C
2357 01-09-2003 07:52:00 9.6 C 90 % 8.04 C
2358 01-09-2003 08:04:00 9.7 C 90 % 8.14 C
2359 01-09-2003 08:16:00 9.6 C 90 % 8.04 C
2360 01-09-2003 08:28:00 9.7 C 90 % 8.14 C
2361 01-09-2003 08:40:00 10 C 88 % 8.11 C
2362 01-09-2003 08:52:00 10.4 C 87 % 8.33 C
2363 01-09-2003 09:04:00 10.9 C 84 % 8.31 C
2364 01-09-2003 09:16:00 11.3 C 83 % 8.52 C
2365 01-09-2003 09:28:00 11.5 C 81 % 8.36 C
2366 01-09-2003 09:40:00 11.8 C 80 % 8.47 C
2367 01-09-2003 09:52:00 12 C 79 % 8.48 C
2368 01-09-2003 10:04:01 12.4 C 77 % 8.49 C
2369 01-09-2003 10:16:01 12.9 C 76 % 8.78 C
2370 01-09-2003 10:28:01 13.1 C 71 % 7.97 C
2371 01-09-2003 10:40:01 13.3 C 69 % 7.74 C
2372 01-09-2003 10:52:01 13.5 C 68 % 7.72 C
2373 01-09-2003 11:04:02 13.9 C 66 % 7.66 C
2374 01-09-2003 11:16:02 14.1 C 65 % 7.63 C
2375 01-09-2003 11:28:02 13.9 C 66 % 7.66 C
Sensor: Nr:Datum:Temp:Feuchte:Taupunkt:
Aussen-T/F 2376 01-09-2003 11:40:01 14.3 C 64 % 7.59 C
2377 01-09-2003 11:52:01 15.3 C 57 % 6.84 C
2378 01-09-2003 12:04:02 15.8 C 56 % 7.05 C
2379 01-09-2003 12:16:02 17 C 51 % 6.8 C
2380 01-09-2003 12:28:02 16.5 C 52 % 6.62 C
2381 01-09-2003 12:40:01 16.1 C 54 % 6.8 C
2382 01-09-2003 12:52:01 15.8 C 55 % 6.79 C
2383 01-09-2003 13:04:01 15.8 C 55 % 6.79 C
2384 01-09-2003 13:16:01 15.8 C 52 % 5.97 C
2385 01-09-2003 13:28:01 16.4 C 48 % 5.37 C
2386 01-09-2003 13:40:01 16.8 C 44 % 4.49 C
2387 01-09-2003 13:52:01 17.7 C 42 % 4.64 C
2388 01-09-2003 14:04:01 17.8 C 42 % 4.73 C
2389 01-09-2003 14:16:01 18.3 C 42 % 5.18 C
2390 01-09-2003 14:28:01 18.1 C 41 % 4.66 C
2391 01-09-2003 14:40:01 18 C 43 % 5.25 C
2392 01-09-2003 14:52:01 17.8 C 46 % 6.04 C
2393 01-09-2003 15:04:01 17.5 C 45 % 5.45 C
2394 01-09-2003 15:16:01 19.1 C 40 % 5.2 C
2395 01-09-2003 15:28:01 19.1 C 40 % 5.2 C
2396 01-09-2003 15:40:02 18.8 C 43 % 5.97 C
2397 01-09-2003 15:52:02 18.5 C 42 % 5.36 C
2398 01-09-2003 16:04:01 18.4 C 43 % 5.61 C
2399 01-09-2003 16:16:01 19.6 C 40 % 5.64 C
2400 01-09-2003 16:28:01 20.5 C 35 % 4.53 C
Sensor: Nr:Datum:Temp:Feuchte:Taupunkt:
Aussen-T/F 2401 01-09-2003 16:40:01 19.8 C 39 % 5.46 C
2402 01-09-2003 16:52:01 18.9 C 45 % 6.72 C
2403 01-09-2003 17:04:01 18.2 C 43 % 5.43 C
2404 01-09-2003 17:16:01 18 C 44 % 5.58 C
2405 01-09-2003 17:28:01 17.9 C 45 % 5.81 C
2406 01-09-2003 17:40:01 17.5 C 46 % 5.76 C
2407 01-09-2003 17:52:01 16.4 C 56 % 7.61 C
2408 01-09-2003 18:04:00 14.4 C 68 % 8.58 C
2409 01-09-2003 18:16:00 14.6 C 72 % 9.61 C
2410 01-09-2003 18:28:00 15.2 C 68 % 9.34 C
2411 01-09-2003 18:40:02 15.6 C 64 % 8.82 C
2412 01-09-2003 18:52:02 15.2 C 60 % 7.5 C
2413 01-09-2003 19:04:01 14.7 C 64 % 7.97 C
2414 01-09-2003 19:16:01 14.5 C 65 % 8.01 C
2415 01-09-2003 19:28:01 13.8 C 70 % 8.43 C
2416 01-09-2003 19:40:01 13.5 C 72 % 8.56 C
2417 01-09-2003 19:52:01 13.5 C 71 % 8.35 C
2418 01-09-2003 20:04:01 13.4 C 71 % 8.26 C
2419 01-09-2003 20:16:01 13.2 C 71 % 8.06 C
2420 01-09-2003 20:28:01 12.9 C 73 % 8.18 C
2421 01-09-2003 20:41:04 12.5 C 74 % 8 C
2422 01-09-2003 20:53:04 12.2 C 75 % 7.91 C
2423 01-09-2003 21:05:04 12.3 C 74 % 7.8 C
2424 01-09-2003 21:17:04 12.3 C 73 % 7.61 C
2425 01-09-2003 21:29:04 12.1 C 74 % 7.61 C
Sensor: Nr:Datum:Temp:Feuchte:Taupunkt:
Aussen-T/F 2426 01-09-2003 21:41:04 11.8 C 76 % 7.71 C
2427 01-09-2003 21:53:04 11.6 C 76 % 7.52 C
2428 01-09-2003 22:05:04 11.7 C 77 % 7.81 C
2429 01-09-2003 22:17:04 12 C 75 % 7.71 C
2430 01-09-2003 22:29:04 12.4 C 75 % 8.1 C
2431 01-09-2003 22:41:04 12 C 80 % 8.66 C
2432 01-09-2003 22:53:04 11.6 C 84 % 8.99 C
2433 01-09-2003 23:05:04 11.3 C 86 % 9.05 C
2434 01-09-2003 23:17:04 11 C 87 % 8.92 C
2435 01-09-2003 23:29:04 10.6 C 88 % 8.7 C
2436 01-09-2003 23:41:04 10.5 C 89 % 8.77 C
2437 01-09-2003 23:53:04 10.3 C 90 % 8.73 C
2438 02-09-2003 00:05:04 10.2 C 90 % 8.64 C
2439 02-09-2003 00:17:04 10.1 C 90 % 8.54 C
2440 02-09-2003 00:29:04 9.9 C 92 % 8.66 C
2441 02-09-2003 00:41:04 10 C 91 % 8.6 C
2442 02-09-2003 00:53:04 10 C 91 % 8.6 C
2443 02-09-2003 01:05:04 9.8 C 92 % 8.56 C
2444 02-09-2003 01:17:04 9.9 C 92 % 8.66 C
2445 02-09-2003 01:29:04 9.7 C 92 % 8.46 C
2446 02-09-2003 01:41:04 9.4 C 91 % 8.01 C
2447 02-09-2003 01:53:04 9.3 C 91 % 7.91 C
2448 02-09-2003 02:05:04 9.2 C 91 % 7.81 C
2449 02-09-2003 02:17:04 9.1 C 91 % 7.71 C
2450 02-09-2003 02:29:04 9.1 C 92 % 7.87 C
Sensor: Nr:Datum:Temp:Feuchte:Taupunkt:
Aussen-T/F 2451 02-09-2003 02:41:04 9 C 92 % 7.77 C
2452 02-09-2003 02:53:04 9 C 92 % 7.77 C
2453 02-09-2003 03:05:04 9 C 92 % 7.77 C
2454 02-09-2003 03:17:04 9 C 93 % 7.93 C
2455 02-09-2003 03:29:04 9.1 C 93 % 8.03 C
2456 02-09-2003 03:41:04 9.1 C 93 % 8.03 C
2457 02-09-2003 03:53:04 9.1 C 93 % 8.03 C
2458 02-09-2003 04:05:04 9 C 93 % 7.93 C
2459 02-09-2003 04:17:04 9.1 C 93 % 8.03 C
2460 02-09-2003 04:29:04 9.1 C 93 % 8.03 C
2461 02-09-2003 04:41:04 9.2 C 93 % 8.13 C
2462 02-09-2003 04:53:04 9.2 C 93 % 8.13 C
2463 02-09-2003 05:05:04 9.2 C 93 % 8.13 C
2464 02-09-2003 05:17:04 9 C 92 % 7.77 C
2465 02-09-2003 05:29:04 9.1 C 92 % 7.87 C
2466 02-09-2003 05:41:04 9 C 92 % 7.77 C
2467 02-09-2003 05:53:04 8.9 C 93 % 7.83 C
2468 02-09-2003 06:05:04 8.8 C 93 % 7.73 C
2469 02-09-2003 06:17:04 8.7 C 93 % 7.63 C
2470 02-09-2003 06:29:04 8.7 C 93 % 7.63 C
2471 02-09-2003 06:41:04 8.5 C 93 % 7.43 C
2472 02-09-2003 06:53:04 8.6 C 93 % 7.53 C
2473 02-09-2003 07:05:04 8.6 C 93 % 7.53 C
2474 02-09-2003 07:17:04 8.5 C 93 % 7.43 C
2475 02-09-2003 07:29:04 8.6 C 93 % 7.53 C
Sensor: Nr:Datum:Temp:Feuchte:Taupunkt:
Aussen-T/F 2476 02-09-2003 07:41:04 9 C 92 % 7.77 C
2477 02-09-2003 07:53:04 9.2 C 92 % 7.97 C
2478 02-09-2003 08:05:04 9.3 C 92 % 8.07 C
2479 02-09-2003 08:17:04 9.3 C 91 % 7.91 C
2480 02-09-2003 08:29:04 9.4 C 91 % 8.01 C
2481 02-09-2003 08:41:04 9.8 C 93 % 8.72 C
2482 02-09-2003 08:53:04 10.3 C 91 % 8.9 C
2483 02-09-2003 09:05:04 10.5 C 91 % 9.09 C
2484 02-09-2003 09:17:04 11.4 C 91 % 9.98 C
2485 02-09-2003 09:29:04 11.9 C 90 % 10.31 C
2486 02-09-2003 09:41:01 12 C 87 % 9.91 C
2487 02-09-2003 09:53:01 12.5 C 85 % 10.05 C
2488 02-09-2003 10:05:00 12.7 C 81 % 9.53 C
2489 02-09-2003 10:17:00 13 C 79 % 9.45 C
2490 02-09-2003 10:29:00 13.1 C 78 % 9.36 C
2491 02-09-2003 10:41:01 13.6 C 73 % 8.86 C
2492 02-09-2003 10:53:01 13.8 C 74 % 9.25 C
2493 02-09-2003 11:05:01 14.8 C 72 % 9.81 C
2494 02-09-2003 11:17:01 15.4 C 67 % 9.31 C
2495 02-09-2003 11:29:01 15.5 C 66 % 9.18 C
2496 02-09-2003 11:41:01 16.2 C 62 % 8.92 C
2497 02-09-2003 11:53:01 16 C 61 % 8.49 C
2498 02-09-2003 12:05:01 16 C 64 % 9.2 C
2499 02-09-2003 12:17:01 17.4 C 58 % 9.06 C
2500 02-09-2003 12:29:01 18.3 C 53 % 8.56 C
Sensor: Nr:Datum:Temp:Feuchte:Taupunkt:
Aussen-T/F 2501 02-09-2003 12:41:01 17.7 C 53 % 8.01 C
2502 02-09-2003 12:53:01 16.8 C 56 % 7.98 C
2503 02-09-2003 13:05:01 17.1 C 56 % 8.26 C
2504 02-09-2003 13:17:01 17.6 C 55 % 8.46 C
2505 02-09-2003 13:29:01 18.6 C 47 % 7.08 C
2506 02-09-2003 13:41:02 19.9 C 43 % 6.96 C
2507 02-09-2003 13:53:02 19.2 C 44 % 6.66 C
2508 02-09-2003 14:05:02 19.5 C 42 % 6.26 C
2509 02-09-2003 14:17:02 20.7 C 40 % 6.63 C
2510 02-09-2003 14:29:02 21.2 C 40 % 7.08 C
2511 02-09-2003 14:41:02 19.9 C 39 % 5.55 C
2512 02-09-2003 14:53:02 20.5 C 36 % 4.93 C
2513 02-09-2003 15:05:02 20.6 C 34 % 4.2 C
2514 02-09-2003 15:17:02 22.4 C 31 % 4.46 C
2515 02-09-2003 15:29:02 20.7 C 32 % 3.43 C
2516 02-09-2003 15:41:02 21.5 C 33 % 4.57 C
2517 02-09-2003 15:53:02 21.9 C 28 % 2.59 C
2518 02-09-2003 16:05:07 21.8 C 28 % 2.5 C
2519 02-09-2003 16:17:07 22.2 C 26 % 1.8 C
2520 02-09-2003 16:29:07 22.1 C 27 % 2.25 C
2521 02-09-2003 16:41:02 22.9 C 27 % 2.93 C
2522 02-09-2003 16:53:02 22 C 27 % 2.16 C
2523 02-09-2003 17:05:01 22.1 C 27 % 2.25 C
2524 02-09-2003 17:17:01 22.2 C 27 % 2.33 C
2525 02-09-2003 17:29:01 22.4 C 27 % 2.5 C
Sensor: Nr:Datum:Temp:Feuchte:Taupunkt:
Aussen-T/F 2526 02-09-2003 17:41:01 23 C 25 % 1.93 C
2527 02-09-2003 17:53:01 22.5 C 25 % 1.51 C
2528 02-09-2003 18:05:01 21.5 C 32 % 4.13 C
2529 02-09-2003 18:17:01 20.4 C 37 % 5.24 C
2530 02-09-2003 18:29:01 21.7 C 32 % 4.3 C
2531 02-09-2003 18:41:01 22.3 C 27 % 2.42 C
2532 02-09-2003 18:53:01 21.2 C 31 % 3.42 C
2533 02-09-2003 19:05:02 20.3 C 35 % 4.35 C
2534 02-09-2003 19:17:02 19.4 C 38 % 4.73 C
2535 02-09-2003 19:29:02 18.6 C 43 % 5.79 C
2536 02-09-2003 19:41:02 18.3 C 44 % 5.85 C
2537 02-09-2003 19:53:02 17.8 C 46 % 6.04 C
2538 02-09-2003 20:05:02 16.9 C 47 % 5.53 C
2539 02-09-2003 20:17:02 15.8 C 50 % 5.41 C
2540 02-09-2003 20:29:02 15.2 C 51 % 5.14 C
2541 02-09-2003 20:41:01 14.7 C 54 % 5.5 C
2542 02-09-2003 20:53:01 14.4 C 54 % 5.22 C
2543 02-09-2003 21:06:02 14.2 C 55 % 5.3 C
2544 02-09-2003 21:18:02 14 C 56 % 5.37 C
2545 02-09-2003 21:30:02 13.7 C 59 % 5.84 C
2546 02-09-2003 21:42:02 13.4 C 59 % 5.56 C
2547 02-09-2003 21:54:02 13.2 C 60 % 5.61 C
2548 02-09-2003 22:06:02 13.1 C 61 % 5.76 C
2549 02-09-2003 22:18:02 12.8 C 64 % 6.17 C
2550 02-09-2003 22:30:02 12.7 C 63 % 5.85 C
Sensor: Nr:Datum:Temp:Feuchte:Taupunkt:
Aussen-T/F 2551 02-09-2003 22:42:02 12.5 C 64 % 5.88 C
2552 02-09-2003 22:54:02 12.4 C 65 % 6.01 C
2553 02-09-2003 23:06:02 12.2 C 66 % 6.04 C
2554 02-09-2003 23:18:02 11.8 C 68 % 6.09 C
2555 02-09-2003 23:30:02 11.7 C 68 % 6 C
2556 02-09-2003 23:42:02 11.4 C 70 % 6.13 C
2557 02-09-2003 23:54:02 11.2 C 70 % 5.94 C
2558 03-09-2003 00:06:02 11 C 71 % 5.95 C
2559 03-09-2003 00:18:02 10.9 C 71 % 5.86 C
2560 03-09-2003 00:30:02 10.7 C 71 % 5.66 C
2561 03-09-2003 00:42:02 10.6 C 72 % 5.77 C
2562 03-09-2003 00:54:02 10.3 C 70 % 5.08 C
2563 03-09-2003 01:06:02 10.2 C 71 % 5.18 C
2564 03-09-2003 01:18:02 9.9 C 73 % 5.29 C
2565 03-09-2003 01:30:02 9.8 C 74 % 5.39 C
2566 03-09-2003 01:42:02 9.5 C 75 % 5.3 C
2567 03-09-2003 01:54:02 9.5 C 76 % 5.49 C
2568 03-09-2003 02:06:02 9.4 C 78 % 5.76 C
2569 03-09-2003 02:18:02 9.2 C 78 % 5.57 C
2570 03-09-2003 02:30:02 9 C 80 % 5.74 C
2571 03-09-2003 02:42:02 8.7 C 82 % 5.8 C
2572 03-09-2003 02:54:02 8.7 C 82 % 5.8 C
2573 03-09-2003 03:06:02 8.7 C 82 % 5.8 C
2574 03-09-2003 03:18:02 8.4 C 82 % 5.51 C
2575 03-09-2003 03:30:02 8.2 C 82 % 5.32 C
Sensor: Nr:Datum:Temp:Feuchte:Taupunkt:
Aussen-T/F 2576 03-09-2003 03:42:02 8.1 C 82 % 5.22 C
2577 03-09-2003 03:54:02 8 C 83 % 5.29 C
2578 03-09-2003 04:06:02 7.9 C 85 % 5.54 C
2579 03-09-2003 04:18:02 7.8 C 86 % 5.61 C
2580 03-09-2003 04:30:02 7.8 C 86 % 5.61 C
2581 03-09-2003 04:42:02 7.6 C 87 % 5.58 C
2582 03-09-2003 04:54:02 7.5 C 87 % 5.48 C
2583 03-09-2003 05:06:02 7.4 C 87 % 5.38 C
2584 03-09-2003 05:18:02 7.3 C 87 % 5.28 C
2585 03-09-2003 05:30:02 7.2 C 87 % 5.19 C
2586 03-09-2003 05:42:02 7 C 87 % 4.99 C
2587 03-09-2003 05:54:02 7 C 87 % 4.99 C
2588 03-09-2003 06:06:02 6.9 C 88 % 5.05 C
2589 03-09-2003 06:18:02 6.9 C 89 % 5.22 C
2590 03-09-2003 06:30:02 6.6 C 90 % 5.08 C
2591 03-09-2003 06:42:02 6.5 C 90 % 4.98 C
2592 03-09-2003 06:54:02 6.5 C 91 % 5.14 C
2593 03-09-2003 07:06:02 6.5 C 92 % 5.3 C
2594 03-09-2003 07:18:02 6.6 C 92 % 5.4 C
2595 03-09-2003 07:30:02 6.8 C 92 % 5.59 C
2596 03-09-2003 07:42:02 6.9 C 91 % 5.54 C
2597 03-09-2003 07:54:02 7.1 C 89 % 5.41 C
2598 03-09-2003 08:06:02 7.1 C 89 % 5.41 C
2599 03-09-2003 08:18:02 7.2 C 89 % 5.51 C
2600 03-09-2003 08:30:02 7.1 C 89 % 5.41 C
Sensor: Nr:Datum:Temp:Feuchte:Taupunkt:
Aussen-T/F 2601 03-09-2003 08:42:02 7.1 C 89 % 5.41 C
2602 03-09-2003 08:54:02 7.2 C 90 % 5.67 C
2603 03-09-2003 09:06:01 7.4 C 90 % 5.87 C
2604 03-09-2003 09:18:01 7.7 C 90 % 6.17 C
2605 03-09-2003 09:30:01 8 C 88 % 6.14 C
2606 03-09-2003 09:42:02 8.5 C 87 % 6.46 C
2607 03-09-2003 09:54:02 9.2 C 86 % 6.98 C
2608 03-09-2003 10:06:02 9.7 C 82 % 6.78 C
2609 03-09-2003 10:18:02 10.5 C 80 % 7.2 C
2610 03-09-2003 10:30:02 11.2 C 75 % 6.94 C
2611 03-09-2003 10:42:01 11.9 C 71 % 6.82 C
2612 03-09-2003 10:54:01 12.3 C 71 % 7.2 C
2613 03-09-2003 11:06:01 13.1 C 68 % 7.34 C
2614 03-09-2003 11:18:01 13.9 C 67 % 7.88 C
2615 03-09-2003 11:30:01 14.4 C 65 % 7.91 C
2616 03-09-2003 11:42:02 15.2 C 64 % 8.44 C
2617 03-09-2003 11:54:02 15.8 C 60 % 8.06 C
2618 03-09-2003 12:06:02 16.8 C 56 % 7.98 C
2619 03-09-2003 12:18:02 17.5 C 48 % 6.38 C
2620 03-09-2003 12:30:02 18 C 43 % 5.25 C
2621 03-09-2003 12:42:01 18.3 C 39 % 4.12 C
2622 03-09-2003 12:54:01 18.7 C 39 % 4.48 C
2623 03-09-2003 13:06:01 18.9 C 37 % 3.91 C
2624 03-09-2003 13:18:01 19.5 C 35 % 3.65 C
2625 03-09-2003 13:30:01 19.9 C 32 % 2.73 C
Sensor: Nr:Datum:Temp:Feuchte:Taupunkt:
Aussen-T/F 2626 03-09-2003 13:42:01 20.2 C 32 % 3 C
2627 03-09-2003 13:54:01 20.4 C 32 % 3.17 C
2628 03-09-2003 14:06:01 20.5 C 30 % 2.35 C
2629 03-09-2003 14:18:01 21.1 C 30 % 2.87 C
2630 03-09-2003 14:30:01 21.5 C 28 % 2.24 C
2631 03-09-2003 14:42:00 22.7 C 26 % 2.23 C
2632 03-09-2003 14:54:00 22.9 C 24 % 1.28 C
2633 03-09-2003 15:06:01 22.3 C 25 % 1.34 C
2634 03-09-2003 15:18:01 22 C 29 % 3.17 C
2635 03-09-2003 15:30:01 23.3 C 26 % 2.74 C
2636 03-09-2003 15:42:01 23.5 C 24 % 1.79 C
2637 03-09-2003 15:54:01 22.7 C 24 % 1.11 C
2638 03-09-2003 16:06:01 22.6 C 25 % 1.6 C
2639 03-09-2003 16:18:01 23.8 C 24 % 2.04 C
2640 03-09-2003 16:30:01 23 C 23 % 0.78 C
2641 03-09-2003 16:42:02 24.1 C 25 % 2.86 C
2642 03-09-2003 16:54:02 24.5 C 21 % 0.76 C
2643 03-09-2003 17:06:02 25 C 25 % 3.62 C
2644 03-09-2003 17:18:02 23.6 C 23 % 1.28 C
2645 03-09-2003 17:30:02 24.4 C 22 % 1.33 C
2646 03-09-2003 17:42:01 25.3 C 22 % 2.07 C
2647 03-09-2003 17:54:01 25 C 20 % 0.5 C
2648 03-09-2003 18:06:01 24.7 C 21 % 0.93 C
2649 03-09-2003 18:18:01 24.4 C 22 % 1.33 C
2650 03-09-2003 18:30:01 25.3 C 25 % 3.88 C
Sensor: Nr:Datum:Temp:Feuchte:Taupunkt:
Aussen-T/F 2651 03-09-2003 18:42:00 25.1 C 26 % 4.26 C
2652 03-09-2003 18:54:00 24.1 C 25 % 2.86 C
2653 03-09-2003 19:06:01 24 C 27 % 3.87 C
2654 03-09-2003 19:18:01 23.1 C 32 % 5.52 C
2655 03-09-2003 19:30:01 22.2 C 32 % 4.74 C
2656 03-09-2003 19:42:01 21.7 C 35 % 5.58 C
2657 03-09-2003 19:54:01 20.3 C 40 % 6.27 C
2658 03-09-2003 20:06:01 18.7 C 42 % 5.54 C
2659 03-09-2003 20:18:01 17.8 C 46 % 6.04 C
2660 03-09-2003 20:30:01 17.4 C 46 % 5.67 C
2661 03-09-2003 20:42:02 16.8 C 49 % 6.04 C
2662 03-09-2003 20:54:02 16.6 C 50 % 6.15 C
2663 03-09-2003 21:06:01 15.8 C 52 % 5.97 C
2664 03-09-2003 21:18:01 15.6 C 53 % 6.06 C
2665 03-09-2003 21:30:01 15.4 C 53 % 5.88 C
2666 03-09-2003 21:43:01 15.4 C 53 % 5.88 C
2667 03-09-2003 21:55:01 15.2 C 54 % 5.96 C
2668 03-09-2003 22:07:01 15.1 C 55 % 6.14 C
2669 03-09-2003 22:19:01 14.8 C 57 % 6.37 C
2670 03-09-2003 22:31:01 14.6 C 58 % 6.44 C
2671 03-09-2003 22:43:01 14.3 C 59 % 6.41 C
2672 03-09-2003 22:55:01 14.1 C 60 % 6.46 C
2673 03-09-2003 23:07:01 13.9 C 62 % 6.75 C
2674 03-09-2003 23:19:01 13.7 C 62 % 6.56 C
2675 03-09-2003 23:31:01 13.4 C 62 % 6.28 C
Sensor: Nr:Datum:Temp:Feuchte:Taupunkt:
Aussen-T/F 2676 03-09-2003 23:43:01 13.2 C 64 % 6.55 C
2677 03-09-2003 23:55:01 13 C 64 % 6.36 C
2678 04-09-2003 00:07:01 12.8 C 67 % 6.83 C
2679 04-09-2003 00:19:01 12.4 C 67 % 6.45 C
2680 04-09-2003 00:31:01 12.4 C 68 % 6.67 C
2681 04-09-2003 00:43:01 12.1 C 69 % 6.59 C
2682 04-09-2003 00:55:01 12 C 69 % 6.5 C
2683 04-09-2003 01:07:01 11.8 C 70 % 6.51 C
2684 04-09-2003 01:19:01 11.7 C 72 % 6.83 C
2685 04-09-2003 01:31:01 11.5 C 72 % 6.63 C
2686 04-09-2003 01:43:01 11.2 C 73 % 6.55 C
2687 04-09-2003 01:55:01 11.1 C 73 % 6.45 C
2688 04-09-2003 02:07:01 10.9 C 76 % 6.84 C
2689 04-09-2003 02:19:01 10.8 C 76 % 6.75 C
2690 04-09-2003 02:31:01 10.7 C 76 % 6.65 C
2691 04-09-2003 02:43:01 10.5 C 76 % 6.45 C
2692 04-09-2003 02:55:01 10.2 C 77 % 6.35 C
2693 04-09-2003 03:07:01 10 C 78 % 6.35 C
2694 04-09-2003 03:19:01 9.9 C 80 % 6.62 C
2695 04-09-2003 03:31:01 9.8 C 81 % 6.7 C
2696 04-09-2003 03:43:01 9.7 C 81 % 6.6 C
2697 04-09-2003 03:55:01 9.6 C 81 % 6.5 C
2698 04-09-2003 04:07:01 9.4 C 82 % 6.49 C
2699 04-09-2003 04:19:01 9.3 C 82 % 6.39 C
2700 04-09-2003 04:31:01 9.1 C 82 % 6.19 C
Sensor: Nr:Datum:Temp:Feuchte:Taupunkt:
Aussen-T/F 2701 04-09-2003 04:43:01 9 C 83 % 6.27 C
2702 04-09-2003 04:55:01 9 C 84 % 6.45 C
2703 04-09-2003 05:07:01 8.8 C 85 % 6.42 C
2704 04-09-2003 05:19:01 8.7 C 86 % 6.49 C
2705 04-09-2003 05:31:01 8.7 C 87 % 6.66 C
2706 04-09-2003 05:43:01 8.6 C 87 % 6.56 C
2707 04-09-2003 05:55:01 8.4 C 86 % 6.2 C
2708 04-09-2003 06:07:01 8.3 C 86 % 6.1 C
2709 04-09-2003 06:19:01 8.2 C 86 % 6 C
2710 04-09-2003 06:31:01 8.1 C 86 % 5.9 C
2711 04-09-2003 06:43:01 8 C 86 % 5.81 C
2712 04-09-2003 06:55:01 8 C 87 % 5.97 C
2713 04-09-2003 07:07:01 7.9 C 88 % 6.04 C
2714 04-09-2003 07:19:01 8 C 87 % 5.97 C
2715 04-09-2003 07:31:01 8 C 88 % 6.14 C
2716 04-09-2003 07:43:01 8 C 87 % 5.97 C
2717 04-09-2003 07:55:01 8 C 87 % 5.97 C
2718 04-09-2003 08:07:01 8.2 C 87 % 6.17 C
2719 04-09-2003 08:19:01 8.1 C 88 % 6.24 C
2720 04-09-2003 08:31:01 8.2 C 89 % 6.5 C
2721 04-09-2003 08:43:01 8.4 C 90 % 6.86 C
2722 04-09-2003 08:55:01 8.6 C 89 % 6.89 C
2723 04-09-2003 09:07:02 8.9 C 89 % 7.19 C
2724 04-09-2003 09:19:02 9.1 C 87 % 7.05 C
2725 04-09-2003 09:31:02 9.5 C 87 % 7.45 C
Sensor: Nr:Datum:Temp:Feuchte:Taupunkt:
Aussen-T/F 2726 04-09-2003 09:43:01 10 C 85 % 7.6 C
2727 04-09-2003 09:55:01 10.6 C 84 % 8.01 C
2728 04-09-2003 10:07:00 11.4 C 81 % 8.26 C
2729 04-09-2003 10:19:00 12.2 C 77 % 8.29 C
2730 04-09-2003 10:31:00 12.8 C 76 % 8.68 C
2731 04-09-2003 10:43:01 13.3 C 74 % 8.77 C
2732 04-09-2003 10:55:01 14.2 C 72 % 9.23 C
2733 04-09-2003 11:07:02 15 C 69 % 9.36 C
2734 04-09-2003 11:19:02 15.7 C 66 % 9.37 C
2735 04-09-2003 11:31:02 16.3 C 67 % 10.17 C
2736 04-09-2003 11:43:01 17 C 63 % 9.91 C
2737 04-09-2003 11:55:01 17.8 C 60 % 9.94 C
2738 04-09-2003 12:07:00 18.4 C 58 % 9.99 C
2739 04-09-2003 12:19:00 18.9 C 57 % 10.2 C
2740 04-09-2003 12:31:00 19.5 C 51 % 9.1 C
2741 04-09-2003 12:43:02 20 C 47 % 8.35 C
2742 04-09-2003 12:55:02 20.4 C 40 % 6.36 C
2743 04-09-2003 13:07:01 21 C 37 % 5.77 C
2744 04-09-2003 13:19:01 21.6 C 37 % 6.3 C
2745 04-09-2003 13:31:01 22.1 C 35 % 5.94 C
2746 04-09-2003 13:43:01 22.3 C 34 % 5.69 C
2747 04-09-2003 13:55:01 23.2 C 30 % 4.68 C
2748 04-09-2003 14:07:01 23.8 C 30 % 5.2 C
2749 04-09-2003 14:19:01 24.2 C 26 % 3.5 C
2750 04-09-2003 14:31:01 24.5 C 27 % 4.29 C
Sensor: Nr:Datum:Temp:Feuchte:Taupunkt:
Aussen-T/F 2751 04-09-2003 14:43:00 24.3 C 26 % 3.59 C
2752 04-09-2003 14:55:00 25.2 C 25 % 3.79 C
2753 04-09-2003 15:07:01 26.2 C 25 % 4.63 C
2754 04-09-2003 15:19:01 26.3 C 25 % 4.72 C
2755 04-09-2003 15:31:01 26.9 C 24 % 4.64 C
2756 04-09-2003 15:43:00 27.5 C 22 % 3.9 C
2757 04-09-2003 15:55:00 27.5 C 23 % 4.53 C
2758 04-09-2003 16:07:01 27.7 C 22 % 4.07 C
2759 04-09-2003 16:19:01 27.9 C 21 % 3.57 C
2760 04-09-2003 16:31:01 27.9 C 22 % 4.23 C
2761 04-09-2003 16:43:01 27.7 C 22 % 4.07 C
2762 04-09-2003 16:55:01 27.7 C 21 % 3.41 C
2763 04-09-2003 17:07:01 27.9 C 21 % 3.57 C
2764 04-09-2003 17:19:01 28.8 C 23 % 5.62 C
2765 04-09-2003 17:31:01 29 C 22 % 5.15 C
2766 04-09-2003 17:43:00 28.8 C 22 % 4.98 C
2767 04-09-2003 17:55:00 28.8 C 21 % 4.32 C
2768 04-09-2003 18:07:01 28.7 C 22 % 4.9 C
2769 04-09-2003 18:19:01 28.5 C 24 % 5.98 C
2770 04-09-2003 18:31:01 28.3 C 23 % 5.2 C
2771 04-09-2003 18:43:01 28.2 C 24 % 5.73 C
2772 04-09-2003 18:55:01 27.9 C 27 % 7.18 C
2773 04-09-2003 19:07:01 27.3 C 29 % 7.72 C
2774 04-09-2003 19:19:01 26.5 C 31 % 8.01 C
2775 04-09-2003 19:31:01 25.4 C 33 % 7.97 C
Sensor: Nr:Datum:Temp:Feuchte:Taupunkt:
Aussen-T/F 2776 04-09-2003 19:43:02 24.1 C 35 % 7.69 C
2777 04-09-2003 19:55:02 22.8 C 36 % 6.96 C
2778 04-09-2003 20:07:02 21.6 C 38 % 6.69 C
2779 04-09-2003 20:19:02 21 C 38 % 6.15 C
2780 04-09-2003 20:31:02 20.6 C 41 % 6.9 C
2781 04-09-2003 20:43:01 20.1 C 45 % 7.81 C
2782 04-09-2003 20:55:01 19.4 C 45 % 7.17 C
2783 04-09-2003 21:07:02 18.9 C 47 % 7.35 C
2784 04-09-2003 21:19:02 18.3 C 49 % 7.41 C
2785 04-09-2003 21:31:02 18.1 C 50 % 7.52 C
2786 04-09-2003 21:43:01 17.8 C 50 % 7.25 C
2787 04-09-2003 21:55:01 17.5 C 52 % 7.54 C
2788 04-09-2003 22:07:01 17.3 C 53 % 7.64 C
2789 04-09-2003 22:19:01 17 C 53 % 7.36 C
2790 04-09-2003 22:31:01 16.6 C 55 % 7.53 C
2791 04-09-2003 22:44:04 16.4 C 57 % 7.87 C
2792 04-09-2003 22:56:04 16.3 C 59 % 8.28 C
2793 04-09-2003 23:08:04 15.9 C 61 % 8.4 C
2794 04-09-2003 23:20:04 15.8 C 60 % 8.06 C
2795 04-09-2003 23:32:04 15.5 C 61 % 8.02 C
2796 04-09-2003 23:44:04 15.4 C 62 % 8.16 C
2797 04-09-2003 23:56:04 15 C 63 % 8.02 C
2798 05-09-2003 00:08:04 14.8 C 65 % 8.29 C
2799 05-09-2003 00:20:04 14.6 C 66 % 8.33 C
2800 05-09-2003 00:32:04 14.4 C 66 % 8.14 C
Sensor: Nr:Datum:Temp:Feuchte:Taupunkt:
Aussen-T/F 2801 05-09-2003 00:44:04 14.3 C 66 % 8.04 C
2802 05-09-2003 00:56:04 14 C 65 % 7.53 C
2803 05-09-2003 01:08:04 13.9 C 67 % 7.88 C
2804 05-09-2003 01:20:04 13.7 C 68 % 7.91 C
2805 05-09-2003 01:32:04 13.5 C 68 % 7.72 C
2806 05-09-2003 01:44:04 13.3 C 69 % 7.74 C
2807 05-09-2003 01:56:04 13.2 C 70 % 7.86 C
2808 05-09-2003 02:08:04 13 C 70 % 7.66 C
2809 05-09-2003 02:20:04 12.7 C 73 % 7.99 C
2810 05-09-2003 02:32:04 12.6 C 73 % 7.89 C
2811 05-09-2003 02:44:04 12.6 C 74 % 8.09 C
2812 05-09-2003 02:56:04 12.2 C 75 % 7.91 C
2813 05-09-2003 03:08:04 12.1 C 77 % 8.2 C
2814 05-09-2003 03:20:04 11.9 C 77 % 8 C
2815 05-09-2003 03:32:04 11.6 C 78 % 7.9 C
2816 05-09-2003 03:44:04 11.5 C 80 % 8.17 C
2817 05-09-2003 03:56:04 11.3 C 83 % 8.52 C
2818 05-09-2003 04:08:04 11.2 C 82 % 8.25 C
2819 05-09-2003 04:20:04 11.1 C 81 % 7.97 C
2820 05-09-2003 04:32:04 11 C 82 % 8.05 C
2821 05-09-2003 04:44:04 10.9 C 83 % 8.13 C
2822 05-09-2003 04:56:04 10.7 C 82 % 7.76 C
2823 05-09-2003 05:08:04 10.7 C 82 % 7.76 C
2824 05-09-2003 05:20:04 10.6 C 83 % 7.84 C
2825 05-09-2003 05:32:04 10.5 C 83 % 7.74 C
Sensor: Nr:Datum:Temp:Feuchte:Taupunkt:
Aussen-T/F 2826 05-09-2003 05:44:04 10.3 C 84 % 7.72 C
2827 05-09-2003 05:56:04 10.2 C 84 % 7.62 C
2828 05-09-2003 06:08:04 10.1 C 84 % 7.52 C
2829 05-09-2003 06:20:04 10 C 85 % 7.6 C
2830 05-09-2003 06:32:04 9.8 C 86 % 7.57 C
2831 05-09-2003 06:44:04 9.7 C 88 % 7.81 C
2832 05-09-2003 06:56:04 9.5 C 87 % 7.45 C
2833 05-09-2003 07:08:04 9.5 C 87 % 7.45 C
2834 05-09-2003 07:20:04 9.5 C 86 % 7.28 C
2835 05-09-2003 07:32:04 9.5 C 87 % 7.45 C
2836 05-09-2003 07:44:04 9.6 C 87 % 7.55 C
2837 05-09-2003 07:56:04 9.7 C 87 % 7.64 C
2838 05-09-2003 08:08:04 9.7 C 88 % 7.81 C
2839 05-09-2003 08:20:04 9.6 C 89 % 7.88 C
2840 05-09-2003 08:32:04 9.8 C 89 % 8.08 C
2841 05-09-2003 08:44:04 10 C 88 % 8.11 C
2842 05-09-2003 08:56:04 10.3 C 88 % 8.4 C
2843 05-09-2003 09:08:04 10.7 C 88 % 8.8 C
2844 05-09-2003 09:20:04 11 C 87 % 8.92 C
2845 05-09-2003 09:32:01 11.5 C 85 % 9.07 C
2846 05-09-2003 09:44:01 12.2 C 83 % 9.4 C
2847 05-09-2003 09:56:01 12.8 C 80 % 9.44 C
2848 05-09-2003 10:08:01 13.3 C 77 % 9.36 C
2849 05-09-2003 10:20:01 14.4 C 73 % 9.63 C
2850 05-09-2003 10:32:01 14.9 C 71 % 9.69 C
Sensor: Nr:Datum:Temp:Feuchte:Taupunkt:
Aussen-T/F 2851 05-09-2003 10:44:01 15.8 C 66 % 9.47 C
2852 05-09-2003 10:56:01 16.4 C 65 % 9.81 C
2853 05-09-2003 11:08:01 17.2 C 56 % 8.35 C
2854 05-09-2003 11:20:01 17.9 C 55 % 8.74 C
2855 05-09-2003 11:32:01 18.6 C 53 % 8.84 C
2856 05-09-2003 11:44:01 19 C 53 % 9.21 C
2857 05-09-2003 11:56:01 19.5 C 51 % 9.1 C
2858 05-09-2003 12:08:01 20.5 C 48 % 9.12 C
2859 05-09-2003 12:20:01 21.3 C 45 % 8.89 C
2860 05-09-2003 12:32:02 22 C 41 % 8.15 C
2861 05-09-2003 12:44:02 22.5 C 37 % 7.1 C
2862 05-09-2003 12:56:02 22.8 C 37 % 7.36 C
2863 05-09-2003 13:08:01 23.3 C 33 % 6.14 C
2864 05-09-2003 13:20:01 23.9 C 30 % 5.28 C
2865 05-09-2003 13:32:02 24.5 C 27 % 4.29 C
2866 05-09-2003 13:44:02 25.1 C 25 % 3.71 C
2867 05-09-2003 13:56:02 25.7 C 21 % 1.76 C
2868 05-09-2003 14:08:01 26.1 C 21 % 2.09 C
2869 05-09-2003 14:20:01 26.4 C 20 % 1.65 C
2870 05-09-2003 14:32:13 25.9 C 20 % 1.24 C
2871 05-09-2003 14:44:13 27.1 C 22 % 3.57 C
2872 05-09-2003 14:56:13 27.8 C 21 % 3.49 C
2873 05-09-2003 15:08:03 27.3 C 20 % 2.39 C
2874 05-09-2003 15:20:03 27.7 C 22 % 4.07 C
2875 05-09-2003 15:32:02 27.4 C 20 % 2.47 C
Sensor: Nr:Datum:Temp:Feuchte:Taupunkt:
Aussen-T/F 2876 05-09-2003 15:44:02 27.5 C 20 % 2.56 C
2877 05-09-2003 15:56:02 27.7 C 20 % 2.72 C
2878 05-09-2003 16:08:02 27.6 C 23 % 4.62 C
2879 05-09-2003 16:20:02 28.2 C 21 % 3.82 C
2880 05-09-2003 16:32:01 28 C 20 % 2.97 C
2881 05-09-2003 16:44:01 29 C 20 % 3.79 C
2882 05-09-2003 16:56:01 28.4 C 20 % 3.29 C
2883 05-09-2003 17:08:02 28.7 C 20 % 3.54 C
2884 05-09-2003 17:20:02 29.3 C 20 % 4.03 C
2885 05-09-2003 17:32:03 28.9 C 20 % 3.7 C
2886 05-09-2003 17:44:03 27.8 C 21 % 3.49 C
2887 05-09-2003 17:56:03 27.2 C 27 % 6.59 C
2888 05-09-2003 18:08:03 26 C 33 % 8.49 C
2889 05-09-2003 18:20:03 24.3 C 35 % 7.87 C
2890 05-09-2003 18:32:03 23.4 C 36 % 7.49 C
2891 05-09-2003 18:44:33 22.9 C 38 % 7.84 C
2892 05-09-2003 18:56:33 22.6 C 37 % 7.18 C
2893 05-09-2003 19:08:03 22.5 C 37 % 7.1 C
2894 05-09-2003 19:20:03 22.3 C 37 % 6.92 C
2895 05-09-2003 19:32:11 22 C 37 % 6.65 C
2896 05-09-2003 19:44:11 21.6 C 39 % 7.06 C
2897 05-09-2003 19:56:11 21 C 40 % 6.9 C
2898 05-09-2003 20:08:11 20.5 C 40 % 6.45 C
2899 05-09-2003 20:20:11 20 C 40 % 6 C
2900 05-09-2003 20:32:11 19.6 C 42 % 6.35 C
Sensor: Nr:Datum:Temp:Feuchte:Taupunkt:
Aussen-T/F 2901 05-09-2003 20:44:41 19.4 C 44 % 6.84 C
2902 05-09-2003 20:56:41 19.2 C 44 % 6.66 C
2903 05-09-2003 21:09:02 19 C 44 % 6.48 C
2904 05-09-2003 21:21:02 18.9 C 45 % 6.72 C
2905 05-09-2003 21:33:02 18.7 C 45 % 6.54 C
2906 05-09-2003 21:45:02 18.5 C 46 % 6.67 C
2907 05-09-2003 21:57:02 18.4 C 46 % 6.58 C
2908 05-09-2003 22:09:02 18.1 C 47 % 6.62 C
2909 05-09-2003 22:21:02 17.9 C 50 % 7.34 C
2910 05-09-2003 22:33:02 17.8 C 48 % 6.65 C
2911 05-09-2003 22:45:02 18.1 C 48 % 6.93 C
2912 05-09-2003 22:57:02 18.3 C 47 % 6.8 C
2913 05-09-2003 23:09:02 18.5 C 47 % 6.99 C
2914 05-09-2003 23:21:02 18.4 C 49 % 7.5 C
2915 05-09-2003 23:33:02 18.6 C 52 % 8.56 C
2916 05-09-2003 23:45:02 18.9 C 54 % 9.4 C
2917 05-09-2003 23:57:02 18.9 C 54 % 9.4 C
2918 06-09-2003 00:09:02 19 C 54 % 9.49 C
2919 06-09-2003 00:21:02 19 C 54 % 9.49 C
2920 06-09-2003 00:33:02 18.9 C 56 % 9.94 C
2921 06-09-2003 00:45:02 18.5 C 57 % 9.83 C
2922 06-09-2003 00:57:02 18.5 C 58 % 10.09 C
2923 06-09-2003 01:09:02 18.4 C 57 % 9.74 C
2924 06-09-2003 01:21:02 18.3 C 60 % 10.41 C
2925 06-09-2003 01:33:02 18.2 C 61 % 10.56 C
Sensor: Nr:Datum:Temp:Feuchte:Taupunkt:
Aussen-T/F 2926 06-09-2003 01:45:02 18 C 61 % 10.37 C
2927 06-09-2003 01:57:02 17.9 C 63 % 10.76 C
2928 06-09-2003 02:09:02 17.7 C 66 % 11.27 C
2929 06-09-2003 02:21:02 17.6 C 70 % 12.07 C
2930 06-09-2003 02:33:02 17 C 76 % 12.74 C
2931 06-09-2003 02:45:02 16.4 C 81 % 13.13 C
2932 06-09-2003 02:57:02 16.2 C 84 % 13.5 C
2933 06-09-2003 03:09:02 16.1 C 86 % 13.76 C
2934 06-09-2003 03:21:02 16.1 C 86 % 13.76 C
2935 06-09-2003 03:33:02 16 C 86 % 13.66 C
2936 06-09-2003 03:45:02 15.9 C 88 % 13.92 C
2937 06-09-2003 03:57:02 15.9 C 88 % 13.92 C
2938 06-09-2003 04:09:02 15.9 C 88 % 13.92 C
2939 06-09-2003 04:21:02 16 C 85 % 13.48 C
2940 06-09-2003 04:33:02 15.9 C 85 % 13.38 C
2941 06-09-2003 04:45:02 15.8 C 83 % 12.92 C
2942 06-09-2003 04:57:02 15.9 C 84 % 13.2 C
2943 06-09-2003 05:09:02 15.9 C 83 % 13.02 C
2944 06-09-2003 05:21:02 15.8 C 83 % 12.92 C
2945 06-09-2003 05:33:02 15.8 C 83 % 12.92 C
2946 06-09-2003 05:45:02 15.8 C 83 % 12.92 C
2947 06-09-2003 05:57:02 15.8 C 81 % 12.55 C
2948 06-09-2003 06:09:02 15.8 C 81 % 12.55 C
2949 06-09-2003 06:21:02 15.7 C 82 % 12.64 C
2950 06-09-2003 06:33:02 15.5 C 83 % 12.63 C
Sensor: Nr:Datum:Temp:Feuchte:Taupunkt:
Aussen-T/F 2951 06-09-2003 06:45:02 15.1 C 86 % 12.78 C
2952 06-09-2003 06:57:02 15 C 87 % 12.86 C
2953 06-09-2003 07:09:02 15 C 87 % 12.86 C
2954 06-09-2003 07:21:02 15.3 C 88 % 13.33 C
2955 06-09-2003 07:33:02 15.3 C 87 % 13.15 C
2956 06-09-2003 07:45:02 15.4 C 86 % 13.07 C
2957 06-09-2003 07:57:02 15.6 C 84 % 12.91 C
2958 06-09-2003 08:09:02 15.9 C 82 % 12.83 C
2959 06-09-2003 08:21:02 15.9 C 82 % 12.83 C
2960 06-09-2003 08:33:02 16.2 C 80 % 12.75 C
2961 06-09-2003 08:45:02 16.4 C 79 % 12.75 C
2962 06-09-2003 08:57:02 16.6 C 78 % 12.75 C
2963 06-09-2003 09:09:02 16.7 C 76 % 12.45 C
2964 06-09-2003 09:21:02 17 C 74 % 12.34 C
2965 06-09-2003 09:33:00 17 C 73 % 12.13 C
2966 06-09-2003 09:45:00 17.3 C 75 % 12.83 C
2967 06-09-2003 09:57:00 17.2 C 76 % 12.94 C
2968 06-09-2003 10:09:57 17.2 C 77 % 13.14 C
2969 06-09-2003 10:21:57 17 C 77 % 12.94 C
2970 06-09-2003 10:33:01 17.6 C 75 % 13.12 C
2971 06-09-2003 10:45:01 18.9 C 66 % 12.41 C
2972 06-09-2003 10:57:01 19.7 C 62 % 12.22 C
2973 06-09-2003 11:09:00 20.5 C 57 % 11.7 C
2974 06-09-2003 11:21:00 20.5 C 56 % 11.43 C
2975 06-09-2003 11:33:01 20.6 C 55 % 11.25 C
Sensor: Nr:Datum:Temp:Feuchte:Taupunkt:
Aussen-T/F 2976 06-09-2003 11:45:01 20.7 C 57 % 11.88 C
2977 06-09-2003 11:57:01 20.8 C 56 % 11.71 C
2978 06-09-2003 12:09:02 21 C 55 % 11.62 C
2979 06-09-2003 12:21:02 21.5 C 53 % 11.52 C
2980 06-09-2003 12:33:01 21.8 C 54 % 12.08 C
2981 06-09-2003 12:45:01 22 C 52 % 11.7 C
2982 06-09-2003 12:57:01 22.2 C 50 % 11.29 C
2983 06-09-2003 13:09:00 22.9 C 48 % 11.31 C
2984 06-09-2003 13:21:00 23.6 C 42 % 9.94 C
2985 06-09-2003 13:33:02 24.2 C 40 % 9.75 C
2986 06-09-2003 13:45:02 24.4 C 41 % 10.3 C
2987 06-09-2003 13:57:02 25.3 C 39 % 10.36 C
2988 06-09-2003 14:09:01 25.3 C 36 % 9.16 C
2989 06-09-2003 14:21:01 25.4 C 37 % 9.66 C
2990 06-09-2003 14:33:01 25 C 38 % 9.7 C
2991 06-09-2003 14:45:01 25.2 C 37 % 9.48 C
2992 06-09-2003 14:57:01 25.7 C 37 % 9.92 C
2993 06-09-2003 15:09:02 25.3 C 37 % 9.57 C
2994 06-09-2003 15:21:02 25.6 C 36 % 9.43 C
2995 06-09-2003 15:33:01 25.4 C 38 % 10.06 C
2996 06-09-2003 15:45:01 24.9 C 37 % 9.22 C
2997 06-09-2003 15:57:01 24.9 C 37 % 9.22 C
2998 06-09-2003 16:09:01 24.7 C 41 % 10.57 C
2999 06-09-2003 16:21:01 24.6 C 40 % 10.11 C
3000 06-09-2003 16:33:01 24.7 C 40 % 10.2 C
Sensor: Nr:Datum:Temp:Feuchte:Taupunkt:
Aussen-T/F 3001 06-09-2003 16:45:01 24.7 C 40 % 10.2 C
3002 06-09-2003 16:57:01 25 C 38 % 9.7 C
3003 06-09-2003 17:09:01 24.9 C 39 % 10 C
3004 06-09-2003 17:21:01 24.6 C 40 % 10.11 C
3005 06-09-2003 17:33:01 25.3 C 38 % 9.97 C
3006 06-09-2003 17:45:01 24.7 C 40 % 10.2 C
3007 06-09-2003 17:57:01 24.2 C 39 % 9.38 C
3008 06-09-2003 18:09:02 24.1 C 42 % 10.39 C
3009 06-09-2003 18:21:02 23.8 C 41 % 9.76 C
3010 06-09-2003 18:33:01 23.3 C 43 % 10.03 C
3011 06-09-2003 18:45:01 23.1 C 43 % 9.85 C
3012 06-09-2003 18:57:01 23.1 C 43 % 9.85 C
3013 06-09-2003 19:09:01 23.3 C 44 % 10.37 C
3014 06-09-2003 19:21:01 23.3 C 44 % 10.37 C
3015 06-09-2003 19:33:01 23 C 45 % 10.43 C
3016 06-09-2003 19:45:01 22.7 C 47 % 10.81 C
3017 06-09-2003 19:57:01 22.1 C 50 % 11.2 C
3018 06-09-2003 20:09:02 21.8 C 52 % 11.51 C
3019 06-09-2003 20:21:02 21.5 C 55 % 12.08 C
3020 06-09-2003 20:34:08 21.2 C 57 % 12.35 C
3021 06-09-2003 20:46:08 21 C 58 % 12.43 C
3022 06-09-2003 20:58:08 20.8 C 59 % 12.5 C
3023 06-09-2003 21:10:08 20.8 C 60 % 12.76 C
3024 06-09-2003 21:22:08 20.7 C 61 % 12.91 C
3025 06-09-2003 21:34:08 20.4 C 63 % 13.12 C
Sensor: Nr:Datum:Temp:Feuchte:Taupunkt:
Aussen-T/F 3026 06-09-2003 21:46:08 20.2 C 63 % 12.94 C
3027 06-09-2003 21:58:08 20 C 64 % 12.99 C
3028 06-09-2003 22:10:08 19.7 C 66 % 13.17 C
3029 06-09-2003 22:22:08 19.4 C 67 % 13.12 C
3030 06-09-2003 22:34:08 19.1 C 68 % 13.06 C
3031 06-09-2003 22:46:08 18.9 C 69 % 13.09 C
3032 06-09-2003 22:58:08 18.9 C 70 % 13.31 C
3033 06-09-2003 23:10:08 18.4 C 71 % 13.05 C
3034 06-09-2003 23:22:08 18 C 73 % 13.09 C
3035 06-09-2003 23:34:08 17.6 C 75 % 13.12 C
3036 06-09-2003 23:46:08 17.5 C 76 % 13.23 C
3037 06-09-2003 23:58:08 17.1 C 76 % 12.84 C
3038 07-09-2003 00:10:08 17 C 77 % 12.94 C
3039 07-09-2003 00:22:08 17.1 C 78 % 13.24 C
3040 07-09-2003 00:34:08 17 C 77 % 12.94 C
3041 07-09-2003 00:46:08 17.1 C 78 % 13.24 C
3042 07-09-2003 00:58:08 17.1 C 78 % 13.24 C
3043 07-09-2003 01:10:08 17.2 C 78 % 13.33 C
3044 07-09-2003 01:22:08 17.3 C 78 % 13.43 C
3045 07-09-2003 01:34:08 17.2 C 79 % 13.53 C
3046 07-09-2003 01:46:08 17 C 79 % 13.33 C
3047 07-09-2003 01:58:08 17 C 79 % 13.33 C
3048 07-09-2003 02:10:08 16.8 C 81 % 13.52 C
3049 07-09-2003 02:22:08 16.7 C 82 % 13.61 C
3050 07-09-2003 02:34:08 16.7 C 82 % 13.61 C
Sensor: Nr:Datum:Temp:Feuchte:Taupunkt:
Aussen-T/F 3051 07-09-2003 02:46:08 16.8 C 81 % 13.52 C
3052 07-09-2003 02:58:08 16.7 C 81 % 13.43 C
3053 07-09-2003 03:10:08 16.6 C 81 % 13.33 C
3054 07-09-2003 03:22:08 16.5 C 81 % 13.23 C
3055 07-09-2003 03:34:08 16.4 C 82 % 13.32 C
3056 07-09-2003 03:46:08 16.5 C 82 % 13.42 C
3057 07-09-2003 03:58:08 16.5 C 81 % 13.23 C
3058 07-09-2003 04:10:08 16.5 C 81 % 13.23 C
3059 07-09-2003 04:22:08 16.6 C 79 % 12.95 C
3060 07-09-2003 04:34:08 16.4 C 80 % 12.94 C
3061 07-09-2003 04:46:08 16.4 C 81 % 13.13 C
3062 07-09-2003 04:58:08 16.2 C 80 % 12.75 C
3063 07-09-2003 05:10:08 16.2 C 80 % 12.75 C
3064 07-09-2003 05:22:08 16.1 C 79 % 12.46 C
3065 07-09-2003 05:34:08 16.2 C 79 % 12.56 C
3066 07-09-2003 05:46:08 16.1 C 81 % 12.84 C
3067 07-09-2003 05:58:08 16 C 81 % 12.74 C
3068 07-09-2003 06:10:08 16 C 81 % 12.74 C
3069 07-09-2003 06:22:08 15.8 C 82 % 12.74 C
3070 07-09-2003 06:34:08 15.5 C 82 % 12.44 C
3071 07-09-2003 06:46:08 15.2 C 82 % 12.15 C
3072 07-09-2003 06:58:08 14.9 C 83 % 12.04 C
3073 07-09-2003 07:10:08 14.8 C 84 % 12.12 C
3074 07-09-2003 07:22:08 14.8 C 84 % 12.12 C
3075 07-09-2003 07:34:08 15 C 83 % 12.14 C
Sensor: Nr:Datum:Temp:Feuchte:Taupunkt:
Aussen-T/F 3076 07-09-2003 07:46:08 15.3 C 82 % 12.25 C
3077 07-09-2003 07:58:08 15.5 C 82 % 12.44 C
3078 07-09-2003 08:10:08 15.6 C 82 % 12.54 C
3079 07-09-2003 08:22:08 15.8 C 81 % 12.55 C
3080 07-09-2003 08:34:08 15.9 C 81 % 12.65 C
3081 07-09-2003 08:46:08 16.2 C 78 % 12.36 C
3082 07-09-2003 08:58:08 16.5 C 77 % 12.46 C
3083 07-09-2003 09:10:08 16.5 C 76 % 12.26 C
3084 07-09-2003 09:22:08 16.4 C 77 % 12.36 C
3085 07-09-2003 09:34:08 16.7 C 77 % 12.65 C
3086 07-09-2003 09:46:08 17.5 C 73 % 12.61 C
3087 07-09-2003 09:58:08 17.3 C 72 % 12.21 C
3088 07-09-2003 10:10:08 17.7 C 71 % 12.38 C
3089 07-09-2003 10:22:08 18.2 C 68 % 12.2 C
3090 07-09-2003 10:34:08 18.3 C 67 % 12.07 C
3091 07-09-2003 10:46:08 18.7 C 67 % 12.45 C
3092 07-09-2003 10:58:01 19 C 64 % 12.04 C
3093 07-09-2003 11:10:02 19.5 C 62 % 12.03 C
3094 07-09-2003 11:22:02 19.7 C 59 % 11.47 C
3095 07-09-2003 11:34:02 19.7 C 60 % 11.72 C
3096 07-09-2003 11:46:02 19.4 C 60 % 11.44 C
3097 07-09-2003 11:58:02 19.1 C 64 % 12.14 C
3098 07-09-2003 12:10:02 18.6 C 72 % 13.46 C
3099 07-09-2003 12:22:02 18.5 C 72 % 13.36 C
3100 07-09-2003 12:34:01 19.2 C 71 % 13.82 C
Sensor: Nr:Datum:Temp:Feuchte:Taupunkt:
Aussen-T/F 3101 07-09-2003 12:46:01 19.8 C 66 % 13.27 C
3102 07-09-2003 12:58:01 20 C 64 % 12.99 C
3103 07-09-2003 13:10:16 19.9 C 66 % 13.36 C
3104 07-09-2003 13:22:02 19.4 C 68 % 13.34 C
3105 07-09-2003 13:34:02 20.3 C 68 % 14.2 C
3106 07-09-2003 13:46:02 20.7 C 61 % 12.91 C
3107 07-09-2003 13:58:02 20.9 C 58 % 12.33 C
3108 07-09-2003 14:10:02 21.1 C 55 % 11.71 C
3109 07-09-2003 14:22:02 22 C 53 % 11.99 C
3110 07-09-2003 14:34:02 22.3 C 50 % 11.38 C
3111 07-09-2003 14:46:02 23.2 C 47 % 11.27 C
3112 07-09-2003 14:58:02 23.7 C 48 % 12.04 C
3113 07-09-2003 15:10:02 24 C 45 % 11.34 C
3114 07-09-2003 15:22:02 23.7 C 46 % 11.4 C
3115 07-09-2003 15:34:02 23.4 C 46 % 11.13 C
3116 07-09-2003 15:46:02 24.7 C 40 % 10.2 C
3117 07-09-2003 15:58:02 23.7 C 42 % 10.03 C
3118 07-09-2003 16:10:01 24 C 42 % 10.3 C
3119 07-09-2003 16:22:01 23.8 C 41 % 9.76 C
3120 07-09-2003 16:34:02 23.8 C 40 % 9.4 C
3121 07-09-2003 16:46:02 23.6 C 43 % 10.3 C
3122 07-09-2003 16:58:02 24.5 C 41 % 10.39 C
3123 07-09-2003 17:10:01 25 C 39 % 10.09 C
3124 07-09-2003 17:22:01 24.8 C 39 % 9.91 C
3125 07-09-2003 17:34:01 24.7 C 40 % 10.2 C
Sensor: Nr:Datum:Temp:Feuchte:Taupunkt:
Aussen-T/F 3126 07-09-2003 17:46:01 25.2 C 38 % 9.88 C
3127 07-09-2003 17:58:01 24.5 C 41 % 10.39 C
3128 07-09-2003 18:10:00 24 C 43 % 10.66 C
3129 07-09-2003 18:22:00 23.7 C 49 % 12.36 C
3130 07-09-2003 18:34:01 23.2 C 51 % 12.51 C
3131 07-09-2003 18:46:01 22.6 C 52 % 12.25 C
3132 07-09-2003 18:58:01 22.1 C 53 % 12.08 C
3133 07-09-2003 19:10:01 21.8 C 56 % 12.64 C
3134 07-09-2003 19:22:01 21.4 C 57 % 12.53 C
3135 07-09-2003 19:34:01 21.1 C 58 % 12.52 C
3136 07-09-2003 19:46:01 20.7 C 60 % 12.66 C
3137 07-09-2003 19:58:01 20.5 C 61 % 12.73 C
3138 07-09-2003 20:10:01 19.9 C 63 % 12.65 C
3139 07-09-2003 20:22:01 19.6 C 64 % 12.61 C
3140 07-09-2003 20:34:01 19.3 C 65 % 12.56 C
3141 07-09-2003 20:46:01 19.2 C 64 % 12.23 C
3142 07-09-2003 20:58:01 19.2 C 64 % 12.23 C
3143 07-09-2003 21:10:01 19.1 C 64 % 12.14 C
3144 07-09-2003 21:22:01 19.1 C 65 % 12.37 C
3145 07-09-2003 21:34:02 19 C 65 % 12.28 C
3146 07-09-2003 21:46:02 19 C 65 % 12.28 C
3147 07-09-2003 21:58:02 19 C 65 % 12.28 C
3148 07-09-2003 22:10:02 19 C 66 % 12.51 C
3149 07-09-2003 22:22:02 18.6 C 67 % 12.36 C
3150 07-09-2003 22:35:42 18.6 C 68 % 12.58 C
Sensor: Nr:Datum:Temp:Feuchte:Taupunkt:
Aussen-T/F 3151 07-09-2003 22:47:42 18.5 C 68 % 12.49 C
3152 07-09-2003 22:59:42 18.5 C 68 % 12.49 C
3153 07-09-2003 23:11:42 18.4 C 69 % 12.61 C
3154 07-09-2003 23:23:42 18.3 C 70 % 12.74 C
3155 07-09-2003 23:35:42 18.2 C 70 % 12.64 C
3156 07-09-2003 23:47:42 18 C 71 % 12.67 C
3157 07-09-2003 23:59:42 17.9 C 72 % 12.78 C
3158 08-09-2003 00:11:42 17.8 C 72 % 12.69 C
3159 08-09-2003 00:23:42 17.7 C 73 % 12.8 C
3160 08-09-2003 00:35:42 17.6 C 74 % 12.91 C
3161 08-09-2003 00:47:42 17.3 C 75 % 12.83 C
3162 08-09-2003 00:59:42 17.5 C 77 % 13.43 C
3163 08-09-2003 01:11:42 17.1 C 78 % 13.24 C
3164 08-09-2003 01:23:42 17 C 80 % 13.53 C
3165 08-09-2003 01:35:42 16.9 C 81 % 13.62 C
3166 08-09-2003 01:47:42 16.8 C 83 % 13.9 C
3167 08-09-2003 01:59:42 16.4 C 86 % 14.05 C
3168 08-09-2003 02:11:42 16.1 C 88 % 14.11 C
3169 08-09-2003 02:23:42 16.1 C 89 % 14.29 C
3170 08-09-2003 02:35:42 15.8 C 91 % 14.33 C
3171 08-09-2003 02:47:42 15.3 C 90 % 13.67 C
3172 08-09-2003 02:59:42 14.9 C 92 % 13.61 C
3173 08-09-2003 03:11:42 14.8 C 92 % 13.51 C
3174 08-09-2003 03:23:42 14.8 C 92 % 13.51 C
3175 08-09-2003 03:35:42 14.7 C 93 % 13.58 C
Sensor: Nr:Datum:Temp:Feuchte:Taupunkt:
Aussen-T/F 3176 08-09-2003 03:47:42 14.8 C 93 % 13.68 C
3177 08-09-2003 03:59:42 14.7 C 93 % 13.58 C
3178 08-09-2003 04:11:42 14.4 C 93 % 13.28 C
3179 08-09-2003 04:23:42 14.3 C 93 % 13.18 C
3180 08-09-2003 04:35:42 14.4 C 93 % 13.28 C
3181 08-09-2003 04:47:42 14.2 C 94 % 13.25 C
3182 08-09-2003 04:59:42 14.2 C 94 % 13.25 C
3183 08-09-2003 05:11:42 14.2 C 94 % 13.25 C
3184 08-09-2003 05:23:42 14.2 C 94 % 13.25 C
3185 08-09-2003 05:35:42 14.1 C 94 % 13.15 C
3186 08-09-2003 05:47:42 13.8 C 94 % 12.85 C
3187 08-09-2003 05:59:42 13.7 C 93 % 12.59 C
3188 08-09-2003 06:11:42 13.5 C 93 % 12.39 C
3189 08-09-2003 06:23:42 13.4 C 93 % 12.29 C
3190 08-09-2003 06:35:42 13.5 C 93 % 12.39 C
3191 08-09-2003 06:47:42 13.6 C 93 % 12.49 C
3192 08-09-2003 06:59:42 13.4 C 93 % 12.29 C
3193 08-09-2003 07:11:42 13.4 C 93 % 12.29 C
3194 08-09-2003 07:23:42 13.6 C 94 % 12.65 C
3195 08-09-2003 07:35:02 13.5 C 94 % 12.55 C
3196 08-09-2003 07:47:02 13.5 C 94 % 12.55 C
3197 08-09-2003 07:59:02 13.5 C 94 % 12.55 C
3198 08-09-2003 08:11:02 13.5 C 94 % 12.55 C
3199 08-09-2003 08:23:02 13.5 C 93 % 12.39 C
3200 08-09-2003 08:35:01 13.5 C 93 % 12.39 C
Sensor: Nr:Datum:Temp:Feuchte:Taupunkt:
Aussen-T/F 3201 08-09-2003 08:47:01 13.5 C 93 % 12.39 C
3202 08-09-2003 08:59:01 13.4 C 92 % 12.13 C
3203 08-09-2003 09:11:00 13.4 C 92 % 12.13 C
3204 08-09-2003 09:23:00 13.3 C 92 % 12.03 C
3205 08-09-2003 09:35:01 13.5 C 91 % 12.06 C
3206 08-09-2003 09:47:01 13.8 C 91 % 12.36 C
3207 08-09-2003 09:59:01 14 C 90 % 12.39 C
3208 08-09-2003 10:11:00 14.2 C 90 % 12.58 C
3209 08-09-2003 10:23:00 14.4 C 88 % 12.44 C
3210 08-09-2003 10:35:01 14.6 C 85 % 12.11 C
3211 08-09-2003 10:47:01 14.5 C 86 % 12.19 C
3212 08-09-2003 10:59:01 14.4 C 87 % 12.27 C
3213 08-09-2003 11:11:01 14.7 C 84 % 12.03 C
3214 08-09-2003 11:23:01 15.4 C 82 % 12.35 C
3215 08-09-2003 11:35:01 15.4 C 76 % 11.19 C
3216 08-09-2003 11:47:01 15.5 C 71 % 10.27 C
3217 08-09-2003 11:59:01 15.7 C 65 % 9.15 C
3218 08-09-2003 12:11:01 16.8 C 69 % 11.09 C
3219 08-09-2003 12:23:01 16.9 C 61 % 9.34 C
3220 08-09-2003 12:35:01 17.4 C 54 % 8.01 C
3221 08-09-2003 12:47:01 18.3 C 55 % 9.11 C
3222 08-09-2003 12:59:01 18.7 C 55 % 9.48 C
3223 08-09-2003 13:11:02 18.8 C 59 % 10.63 C
3224 08-09-2003 13:23:02 19.3 C 60 % 11.35 C
3225 08-09-2003 13:35:01 20.7 C 50 % 9.91 C
Sensor: Nr:Datum:Temp:Feuchte:Taupunkt:
Aussen-T/F 3226 08-09-2003 13:47:01 20 C 55 % 10.69 C
3227 08-09-2003 13:59:01 19.5 C 59 % 11.28 C
3228 08-09-2003 14:11:02 21 C 52 % 10.78 C
3229 08-09-2003 14:23:02 22.3 C 46 % 10.13 C
3230 08-09-2003 14:35:01 20.5 C 55 % 11.16 C
3231 08-09-2003 14:47:01 18.5 C 60 % 10.6 C
3232 08-09-2003 14:59:01 18.1 C 67 % 11.88 C
3233 08-09-2003 15:11:02 19 C 69 % 13.19 C
3234 08-09-2003 15:23:02 20.9 C 53 % 10.97 C
3235 08-09-2003 15:35:01 21.9 C 45 % 9.44 C
3236 08-09-2003 15:47:01 22.6 C 41 % 8.69 C
3237 08-09-2003 15:59:01 22.9 C 39 % 8.22 C
3238 08-09-2003 16:11:01 22.8 C 45 % 10.25 C
3239 08-09-2003 16:23:01 22.5 C 43 % 9.31 C
3240 08-09-2003 16:35:00 23.1 C 39 % 8.4 C
3241 08-09-2003 16:47:00 24 C 40 % 9.58 C
3242 08-09-2003 16:59:00 23.1 C 38 % 8.02 C
3243 08-09-2003 17:11:01 23.1 C 42 % 9.5 C
3244 08-09-2003 17:23:01 21.1 C 44 % 8.38 C
3245 08-09-2003 17:35:00 20.8 C 50 % 10 C
3246 08-09-2003 17:47:00 20.2 C 54 % 10.6 C
3247 08-09-2003 17:59:00 19.2 C 59 % 11 C
3248 08-09-2003 18:11:01 18.6 C 61 % 10.94 C
3249 08-09-2003 18:23:01 18 C 61 % 10.37 C
3250 08-09-2003 18:35:01 17.8 C 63 % 10.67 C
Sensor: Nr:Datum:Temp:Feuchte:Taupunkt:
Aussen-T/F 3251 08-09-2003 18:47:01 17.7 C 65 % 11.04 C
3252 08-09-2003 18:59:01 17.6 C 65 % 10.95 C
3253 08-09-2003 19:11:01 17.8 C 62 % 10.43 C
3254 08-09-2003 19:23:01 17.6 C 64 % 10.72 C
3255 08-09-2003 19:35:02 17 C 65 % 10.38 C
3256 08-09-2003 19:47:02 16.4 C 65 % 9.81 C
3257 08-09-2003 19:59:02 15.9 C 69 % 10.23 C
3258 08-09-2003 20:11:01 15.7 C 70 % 10.25 C
3259 08-09-2003 20:23:01 15.5 C 69 % 9.84 C
3260 08-09-2003 20:35:01 15.3 C 71 % 10.08 C
3261 08-09-2003 20:47:01 14.9 C 71 % 9.69 C
3262 08-09-2003 20:59:01 14.7 C 72 % 9.71 C
3263 08-09-2003 21:12:09 14.8 C 74 % 10.22 C
3264 08-09-2003 21:24:09 14.7 C 73 % 9.92 C
3265 08-09-2003 21:36:09 14.5 C 72 % 9.52 C
3266 08-09-2003 21:48:09 14.1 C 73 % 9.34 C
3267 08-09-2003 22:00:09 13.9 C 74 % 9.35 C
3268 08-09-2003 22:12:09 13.7 C 76 % 9.55 C
3269 08-09-2003 22:24:09 13.5 C 77 % 9.55 C
3270 08-09-2003 22:36:09 13.3 C 78 % 9.55 C
3271 08-09-2003 22:48:09 13.2 C 78 % 9.45 C
3272 08-09-2003 23:00:09 13 C 79 % 9.45 C
3273 08-09-2003 23:12:09 12.8 C 81 % 9.62 C
3274 08-09-2003 23:24:09 12.7 C 82 % 9.71 C
3275 08-09-2003 23:36:09 12.5 C 82 % 9.51 C
Sensor: Nr:Datum:Temp:Feuchte:Taupunkt:
Aussen-T/F 3276 08-09-2003 23:48:09 12.4 C 82 % 9.42 C
3277 09-09-2003 00:00:09 12.1 C 83 % 9.3 C
3278 09-09-2003 00:12:09 11.9 C 84 % 9.29 C
3279 09-09-2003 00:24:09 11.8 C 85 % 9.36 C
3280 09-09-2003 00:36:09 11.8 C 85 % 9.36 C
3281 09-09-2003 00:48:09 11.7 C 86 % 9.44 C
3282 09-09-2003 01:00:09 11.7 C 86 % 9.44 C
3283 09-09-2003 01:12:09 11.6 C 87 % 9.51 C
3284 09-09-2003 01:24:09 11.4 C 87 % 9.32 C
3285 09-09-2003 01:36:09 11.3 C 87 % 9.22 C
3286 09-09-2003 01:48:09 11.2 C 88 % 9.29 C
3287 09-09-2003 02:00:09 11.1 C 87 % 9.02 C
3288 09-09-2003 02:12:09 11.1 C 88 % 9.19 C
3289 09-09-2003 02:24:09 11 C 89 % 9.26 C
3290 09-09-2003 02:36:09 11 C 89 % 9.26 C
3291 09-09-2003 02:48:09 10.8 C 89 % 9.06 C
3292 09-09-2003 03:00:09 10.6 C 89 % 8.86 C
3293 09-09-2003 03:12:09 10.5 C 89 % 8.77 C
3294 09-09-2003 03:24:09 10.4 C 89 % 8.67 C
3295 09-09-2003 03:36:09 10.4 C 89 % 8.67 C
3296 09-09-2003 03:48:09 10.3 C 89 % 8.57 C
3297 09-09-2003 04:00:09 10.2 C 89 % 8.47 C
3298 09-09-2003 04:12:09 10.2 C 90 % 8.64 C
3299 09-09-2003 04:24:09 10.1 C 90 % 8.54 C
3300 09-09-2003 04:36:09 10.2 C 91 % 8.8 C
Sensor: Nr:Datum:Temp:Feuchte:Taupunkt:
Aussen-T/F 3301 09-09-2003 04:48:09 10.3 C 91 % 8.9 C
3302 09-09-2003 05:00:09 10.4 C 92 % 9.16 C
3303 09-09-2003 05:12:09 10.6 C 92 % 9.36 C
3304 09-09-2003 05:24:09 10.7 C 92 % 9.45 C
3305 09-09-2003 05:36:09 10.4 C 91 % 9 C
3306 09-09-2003 05:48:09 10.1 C 92 % 8.86 C
3307 09-09-2003 06:00:09 10.2 C 92 % 8.96 C
3308 09-09-2003 06:12:09 10.4 C 92 % 9.16 C
3309 09-09-2003 06:24:09 10.6 C 92 % 9.36 C
3310 09-09-2003 06:36:09 10.7 C 91 % 9.29 C
3311 09-09-2003 06:48:09 10.7 C 91 % 9.29 C
3312 09-09-2003 07:00:09 10.7 C 91 % 9.29 C
3313 09-09-2003 07:12:09 10.5 C 91 % 9.09 C
3314 09-09-2003 07:24:09 10.6 C 91 % 9.19 C
3315 09-09-2003 07:36:09 10.5 C 91 % 9.09 C
3316 09-09-2003 07:48:09 10.5 C 91 % 9.09 C
3317 09-09-2003 08:00:09 10.7 C 91 % 9.29 C
3318 09-09-2003 08:12:09 10.9 C 91 % 9.49 C
3319 09-09-2003 08:24:05 11.1 C 90 % 9.52 C
3320 09-09-2003 08:36:00 11.3 C 90 % 9.72 C
3321 09-09-2003 08:48:00 11.4 C 88 % 9.49 C
3322 09-09-2003 09:00:00 11.8 C 88 % 9.88 C
3323 09-09-2003 09:12:00 11.6 C 87 % 9.51 C
3324 09-09-2003 09:24:00 11.7 C 88 % 9.78 C
3325 09-09-2003 09:36:01 11.8 C 88 % 9.88 C
Sensor: Nr:Datum:Temp:Feuchte:Taupunkt:
Aussen-T/F 3326 09-09-2003 09:48:01 12.2 C 87 % 10.1 C
3327 09-09-2003 10:00:01 12.5 C 86 % 10.22 C
3328 09-09-2003 10:12:01 13.4 C 82 % 10.39 C
3329 09-09-2003 10:24:01 13.9 C 79 % 10.32 C
3330 09-09-2003 10:36:01 14.5 C 77 % 10.52 C
3331 09-09-2003 10:48:01 15 C 74 % 10.41 C
3332 09-09-2003 11:00:01 15.2 C 73 % 10.4 C
3333 09-09-2003 11:12:00 15.1 C 74 % 10.5 C
3334 09-09-2003 11:24:00 15.4 C 74 % 10.79 C
3335 09-09-2003 11:36:01 15.6 C 73 % 10.78 C
3336 09-09-2003 11:48:01 16.1 C 73 % 11.26 C
3337 09-09-2003 12:00:01 16.6 C 72 % 11.54 C
3338 09-09-2003 12:12:01 17.1 C 69 % 11.37 C
3339 09-09-2003 12:24:01 17.7 C 69 % 11.95 C
3340 09-09-2003 12:36:00 18.2 C 65 % 11.52 C
3341 09-09-2003 12:48:00 18.4 C 58 % 9.99 C
3342 09-09-2003 13:00:00 18.9 C 54 % 9.4 C
3343 09-09-2003 13:12:02 19.1 C 50 % 8.44 C
3344 09-09-2003 13:24:02 19.7 C 48 % 8.39 C
3345 09-09-2003 13:36:00 20 C 49 % 8.97 C
3346 09-09-2003 13:48:00 20.3 C 48 % 8.94 C
3347 09-09-2003 14:00:00 20.1 C 49 % 9.06 C
3348 09-09-2003 14:12:01 21.2 C 45 % 8.8 C
3349 09-09-2003 14:24:01 20.6 C 45 % 8.26 C
3350 09-09-2003 14:36:01 22.3 C 40 % 8.06 C
Sensor: Nr:Datum:Temp:Feuchte:Taupunkt:
Aussen-T/F 3351 09-09-2003 14:48:01 22.2 C 40 % 7.97 C
3352 09-09-2003 15:00:01 21.2 C 42 % 7.79 C
3353 09-09-2003 15:12:01 20.4 C 44 % 7.75 C
3354 09-09-2003 15:24:01 20.4 C 43 % 7.41 C
3355 09-09-2003 15:36:01 20.9 C 42 % 7.52 C
3356 09-09-2003 15:48:01 22.6 C 38 % 7.57 C
3357 09-09-2003 16:00:01 22.9 C 39 % 8.22 C
3358 09-09-2003 16:12:01 22.8 C 36 % 6.96 C
3359 09-09-2003 16:24:01 22.2 C 37 % 6.83 C
3360 09-09-2003 16:36:01 21.4 C 39 % 6.89 C
3361 09-09-2003 16:48:01 22.1 C 37 % 6.74 C
3362 09-09-2003 17:00:01 21.4 C 38 % 6.51 C
3363 09-09-2003 17:12:03 21.6 C 40 % 7.43 C
3364 09-09-2003 17:24:03 21.8 C 40 % 7.61 C
3365 09-09-2003 17:36:01 21.7 C 41 % 7.88 C
3366 09-09-2003 17:48:01 22.3 C 38 % 7.31 C
3367 09-09-2003 18:00:01 23.1 C 38 % 8.02 C
3368 09-09-2003 18:12:01 22.2 C 40 % 7.97 C
3369 09-09-2003 18:24:01 21.3 C 42 % 7.88 C
3370 09-09-2003 18:36:01 21.9 C 46 % 9.77 C
3371 09-09-2003 18:48:01 22.2 C 40 % 7.97 C
3372 09-09-2003 19:00:01 21.4 C 41 % 7.62 C
3373 09-09-2003 19:12:01 20.8 C 42 % 7.43 C
3374 09-09-2003 19:24:01 20.4 C 47 % 8.72 C
3375 09-09-2003 19:36:03 19.9 C 52 % 9.76 C
Sensor: Nr:Datum:Temp:Feuchte:Taupunkt:
Aussen-T/F 3376 09-09-2003 19:48:03 18.5 C 55 % 9.3 C
3377 09-09-2003 20:00:03 17.6 C 57 % 8.99 C
3378 09-09-2003 20:12:01 17.1 C 59 % 9.03 C
3379 09-09-2003 20:24:01 16.7 C 61 % 9.15 C
3380 09-09-2003 20:36:02 16.3 C 62 % 9.01 C
3381 09-09-2003 20:48:02 16 C 63 % 8.97 C
3382 09-09-2003 21:00:02 15.9 C 63 % 8.87 C
3383 09-09-2003 21:12:01 15.9 C 63 % 8.87 C
3384 09-09-2003 21:24:01 15.7 C 66 % 9.37 C
3385 09-09-2003 21:37:01 15.6 C 66 % 9.28 C
3386 09-09-2003 21:49:01 15.2 C 67 % 9.12 C
3387 09-09-2003 22:01:01 14.8 C 71 % 9.6 C
3388 09-09-2003 22:13:01 14.4 C 69 % 8.79 C
3389 09-09-2003 22:25:01 14.3 C 70 % 8.91 C
3390 09-09-2003 22:37:01 14.4 C 71 % 9.21 C
3391 09-09-2003 22:49:01 14.2 C 74 % 9.64 C
3392 09-09-2003 23:01:01 13.8 C 75 % 9.45 C
3393 09-09-2003 23:13:01 14 C 75 % 9.64 C
3394 09-09-2003 23:25:01 13.6 C 77 % 9.65 C
3395 09-09-2003 23:37:01 13.4 C 77 % 9.45 C
3396 09-09-2003 23:49:01 13.5 C 77 % 9.55 C
3397 10-09-2003 00:01:01 13.6 C 77 % 9.65 C
3398 10-09-2003 00:13:01 13.5 C 77 % 9.55 C
3399 10-09-2003 00:25:01 13.3 C 79 % 9.74 C
3400 10-09-2003 00:37:01 13.3 C 79 % 9.74 C
Sensor: Nr:Datum:Temp:Feuchte:Taupunkt:
Aussen-T/F 3401 10-09-2003 00:49:01 13.5 C 79 % 9.93 C
3402 10-09-2003 01:01:01 13.7 C 78 % 9.94 C
3403 10-09-2003 01:13:01 13.9 C 77 % 9.94 C
3404 10-09-2003 01:25:01 13.8 C 78 % 10.03 C
3405 10-09-2003 01:37:01 13.9 C 78 % 10.13 C
3406 10-09-2003 01:49:01 13.7 C 79 % 10.13 C
3407 10-09-2003 02:01:01 13.8 C 79 % 10.22 C
3408 10-09-2003 02:13:01 13.5 C 81 % 10.31 C
3409 10-09-2003 02:25:01 13.4 C 84 % 10.75 C
3410 10-09-2003 02:37:01 13.3 C 86 % 11.01 C
3411 10-09-2003 02:49:01 13.2 C 87 % 11.09 C
3412 10-09-2003 03:01:01 13.1 C 88 % 11.16 C
3413 10-09-2003 03:13:01 13.2 C 89 % 11.43 C
3414 10-09-2003 03:25:01 13.1 C 89 % 11.33 C
3415 10-09-2003 03:37:01 13.1 C 90 % 11.5 C
3416 10-09-2003 03:49:01 13 C 90 % 11.4 C
3417 10-09-2003 04:01:01 13 C 91 % 11.57 C
3418 10-09-2003 04:13:01 13 C 91 % 11.57 C
3419 10-09-2003 04:25:01 13.1 C 91 % 11.67 C
3420 10-09-2003 04:37:01 12.9 C 92 % 11.63 C
3421 10-09-2003 04:49:01 13 C 92 % 11.73 C
3422 10-09-2003 05:01:01 12.9 C 93 % 11.8 C
3423 10-09-2003 05:13:01 12.8 C 93 % 11.7 C
3424 10-09-2003 05:25:01 12.8 C 93 % 11.7 C
3425 10-09-2003 05:37:01 12.8 C 93 % 11.7 C
Sensor: Nr:Datum:Temp:Feuchte:Taupunkt:
Aussen-T/F 3426 10-09-2003 05:49:01 12.7 C 93 % 11.6 C
3427 10-09-2003 06:01:01 12.6 C 93 % 11.5 C
3428 10-09-2003 06:13:01 12.6 C 93 % 11.5 C
3429 10-09-2003 06:25:01 12.7 C 93 % 11.6 C
3430 10-09-2003 06:37:01 12.7 C 93 % 11.6 C
3431 10-09-2003 06:49:01 12.6 C 93 % 11.5 C
3432 10-09-2003 07:01:01 12.5 C 93 % 11.4 C
3433 10-09-2003 07:13:01 12.5 C 93 % 11.4 C
3434 10-09-2003 07:25:01 12.5 C 92 % 11.24 C
3435 10-09-2003 07:37:01 12.7 C 92 % 11.43 C
3436 10-09-2003 07:49:01 12.8 C 91 % 11.37 C
3437 10-09-2003 08:01:01 13 C 90 % 11.4 C
3438 10-09-2003 08:13:01 13.3 C 89 % 11.53 C
3439 10-09-2003 08:25:01 13.2 C 88 % 11.26 C
3440 10-09-2003 08:37:00 13.3 C 88 % 11.36 C
3441 10-09-2003 08:49:00 13.4 C 87 % 11.28 C
3442 10-09-2003 09:01:00 13.5 C 87 % 11.38 C
3443 10-09-2003 09:13:02 13.5 C 87 % 11.38 C
3444 10-09-2003 09:25:02 14.2 C 83 % 11.36 C
3445 10-09-2003 09:37:01 14.3 C 83 % 11.45 C
3446 10-09-2003 09:49:01 14.7 C 82 % 11.66 C
3447 10-09-2003 10:01:01 14.8 C 81 % 11.57 C
3448 10-09-2003 10:13:01 15.1 C 79 % 11.49 C
3449 10-09-2003 10:25:01 15.4 C 76 % 11.19 C
3450 10-09-2003 10:37:01 15.6 C 73 % 10.78 C
Sensor: Nr:Datum:Temp:Feuchte:Taupunkt:
Aussen-T/F 3451 10-09-2003 10:49:01 15.8 C 73 % 10.97 C
3452 10-09-2003 11:01:01 16.2 C 71 % 10.94 C
3453 10-09-2003 11:13:03 16.4 C 69 % 10.7 C
3454 10-09-2003 11:25:03 16.4 C 68 % 10.48 C
3455 10-09-2003 11:37:01 17 C 65 % 10.38 C
3456 10-09-2003 11:49:01 17 C 63 % 9.91 C
3457 10-09-2003 12:01:01 17.4 C 61 % 9.81 C
3458 10-09-2003 12:13:01 17.8 C 59 % 9.69 C
3459 10-09-2003 12:25:01 18.1 C 58 % 9.71 C
3460 10-09-2003 12:37:01 17.9 C 58 % 9.53 C
3461 10-09-2003 12:49:01 17.6 C 58 % 9.25 C
3462 10-09-2003 13:01:01 17.4 C 59 % 9.31 C
3463 10-09-2003 13:13:01 17.9 C 58 % 9.53 C
3464 10-09-2003 13:25:01 18 C 56 % 9.1 C
3465 10-09-2003 13:37:02 17.6 C 57 % 8.99 C
3466 10-09-2003 13:49:02 17.7 C 57 % 9.08 C
3467 10-09-2003 14:01:02 17.3 C 60 % 9.47 C
3468 10-09-2003 14:13:02 16.4 C 65 % 9.81 C
3469 10-09-2003 14:25:02 16.5 C 67 % 10.36 C
3470 10-09-2003 14:37:01 16 C 68 % 10.1 C
3471 10-09-2003 14:49:01 16.4 C 63 % 9.35 C
3472 10-09-2003 15:01:01 16.7 C 62 % 9.39 C
3473 10-09-2003 15:13:01 16.2 C 66 % 9.85 C
3474 10-09-2003 15:25:01 14.8 C 74 % 10.22 C
3475 10-09-2003 15:37:01 14.6 C 79 % 11 C
Sensor: Nr:Datum:Temp:Feuchte:Taupunkt:
Aussen-T/F 3476 10-09-2003 15:49:01 14.6 C 79 % 11 C
3477 10-09-2003 16:01:01 14.6 C 86 % 12.29 C
3478 10-09-2003 16:13:01 15.2 C 86 % 12.88 C
3479 10-09-2003 16:25:01 15.8 C 73 % 10.97 C
3480 10-09-2003 16:37:01 16 C 70 % 10.54 C
3481 10-09-2003 16:49:01 16.3 C 67 % 10.17 C
3482 10-09-2003 17:01:01 16.6 C 64 % 9.77 C
3483 10-09-2003 17:13:02 16.5 C 64 % 9.67 C
3484 10-09-2003 17:25:02 16.7 C 63 % 9.63 C
3485 10-09-2003 17:37:01 16.7 C 63 % 9.63 C
3486 10-09-2003 17:49:01 16.5 C 65 % 9.9 C
3487 10-09-2003 18:01:01 16 C 67 % 9.88 C
3488 10-09-2003 18:13:02 16 C 68 % 10.1 C
3489 10-09-2003 18:25:02 16 C 67 % 9.88 C
3490 10-09-2003 18:37:00 15.8 C 69 % 10.13 C
3491 10-09-2003 18:49:00 15.6 C 70 % 10.15 C
3492 10-09-2003 19:01:00 15.5 C 72 % 10.48 C
3493 10-09-2003 19:13:01 15.4 C 73 % 10.59 C
3494 10-09-2003 19:25:01 15.3 C 74 % 10.7 C
3495 10-09-2003 19:37:02 15.2 C 74 % 10.6 C
3496 10-09-2003 19:49:02 15.3 C 75 % 10.9 C
3497 10-09-2003 20:01:02 15.3 C 75 % 10.9 C
3498 10-09-2003 20:13:01 15.3 C 76 % 11.1 C
3499 10-09-2003 20:25:01 15.1 C 77 % 11.1 C
3500 10-09-2003 20:37:00 15 C 80 % 11.58 C
Sensor: Nr:Datum:Temp:Feuchte:Taupunkt:
Aussen-T/F 3501 10-09-2003 20:49:00 14.8 C 82 % 11.76 C
3502 10-09-2003 21:01:00 15.2 C 79 % 11.59 C
3503 10-09-2003 21:13:01 15.4 C 78 % 11.59 C
3504 10-09-2003 21:25:01 15.4 C 77 % 11.39 C
3505 10-09-2003 21:37:01 15.6 C 76 % 11.39 C
3506 10-09-2003 21:49:01 15.7 C 76 % 11.48 C
3507 10-09-2003 22:01:01 15.7 C 76 % 11.48 C
3508 10-09-2003 22:14:04 15.7 C 77 % 11.68 C
3509 10-09-2003 22:26:04 15.7 C 77 % 11.68 C
3510 10-09-2003 22:38:04 15.5 C 79 % 11.88 C
3511 10-09-2003 22:50:04 15.2 C 82 % 12.15 C
3512 10-09-2003 23:02:04 14.9 C 86 % 12.58 C
3513 10-09-2003 23:14:04 14.7 C 88 % 12.73 C
3514 10-09-2003 23:26:04 14.7 C 89 % 12.91 C
3515 10-09-2003 23:38:04 14.1 C 89 % 12.32 C
3516 10-09-2003 23:50:04 13.7 C 88 % 11.75 C
3517 11-09-2003 00:02:04 13.3 C 87 % 11.18 C
3518 11-09-2003 00:14:04 13.2 C 88 % 11.26 C
3519 11-09-2003 00:26:04 13.2 C 87 % 11.09 C
3520 11-09-2003 00:38:04 13.2 C 85 % 10.74 C
3521 11-09-2003 00:50:04 13 C 84 % 10.36 C
3522 11-09-2003 01:02:04 12.9 C 84 % 10.26 C
3523 11-09-2003 01:14:04 12.8 C 85 % 10.34 C
3524 11-09-2003 01:26:04 12.7 C 85 % 10.25 C
3525 11-09-2003 01:38:04 12.4 C 85 % 9.95 C
Sensor: Nr:Datum:Temp:Feuchte:Taupunkt:
Aussen-T/F 3526 11-09-2003 01:50:04 12.3 C 84 % 9.68 C
3527 11-09-2003 02:02:04 12.2 C 85 % 9.76 C
3528 11-09-2003 02:14:04 12.5 C 83 % 9.69 C
3529 11-09-2003 02:26:04 12.5 C 81 % 9.33 C
3530 11-09-2003 02:38:04 12.5 C 80 % 9.15 C
3531 11-09-2003 02:50:04 12.5 C 79 % 8.96 C
3532 11-09-2003 03:02:04 12.4 C 79 % 8.86 C
3533 11-09-2003 03:14:04 12.4 C 78 % 8.68 C
3534 11-09-2003 03:26:04 12.4 C 78 % 8.68 C
3535 11-09-2003 03:38:04 12.3 C 78 % 8.58 C
3536 11-09-2003 03:50:04 12.2 C 78 % 8.48 C
3537 11-09-2003 04:02:04 12.1 C 77 % 8.2 C
3538 11-09-2003 04:14:04 12.1 C 78 % 8.38 C
3539 11-09-2003 04:26:04 12.3 C 77 % 8.39 C
3540 11-09-2003 04:38:04 12.2 C 77 % 8.29 C
3541 11-09-2003 04:50:04 12.2 C 77 % 8.29 C
3542 11-09-2003 05:02:04 12.3 C 77 % 8.39 C
3543 11-09-2003 05:14:04 12.2 C 77 % 8.29 C
3544 11-09-2003 05:26:04 12.1 C 77 % 8.2 C
3545 11-09-2003 05:38:04 12.1 C 77 % 8.2 C
3546 11-09-2003 05:50:04 12 C 77 % 8.1 C
3547 11-09-2003 06:02:04 12.1 C 77 % 8.2 C
3548 11-09-2003 06:14:04 12.5 C 75 % 8.19 C
3549 11-09-2003 06:26:04 12.3 C 76 % 8.2 C
3550 11-09-2003 06:38:04 12.2 C 77 % 8.29 C
Sensor: Nr:Datum:Temp:Feuchte:Taupunkt:
Aussen-T/F 3551 11-09-2003 06:50:04 12.4 C 76 % 8.29 C
3552 11-09-2003 07:02:04 12.4 C 76 % 8.29 C
3553 11-09-2003 07:14:04 12.3 C 78 % 8.58 C
3554 11-09-2003 07:26:04 12.3 C 78 % 8.58 C
3555 11-09-2003 07:38:04 12.5 C 77 % 8.58 C
3556 11-09-2003 07:50:04 12.6 C 77 % 8.68 C
3557 11-09-2003 08:02:04 12.6 C 78 % 8.87 C
3558 11-09-2003 08:14:04 12.8 C 78 % 9.06 C
3559 11-09-2003 08:26:04 13 C 76 % 8.87 C
3560 11-09-2003 08:38:01 13.1 C 76 % 8.97 C
3561 11-09-2003 08:50:01 13.5 C 74 % 8.96 C
3562 11-09-2003 09:02:01 13.7 C 74 % 9.15 C
3563 11-09-2003 09:14:01 14 C 71 % 8.83 C
3564 11-09-2003 09:26:01 14.7 C 70 % 9.29 C
3565 11-09-2003 09:38:02 14.6 C 69 % 8.98 C
3566 11-09-2003 09:50:02 14.4 C 69 % 8.79 C
3567 11-09-2003 10:02:01 14.8 C 69 % 9.17 C
3568 11-09-2003 10:14:01 14.8 C 68 % 8.96 C
3569 11-09-2003 10:26:01 14.8 C 67 % 8.74 C
3570 11-09-2003 10:38:01 15.3 C 64 % 8.54 C
3571 11-09-2003 10:50:01 15.4 C 64 % 8.63 C
3572 11-09-2003 11:02:01 15.6 C 63 % 8.59 C
3573 11-09-2003 11:14:01 16 C 60 % 8.25 C
3574 11-09-2003 11:26:01 16.3 C 57 % 7.77 C
3575 11-09-2003 11:38:02 16.3 C 54 % 6.98 C
Sensor: Nr:Datum:Temp:Feuchte:Taupunkt:
Aussen-T/F 3576 11-09-2003 11:50:02 16.9 C 54 % 7.54 C
3577 11-09-2003 12:02:01 16.5 C 53 % 6.9 C
3578 11-09-2003 12:14:01 17.1 C 50 % 6.6 C
3579 11-09-2003 12:26:01 17.1 C 50 % 6.6 C
3580 11-09-2003 12:38:01 17.1 C 50 % 6.6 C
3581 11-09-2003 12:50:01 17.2 C 49 % 6.4 C
3582 11-09-2003 13:02:01 16.9 C 50 % 6.42 C
3583 11-09-2003 13:14:01 17.2 C 47 % 5.8 C
3584 11-09-2003 13:26:01 17.2 C 46 % 5.49 C
3585 11-09-2003 13:38:01 17.1 C 47 % 5.71 C
3586 11-09-2003 13:50:01 17.5 C 47 % 6.07 C
3587 11-09-2003 14:02:02 17.4 C 47 % 5.98 C
3588 11-09-2003 14:14:02 17.6 C 48 % 6.47 C
3589 11-09-2003 14:26:02 17.9 C 46 % 6.13 C
3590 11-09-2003 14:38:01 17.4 C 50 % 6.88 C
3591 11-09-2003 14:50:01 17.6 C 50 % 7.06 C
3592 11-09-2003 15:02:02 17.9 C 49 % 7.05 C
3593 11-09-2003 15:14:02 17.4 C 51 % 7.17 C
3594 11-09-2003 15:26:02 17.1 C 53 % 7.45 C
3595 11-09-2003 15:38:02 17.4 C 51 % 7.17 C
3596 11-09-2003 15:50:02 17.5 C 51 % 7.26 C
3597 11-09-2003 16:02:02 17.2 C 51 % 6.98 C
3598 11-09-2003 16:14:02 16.9 C 55 % 7.81 C
3599 11-09-2003 16:26:02 16.8 C 53 % 7.18 C
3600 11-09-2003 16:38:01 16.7 C 54 % 7.36 C
Sensor: Nr:Datum:Temp:Feuchte:Taupunkt:
Aussen-T/F 3601 11-09-2003 16:50:01 16.7 C 56 % 7.89 C
3602 11-09-2003 17:02:02 16.4 C 61 % 8.87 C
3603 11-09-2003 17:14:02 15.3 C 70 % 9.87 C
3604 11-09-2003 17:26:02 15.6 C 70 % 10.15 C
3605 11-09-2003 17:38:01 15.8 C 68 % 9.91 C
3606 11-09-2003 17:50:01 16.1 C 65 % 9.53 C
3607 11-09-2003 18:02:01 16.4 C 64 % 9.58 C
3608 11-09-2003 18:14:01 16.5 C 62 % 9.2 C
3609 11-09-2003 18:26:01 16.4 C 62 % 9.11 C
3610 11-09-2003 18:38:02 17 C 58 % 8.69 C
3611 11-09-2003 18:50:02 16.8 C 60 % 9 C
3612 11-09-2003 19:02:01 16.8 C 61 % 9.24 C
3613 11-09-2003 19:14:01 16.6 C 61 % 9.06 C
3614 11-09-2003 19:26:01 16.4 C 62 % 9.11 C
3615 11-09-2003 19:38:01 16.4 C 62 % 9.11 C
3616 11-09-2003 19:50:01 16.2 C 62 % 8.92 C
3617 11-09-2003 20:02:01 16.1 C 62 % 8.82 C
3618 11-09-2003 20:14:01 16.2 C 61 % 8.68 C
3619 11-09-2003 20:26:01 16 C 60 % 8.25 C
3620 11-09-2003 20:38:01 15.9 C 61 % 8.4 C
3621 11-09-2003 20:50:01 16.3 C 58 % 8.03 C
3622 11-09-2003 21:02:02 16.2 C 57 % 7.68 C
3623 11-09-2003 21:14:02 16.1 C 57 % 7.59 C
3624 11-09-2003 21:26:02 16.2 C 56 % 7.42 C
3625 11-09-2003 21:38:00 16.1 C 57 % 7.59 C
Sensor: Nr:Datum:Temp:Feuchte:Taupunkt:
Aussen-T/F 3626 11-09-2003 21:50:00 16 C 57 % 7.49 C
3627 11-09-2003 22:03:01 15.9 C 59 % 7.91 C
3628 11-09-2003 22:15:01 15.9 C 59 % 7.91 C
3629 11-09-2003 22:27:01 15.9 C 58 % 7.66 C
3630 11-09-2003 22:39:01 15.8 C 58 % 7.56 C
3631 11-09-2003 22:51:01 15.7 C 59 % 7.72 C
3632 11-09-2003 23:03:01 15.7 C 59 % 7.72 C
3633 11-09-2003 23:15:01 15.5 C 60 % 7.78 C
3634 11-09-2003 23:27:01 15.4 C 60 % 7.68 C
3635 11-09-2003 23:39:01 15.4 C 61 % 7.93 C
3636 11-09-2003 23:51:01 15.4 C 61 % 7.93 C
3637 12-09-2003 00:03:01 15.2 C 62 % 7.98 C
3638 12-09-2003 00:15:01 15.2 C 63 % 8.21 C
3639 12-09-2003 00:27:01 15.1 C 63 % 8.12 C
3640 12-09-2003 00:39:01 15.1 C 63 % 8.12 C
3641 12-09-2003 00:51:01 15 C 63 % 8.02 C
3642 12-09-2003 01:03:01 15 C 63 % 8.02 C
3643 12-09-2003 01:15:01 15 C 64 % 8.25 C
3644 12-09-2003 01:27:01 14.8 C 66 % 8.52 C
3645 12-09-2003 01:39:01 14.8 C 66 % 8.52 C
3646 12-09-2003 01:51:01 14.7 C 66 % 8.42 C
3647 12-09-2003 02:03:01 14.6 C 67 % 8.55 C
3648 12-09-2003 02:15:01 14.6 C 68 % 8.77 C
3649 12-09-2003 02:27:01 14.5 C 68 % 8.67 C
3650 12-09-2003 02:39:01 14.4 C 67 % 8.36 C
Sensor: Nr:Datum:Temp:Feuchte:Taupunkt:
Aussen-T/F 3651 12-09-2003 02:51:01 14.2 C 67 % 8.17 C
3652 12-09-2003 03:03:01 13.9 C 69 % 8.31 C
3653 12-09-2003 03:15:01 14 C 69 % 8.41 C
3654 12-09-2003 03:27:01 14 C 69 % 8.41 C
3655 12-09-2003 03:39:01 14 C 69 % 8.41 C
3656 12-09-2003 03:51:01 14 C 69 % 8.41 C
3657 12-09-2003 04:03:01 14.1 C 70 % 8.72 C
3658 12-09-2003 04:15:01 14 C 70 % 8.62 C
3659 12-09-2003 04:27:01 13.8 C 71 % 8.64 C
3660 12-09-2003 04:39:01 13.8 C 72 % 8.85 C
3661 12-09-2003 04:51:01 13.7 C 72 % 8.75 C
3662 12-09-2003 05:03:01 13.7 C 72 % 8.75 C
3663 12-09-2003 05:15:01 13.6 C 73 % 8.86 C
3664 12-09-2003 05:27:01 13.5 C 73 % 8.76 C
3665 12-09-2003 05:39:01 13.5 C 73 % 8.76 C
3666 12-09-2003 05:51:01 13.6 C 73 % 8.86 C
3667 12-09-2003 06:03:01 13.4 C 74 % 8.87 C
3668 12-09-2003 06:15:01 13.4 C 74 % 8.87 C
3669 12-09-2003 06:27:01 13.4 C 75 % 9.06 C
3670 12-09-2003 06:39:01 13.3 C 76 % 9.16 C
3671 12-09-2003 06:51:01 13.1 C 78 % 9.36 C
3672 12-09-2003 07:03:01 13 C 77 % 9.07 C
3673 12-09-2003 07:15:01 12.9 C 78 % 9.16 C
3674 12-09-2003 07:27:01 13 C 77 % 9.07 C
3675 12-09-2003 07:39:01 12.9 C 78 % 9.16 C
Sensor: Nr:Datum:Temp:Feuchte:Taupunkt:
Aussen-T/F 3676 12-09-2003 07:51:01 12.8 C 78 % 9.06 C
3677 12-09-2003 08:03:01 12.9 C 78 % 9.16 C
3678 12-09-2003 08:15:01 12.9 C 79 % 9.35 C
3679 12-09-2003 08:27:01 12.9 C 79 % 9.35 C
3680 12-09-2003 08:39:02 12.9 C 79 % 9.35 C
3681 12-09-2003 08:51:02 13 C 78 % 9.26 C
3682 12-09-2003 09:03:02 13 C 77 % 9.07 C
3683 12-09-2003 09:15:02 13 C 77 % 9.07 C
3684 12-09-2003 09:27:02 12.8 C 80 % 9.44 C
3685 12-09-2003 09:39:02 12.9 C 80 % 9.54 C
3686 12-09-2003 09:51:02 13.1 C 78 % 9.36 C
3687 12-09-2003 10:03:02 13.1 C 78 % 9.36 C
3688 12-09-2003 10:15:02 13 C 79 % 9.45 C
3689 12-09-2003 10:27:02 12.9 C 82 % 9.9 C
3690 12-09-2003 10:39:02 13 C 81 % 9.82 C
3691 12-09-2003 10:51:02 13.4 C 78 % 9.65 C
3692 12-09-2003 11:03:01 13.8 C 76 % 9.65 C
3693 12-09-2003 11:15:01 14.2 C 73 % 9.43 C
3694 12-09-2003 11:27:01 14.7 C 72 % 9.71 C
3695 12-09-2003 11:39:01 15 C 69 % 9.36 C
3696 12-09-2003 11:51:01 15.7 C 67 % 9.6 C
3697 12-09-2003 12:03:02 16.2 C 64 % 9.39 C
3698 12-09-2003 12:15:02 16.7 C 63 % 9.63 C
3699 12-09-2003 12:27:02 17.3 C 62 % 9.96 C
3700 12-09-2003 12:39:01 17.9 C 60 % 10.03 C
Sensor: Nr:Datum:Temp:Feuchte:Taupunkt:
Aussen-T/F 3701 12-09-2003 12:51:01 18.7 C 59 % 10.53 C
3702 12-09-2003 13:03:01 19.7 C 54 % 10.14 C
3703 12-09-2003 13:15:01 20.3 C 50 % 9.54 C
3704 12-09-2003 13:27:01 20 C 51 % 9.56 C
3705 12-09-2003 13:39:01 19.2 C 51 % 8.83 C
3706 12-09-2003 13:51:01 20.4 C 52 % 10.22 C
3707 12-09-2003 14:03:01 20.8 C 48 % 9.4 C
3708 12-09-2003 14:15:01 20.7 C 50 % 9.91 C
3709 12-09-2003 14:27:01 20.4 C 50 % 9.64 C
3710 12-09-2003 14:39:02 20.7 C 50 % 9.91 C
3711 12-09-2003 14:51:02 20.9 C 50 % 10.1 C
3712 12-09-2003 15:03:01 22 C 44 % 9.2 C
3713 12-09-2003 15:15:01 22.7 C 43 % 9.49 C
3714 12-09-2003 15:27:01 23.4 C 42 % 9.77 C
3715 12-09-2003 15:39:01 23.6 C 40 % 9.22 C
3716 12-09-2003 15:51:01 22.7 C 42 % 9.14 C
3717 12-09-2003 16:03:02 23.5 C 39 % 8.76 C
3718 12-09-2003 16:15:02 23.1 C 39 % 8.4 C
3719 12-09-2003 16:27:02 23.7 C 38 % 8.55 C
3720 12-09-2003 16:39:02 23.7 C 38 % 8.55 C
3721 12-09-2003 16:51:02 24.6 C 36 % 8.55 C
3722 12-09-2003 17:03:02 25.5 C 32 % 7.6 C
3723 12-09-2003 17:15:02 25 C 33 % 7.62 C
3724 12-09-2003 17:27:02 25.5 C 34 % 8.5 C
3725 12-09-2003 17:39:01 25.2 C 32 % 7.34 C
Sensor: Nr:Datum:Temp:Feuchte:Taupunkt:
Aussen-T/F 3726 12-09-2003 17:51:01 23.7 C 38 % 8.55 C
3727 12-09-2003 18:03:01 23.2 C 39 % 8.49 C
3728 12-09-2003 18:15:01 23.1 C 40 % 8.77 C
3729 12-09-2003 18:27:01 22.4 C 44 % 9.56 C
3730 12-09-2003 18:39:01 21.7 C 49 % 10.53 C
3731 12-09-2003 18:51:01 21 C 49 % 9.89 C
3732 12-09-2003 19:03:01 19.9 C 54 % 10.32 C
3733 12-09-2003 19:15:01 18.8 C 57 % 10.11 C
3734 12-09-2003 19:27:01 18.3 C 57 % 9.64 C
3735 12-09-2003 19:39:02 18 C 58 % 9.62 C
3736 12-09-2003 19:51:02 17.7 C 61 % 10.09 C
3737 12-09-2003 20:03:01 17.5 C 61 % 9.9 C
3738 12-09-2003 20:15:01 17.1 C 62 % 9.77 C
3739 12-09-2003 20:27:01 17.1 C 64 % 10.24 C
3740 12-09-2003 20:39:02 17.1 C 63 % 10.01 C
3741 12-09-2003 20:51:02 17.5 C 62 % 10.15 C
3742 12-09-2003 21:03:01 17.6 C 63 % 10.48 C
3743 12-09-2003 21:15:01 17.6 C 63 % 10.48 C
3744 12-09-2003 21:27:01 17.6 C 61 % 10 C
3745 12-09-2003 21:39:01 17.6 C 62 % 10.24 C
3746 12-09-2003 21:51:01 17.6 C 62 % 10.24 C
3747 12-09-2003 22:03:02 17.4 C 63 % 10.29 C
3748 12-09-2003 22:15:02 17.5 C 62 % 10.15 C
3749 12-09-2003 22:27:02 17.5 C 63 % 10.38 C
3750 12-09-2003 22:40:03 17.2 C 64 % 10.34 C
Sensor: Nr:Datum:Temp:Feuchte:Taupunkt:
Aussen-T/F 3751 12-09-2003 22:52:03 17.3 C 63 % 10.2 C
3752 12-09-2003 23:04:03 17.2 C 63 % 10.1 C
3753 12-09-2003 23:16:03 17.3 C 64 % 10.43 C
3754 12-09-2003 23:28:03 17.2 C 64 % 10.34 C
3755 12-09-2003 23:40:03 17 C 65 % 10.38 C
3756 12-09-2003 23:52:03 17 C 65 % 10.38 C
3757 13-09-2003 00:04:03 17 C 65 % 10.38 C
3758 13-09-2003 00:16:03 17 C 66 % 10.61 C
3759 13-09-2003 00:28:03 16.8 C 67 % 10.64 C
3760 13-09-2003 00:40:03 16.7 C 68 % 10.77 C
3761 13-09-2003 00:52:03 16.5 C 69 % 10.8 C
3762 13-09-2003 01:04:03 16.5 C 70 % 11.01 C
3763 13-09-2003 01:16:03 16.4 C 71 % 11.13 C
3764 13-09-2003 01:28:03 16.4 C 71 % 11.13 C
3765 13-09-2003 01:40:03 16.1 C 72 % 11.06 C
3766 13-09-2003 01:52:03 16 C 73 % 11.17 C
3767 13-09-2003 02:04:03 15.7 C 75 % 11.28 C
3768 13-09-2003 02:16:03 15.4 C 76 % 11.19 C
3769 13-09-2003 02:28:03 15.5 C 77 % 11.49 C
3770 13-09-2003 02:40:03 15.6 C 77 % 11.59 C
3771 13-09-2003 02:52:03 15.8 C 77 % 11.78 C
3772 13-09-2003 03:04:03 15.8 C 77 % 11.78 C
3773 13-09-2003 03:16:03 15.8 C 77 % 11.78 C
3774 13-09-2003 03:28:03 15.8 C 77 % 11.78 C
3775 13-09-2003 03:40:03 15.8 C 77 % 11.78 C
Sensor: Nr:Datum:Temp:Feuchte:Taupunkt:
Aussen-T/F 3776 13-09-2003 03:52:03 15.8 C 77 % 11.78 C
3777 13-09-2003 04:04:03 15.7 C 78 % 11.88 C
3778 13-09-2003 04:16:03 15.6 C 78 % 11.78 C
3779 13-09-2003 04:28:03 15.6 C 79 % 11.97 C
3780 13-09-2003 04:40:03 15.7 C 78 % 11.88 C
3781 13-09-2003 04:52:03 15.7 C 79 % 12.07 C
3782 13-09-2003 05:04:03 15.6 C 79 % 11.97 C
3783 13-09-2003 05:16:03 15.5 C 79 % 11.88 C
3784 13-09-2003 05:28:03 15.2 C 80 % 11.78 C
3785 13-09-2003 05:40:03 15.1 C 80 % 11.68 C
3786 13-09-2003 05:52:03 15 C 80 % 11.58 C
3787 13-09-2003 06:04:03 14.9 C 82 % 11.86 C
3788 13-09-2003 06:16:03 14.9 C 82 % 11.86 C
3789 13-09-2003 06:28:03 14.8 C 82 % 11.76 C
3790 13-09-2003 06:40:03 14.7 C 82 % 11.66 C
3791 13-09-2003 06:52:03 14.8 C 81 % 11.57 C
3792 13-09-2003 07:04:03 14.9 C 82 % 11.86 C
3793 13-09-2003 07:16:03 14.9 C 81 % 11.67 C
3794 13-09-2003 07:28:03 14.6 C 81 % 11.38 C
3795 13-09-2003 07:40:03 14.3 C 82 % 11.27 C
3796 13-09-2003 07:52:03 14.3 C 83 % 11.45 C
3797 13-09-2003 08:04:03 14.7 C 82 % 11.66 C
3798 13-09-2003 08:16:03 15.2 C 79 % 11.59 C
3799 13-09-2003 08:28:03 15.6 C 77 % 11.59 C
3800 13-09-2003 08:40:01 15.6 C 75 % 11.19 C
Sensor: Nr:Datum:Temp:Feuchte:Taupunkt:
Aussen-T/F 3801 13-09-2003 08:52:01 15.5 C 74 % 10.89 C
3802 13-09-2003 09:04:01 15.3 C 74 % 10.7 C
3803 13-09-2003 09:16:01 15.5 C 73 % 10.69 C
3804 13-09-2003 09:28:01 15.5 C 72 % 10.48 C
3805 13-09-2003 09:40:01 15.7 C 72 % 10.67 C
3806 13-09-2003 09:52:01 15.9 C 69 % 10.23 C
3807 13-09-2003 10:04:01 16.6 C 68 % 10.67 C
3808 13-09-2003 10:16:01 16.7 C 65 % 10.09 C
3809 13-09-2003 10:28:01 17.3 C 63 % 10.2 C
3810 13-09-2003 10:40:01 17.3 C 61 % 9.71 C
3811 13-09-2003 10:52:01 17.9 C 60 % 10.03 C
3812 13-09-2003 11:04:04 18.5 C 57 % 9.83 C
3813 13-09-2003 11:16:04 18.6 C 57 % 9.92 C
3814 13-09-2003 11:28:04 19.2 C 56 % 10.22 C
3815 13-09-2003 11:40:03 19.5 C 52 % 9.39 C
3816 13-09-2003 11:52:03 20 C 51 % 9.56 C
3817 13-09-2003 12:04:01 20.1 C 50 % 9.36 C
3818 13-09-2003 12:16:01 20.8 C 47 % 9.08 C
3819 13-09-2003 12:28:01 21 C 45 % 8.62 C
3820 13-09-2003 12:40:01 20.4 C 45 % 8.08 C
3821 13-09-2003 12:52:01 21 C 43 % 7.95 C
3822 13-09-2003 13:04:00 20.5 C 37 % 5.32 C
3823 13-09-2003 13:16:00 20.8 C 40 % 6.72 C
3824 13-09-2003 13:28:00 20 C 38 % 5.26 C
3825 13-09-2003 13:40:01 20.8 C 41 % 7.08 C
Sensor: Nr:Datum:Temp:Feuchte:Taupunkt:
Aussen-T/F 3826 13-09-2003 13:52:01 21.9 C 37 % 6.56 C
3827 13-09-2003 14:04:03 21.3 C 36 % 5.64 C
3828 13-09-2003 14:16:03 21.4 C 36 % 5.73 C
3829 13-09-2003 14:28:03 22.5 C 33 % 5.44 C
3830 13-09-2003 14:40:01 22.7 C 32 % 5.17 C
3831 13-09-2003 14:52:01 22.4 C 33 % 5.35 C
3832 13-09-2003 15:04:00 22.8 C 33 % 5.7 C
3833 13-09-2003 15:16:00 22.9 C 32 % 5.35 C
3834 13-09-2003 15:28:00 22.3 C 32 % 4.82 C
3835 13-09-2003 15:40:00 23.5 C 31 % 5.41 C
3836 13-09-2003 15:52:00 23.2 C 28 % 3.7 C
3837 13-09-2003 16:04:01 23.8 C 29 % 4.71 C
3838 13-09-2003 16:16:01 23.9 C 28 % 4.3 C
3839 13-09-2003 16:28:01 24.2 C 26 % 3.5 C
3840 13-09-2003 16:40:00 25.2 C 25 % 3.79 C
3841 13-09-2003 16:52:00 25.2 C 26 % 4.35 C
3842 13-09-2003 17:04:01 24.1 C 27 % 3.95 C
3843 13-09-2003 17:16:01 23.7 C 30 % 5.11 C
3844 13-09-2003 17:28:01 22.9 C 30 % 4.42 C
3845 13-09-2003 17:40:00 23.7 C 30 % 5.11 C
3846 13-09-2003 17:52:00 23 C 27 % 3.01 C
3847 13-09-2003 18:04:00 22.1 C 30 % 3.73 C
3848 13-09-2003 18:16:00 22.2 C 30 % 3.82 C
3849 13-09-2003 18:28:00 22.5 C 30 % 4.08 C
3850 13-09-2003 18:40:04 22.5 C 30 % 4.08 C
Sensor: Nr:Datum:Temp:Feuchte:Taupunkt:
Aussen-T/F 3851 13-09-2003 18:52:04 22.5 C 30 % 4.08 C
3852 13-09-2003 19:04:02 22.6 C 31 % 4.63 C
3853 13-09-2003 19:16:02 22.2 C 32 % 4.74 C
3854 13-09-2003 19:28:02 20.6 C 36 % 5.02 C
3855 13-09-2003 19:40:03 19.7 C 39 % 5.37 C
3856 13-09-2003 19:52:03 19.1 C 43 % 6.24 C
3857 13-09-2003 20:04:03 18.5 C 45 % 6.36 C
3858 13-09-2003 20:16:03 17.7 C 48 % 6.56 C
3859 13-09-2003 20:28:03 17.2 C 50 % 6.7 C
3860 13-09-2003 20:40:01 16.7 C 52 % 6.81 C
3861 13-09-2003 20:52:01 16.2 C 53 % 6.62 C
3862 13-09-2003 21:04:04 15.8 C 54 % 6.52 C
3863 13-09-2003 21:16:04 15.5 C 56 % 6.77 C
3864 13-09-2003 21:28:04 15.1 C 57 % 6.65 C
3865 13-09-2003 21:40:04 14.9 C 59 % 6.97 C
3866 13-09-2003 21:52:04 14.6 C 59 % 6.69 C
3867 13-09-2003 22:05:03 14.3 C 60 % 6.65 C
3868 13-09-2003 22:17:03 14.2 C 60 % 6.56 C
3869 13-09-2003 22:29:03 13.8 C 62 % 6.65 C
3870 13-09-2003 22:41:03 13.6 C 64 % 6.93 C
3871 13-09-2003 22:53:03 13.5 C 63 % 6.6 C
3872 13-09-2003 23:05:03 13.2 C 64 % 6.55 C
3873 13-09-2003 23:17:03 13 C 66 % 6.8 C
3874 13-09-2003 23:29:03 12.9 C 66 % 6.71 C
3875 13-09-2003 23:41:03 12.8 C 67 % 6.83 C
Sensor: Nr:Datum:Temp:Feuchte:Taupunkt:
Aussen-T/F 3876 13-09-2003 23:53:03 12.6 C 67 % 6.64 C
3877 14-09-2003 00:05:03 12.6 C 69 % 7.07 C
3878 14-09-2003 00:17:03 12.3 C 70 % 6.99 C
3879 14-09-2003 00:29:03 12 C 69 % 6.5 C
3880 14-09-2003 00:41:03 11.8 C 72 % 6.92 C
3881 14-09-2003 00:53:03 11.7 C 72 % 6.83 C
3882 14-09-2003 01:05:03 11.5 C 72 % 6.63 C
3883 14-09-2003 01:17:03 11.2 C 73 % 6.55 C
3884 14-09-2003 01:29:03 11 C 74 % 6.55 C